Darstellungsparameter: Aktuell verwendete Einstellungen:
Skalierung der Graphiken ... ?
xyx+y,   Skalierungsfaktor:      Skalierung: Modus: x, Faktor: 1
Darstellungszeitraum ... ?
Vom - - bis: - -   Zeitraum: 02.03.2020 - 30.03.2020
Min/Max/Avg-Anzeige ... ?
Zeige MMA aktuell
Zeige MMA Monat
Zeige MMA alles
Zeige --A aktuell
Zeige --A Monat
Zeige --A alles
Keine MMA-Anzeige
MMA:
Keine MMA-Graphiken
MMA-Basis: 02.03.2020 - 30.03.2020
Quicknavigation für Darstellung... ?
Tage:      1T, 2T, 3T, 5T -1T -2T -3T -5T +1T +2T +3T +5T
Wochen: 1W, 2W, 3W -1W -2W -3W +1W +2W +3W
Monate: 1M, 3M, 6M -1M -3M -6M +1M +3M +6M
Jahre:    1J, 3J, 5J, 10J -1J -3J -5J -10J +1J +3J +5J +10J
Nutze für die Darstellung ... ?
Originaldaten oder Mittelwerte auf ...
Stundenbasis Tagesbasis Wochenbasis
Monatsbasis Jahresbasis      Datenbasis: Original-Daten
Darstellen als:
Statistik (Auto) Statistik J:M      Darstellung:
Zur Graphik,    zurück zur Übersicht aller Sensoren.
 
Tabellarische Datenbersicht: ?
 
Sensor: Nr:Datum:Temp:Feuchte:
Aussen-T/F 1 02-03-2020 00:08:18 3.3 C 44 %
2 02-03-2020 00:18:17 3.3 C 43 %
3 02-03-2020 00:28:17 3.5 C 43 %
4 02-03-2020 00:38:17 3.5 C 43 %
5 02-03-2020 00:48:17 3.7 C 42 %
6 02-03-2020 00:58:18 3.6 C 42 %
7 02-03-2020 01:08:18 3.7 C 42 %
8 02-03-2020 01:18:17 3.9 C 41 %
9 02-03-2020 01:28:17 3.8 C 42 %
10 02-03-2020 01:38:17 3.8 C 41 %
11 02-03-2020 01:48:18 4 C 40 %
12 02-03-2020 01:58:18 3.5 C 42 %
13 02-03-2020 02:08:18 3.7 C 42 %
14 02-03-2020 02:18:17 3.6 C 42 %
15 02-03-2020 02:28:17 3.5 C 42 %
16 02-03-2020 02:38:17 4 C 40 %
17 02-03-2020 02:48:17 3.8 C 41 %
18 02-03-2020 02:58:18 3.5 C 42 %
19 02-03-2020 03:08:18 3.3 C 43 %
20 02-03-2020 03:18:18 3.4 C 42 %
21 02-03-2020 03:28:18 2.9 C 44 %
22 02-03-2020 03:38:18 2.4 C 45 %
23 02-03-2020 03:48:18 2.9 C 45 %
24 02-03-2020 03:58:18 2.6 C 45 %
25 02-03-2020 04:08:18 2.3 C 45 %
Sensor: Nr:Datum:Temp:Feuchte:
Aussen-T/F 26 02-03-2020 04:18:17 2 C 46 %
27 02-03-2020 04:28:17 2.2 C 46 %
28 02-03-2020 04:38:18 2.3 C 47 %
29 02-03-2020 04:48:18 2.2 C 46 %
30 02-03-2020 04:58:18 1.9 C 48 %
31 02-03-2020 05:08:18 1.7 C 48 %
32 02-03-2020 05:18:17 1.5 C 48 %
33 02-03-2020 05:28:17 1.3 C 48 %
34 02-03-2020 05:38:18 1.4 C 48 %
35 02-03-2020 05:48:18 1.4 C 48 %
36 02-03-2020 05:58:18 1.3 C 48 %
37 02-03-2020 06:08:18 1.1 C 48 %
38 02-03-2020 06:18:18 1.3 C 48 %
39 02-03-2020 06:28:18 1.3 C 48 %
40 02-03-2020 06:38:18 1.4 C 48 %
41 02-03-2020 06:48:17 1.4 C 48 %
42 02-03-2020 06:58:17 1.5 C 48 %
43 02-03-2020 07:08:18 1.5 C 48 %
44 02-03-2020 07:18:18 1.7 C 48 %
45 02-03-2020 07:28:18 1.8 C 48 %
46 02-03-2020 07:38:18 2.1 C 47 %
47 02-03-2020 07:48:18 2.3 C 47 %
48 02-03-2020 07:58:18 2.5 C 47 %
49 02-03-2020 08:08:18 2.5 C 47 %
50 02-03-2020 08:18:17 2.7 C 47 %
Sensor: Nr:Datum:Temp:Feuchte:
Aussen-T/F 51 02-03-2020 08:28:17 3 C 46 %
52 02-03-2020 08:38:18 3.2 C 46 %
53 02-03-2020 08:48:18 3.5 C 46 %
54 02-03-2020 08:58:18 3.8 C 45 %
55 02-03-2020 09:08:17 4.1 C 43 %
56 02-03-2020 09:18:17 4.5 C 42 %
57 02-03-2020 09:28:17 4.9 C 40 %
58 02-03-2020 09:38:17 5.4 C 39 %
59 02-03-2020 09:48:17 5.7 C 39 %
60 02-03-2020 09:58:17 6.1 C 38 %
61 02-03-2020 10:08:17 6.6 C 37 %
62 02-03-2020 10:18:17 6.9 C 36 %
63 02-03-2020 10:28:17 7.4 C 35 %
64 02-03-2020 10:38:18 8.2 C 34 %
65 02-03-2020 10:48:17 8.9 C 34 %
66 02-03-2020 10:58:17 9 C 33 %
67 02-03-2020 11:08:17 9 C 33 %
68 02-03-2020 11:18:17 11.5 C 30 %
69 02-03-2020 11:28:17 13 C 26 %
70 02-03-2020 11:38:17 13.9 C 25 %
71 02-03-2020 11:48:17 11.8 C 27 %
72 02-03-2020 11:58:17 13.6 C 24 %
73 02-03-2020 12:08:17 13.3 C 21 %
74 02-03-2020 12:18:17 13.2 C 21 %
75 02-03-2020 12:28:17 12.3 C 23 %
Sensor: Nr:Datum:Temp:Feuchte:
Aussen-T/F 76 02-03-2020 12:38:18 13 C 23 %
77 02-03-2020 12:48:18 11.8 C 24 %
78 02-03-2020 12:58:18 11.7 C 25 %
79 02-03-2020 13:08:18 12.4 C 23 %
80 02-03-2020 13:18:18 14.7 C 20 %
81 02-03-2020 13:28:18 14.2 C 20 %
82 02-03-2020 13:38:17 15.6 C 20 %
83 02-03-2020 13:48:17 14.1 C 20 %
84 02-03-2020 13:58:17 12.3 C 21 %
85 02-03-2020 14:08:17 11.8 C 23 %
86 02-03-2020 14:18:17 12.1 C 23 %
87 02-03-2020 14:28:17 11.7 C 25 %
88 02-03-2020 14:38:17 11.2 C 25 %
89 02-03-2020 14:48:17 10.9 C 25 %
90 02-03-2020 14:58:17 10.8 C 26 %
91 02-03-2020 15:08:18 10.9 C 26 %
92 02-03-2020 15:18:18 10.9 C 26 %
93 02-03-2020 15:28:18 10.2 C 26 %
94 02-03-2020 15:38:18 9.2 C 30 %
95 02-03-2020 15:48:17 8.7 C 33 %
96 02-03-2020 15:58:18 8.4 C 36 %
97 02-03-2020 16:08:18 8 C 40 %
98 02-03-2020 16:18:18 7.6 C 41 %
99 02-03-2020 16:28:18 7.3 C 42 %
100 02-03-2020 16:38:18 7.2 C 43 %
Sensor: Nr:Datum:Temp:Feuchte:
Aussen-T/F 101 02-03-2020 16:48:17 7.1 C 43 %
102 02-03-2020 16:58:17 7 C 44 %
103 02-03-2020 17:08:17 6.9 C 45 %
104 02-03-2020 17:18:17 6.6 C 45 %
105 02-03-2020 17:28:17 6.6 C 45 %
106 02-03-2020 17:38:18 6.4 C 45 %
107 02-03-2020 17:48:17 6.3 C 45 %
108 02-03-2020 17:58:18 6.3 C 45 %
109 02-03-2020 18:08:18 6.2 C 45 %
110 02-03-2020 18:18:18 6.1 C 45 %
111 02-03-2020 18:28:18 6 C 45 %
112 02-03-2020 18:38:18 5.9 C 46 %
113 02-03-2020 18:48:17 5.9 C 46 %
114 02-03-2020 18:58:18 5.8 C 46 %
115 02-03-2020 19:08:18 5.7 C 46 %
116 02-03-2020 19:18:18 5.7 C 46 %
117 02-03-2020 19:28:18 5.7 C 46 %
118 02-03-2020 19:38:18 5.7 C 46 %
119 02-03-2020 19:48:17 5.7 C 45 %
120 02-03-2020 19:58:18 5.7 C 45 %
121 02-03-2020 20:08:18 5.7 C 45 %
122 02-03-2020 20:18:17 5.7 C 45 %
123 02-03-2020 20:28:18 5.6 C 45 %
124 02-03-2020 20:38:18 5.6 C 45 %
125 02-03-2020 20:48:17 5.6 C 45 %
Sensor: Nr:Datum:Temp:Feuchte:
Aussen-T/F 126 02-03-2020 20:58:17 5.5 C 45 %
127 02-03-2020 21:08:18 5.4 C 45 %
128 02-03-2020 21:18:18 5.4 C 45 %
129 02-03-2020 21:28:18 5.4 C 45 %
130 02-03-2020 21:38:18 5.4 C 45 %
131 02-03-2020 21:48:18 5.4 C 45 %
132 02-03-2020 21:58:18 5.4 C 45 %
133 02-03-2020 22:08:18 5.4 C 45 %
134 02-03-2020 22:18:17 5.4 C 45 %
135 02-03-2020 22:28:17 5.5 C 45 %
136 02-03-2020 22:38:17 5.4 C 45 %
137 02-03-2020 22:48:17 5.5 C 45 %
138 02-03-2020 22:58:17 5.5 C 45 %
139 02-03-2020 23:08:17 5.5 C 45 %
140 02-03-2020 23:18:17 5.2 C 45 %
141 02-03-2020 23:28:17 5.2 C 45 %
142 02-03-2020 23:38:17 5.2 C 45 %
143 02-03-2020 23:48:17 5.3 C 45 %
144 02-03-2020 23:58:17 5.3 C 45 %
145 03-03-2020 00:08:18 5.2 C 45 %
146 03-03-2020 00:18:18 5.1 C 44 %
147 03-03-2020 00:28:18 5 C 44 %
148 03-03-2020 00:38:18 5 C 44 %
149 03-03-2020 00:48:17 4.9 C 45 %
150 03-03-2020 00:58:17 4.9 C 45 %
Sensor: Nr:Datum:Temp:Feuchte:
Aussen-T/F 151 03-03-2020 01:08:17 5.1 C 44 %
152 03-03-2020 01:18:17 5 C 43 %
153 03-03-2020 01:28:17 5 C 43 %
154 03-03-2020 01:38:18 4.6 C 41 %
155 03-03-2020 01:48:17 4.5 C 42 %
156 03-03-2020 01:58:17 4.4 C 43 %
157 03-03-2020 02:08:17 4.4 C 43 %
158 03-03-2020 02:18:17 4.2 C 42 %
159 03-03-2020 02:28:17 4.1 C 41 %
160 03-03-2020 02:38:18 4.1 C 41 %
161 03-03-2020 02:48:18 4.1 C 41 %
162 03-03-2020 02:58:18 3.9 C 42 %
163 03-03-2020 03:08:17 3.8 C 41 %
164 03-03-2020 03:18:17 3.7 C 40 %
165 03-03-2020 03:28:17 3.4 C 41 %
166 03-03-2020 03:38:18 3.5 C 41 %
167 03-03-2020 03:48:18 3 C 42 %
168 03-03-2020 03:58:18 3.1 C 42 %
169 03-03-2020 04:08:17 2.8 C 43 %
170 03-03-2020 04:18:17 3.2 C 41 %
171 03-03-2020 04:28:17 3.2 C 41 %
172 03-03-2020 04:38:18 2.9 C 42 %
173 03-03-2020 04:48:17 2.9 C 43 %
174 03-03-2020 04:58:18 3.2 C 41 %
175 03-03-2020 05:08:18 3.1 C 41 %
Sensor: Nr:Datum:Temp:Feuchte:
Aussen-T/F 176 03-03-2020 05:18:18 2.7 C 43 %
177 03-03-2020 05:28:18 2.3 C 44 %
178 03-03-2020 05:38:17 2.6 C 43 %
179 03-03-2020 05:48:18 2.7 C 42 %
180 03-03-2020 05:58:18 2.4 C 44 %
181 03-03-2020 06:08:17 3 C 42 %
182 03-03-2020 06:18:18 3.1 C 41 %
183 03-03-2020 06:28:18 2.8 C 42 %
184 03-03-2020 06:38:17 2.6 C 43 %
185 03-03-2020 06:48:18 2.7 C 42 %
186 03-03-2020 06:58:18 2.8 C 42 %
187 03-03-2020 07:08:18 2.8 C 42 %
188 03-03-2020 07:18:18 2.6 C 43 %
189 03-03-2020 07:28:18 2.7 C 43 %
190 03-03-2020 07:38:18 2.6 C 43 %
191 03-03-2020 07:48:17 2.5 C 43 %
192 03-03-2020 07:58:17 2.5 C 43 %
193 03-03-2020 08:08:18 2.7 C 43 %
194 03-03-2020 08:18:18 3.3 C 41 %
195 03-03-2020 08:28:18 3.2 C 41 %
196 03-03-2020 08:38:17 3.5 C 40 %
197 03-03-2020 08:48:17 3.6 C 40 %
198 03-03-2020 08:58:18 3.4 C 40 %
199 03-03-2020 09:08:18 3.5 C 40 %
200 03-03-2020 09:18:17 3.2 C 40 %
Sensor: Nr:Datum:Temp:Feuchte:
Aussen-T/F 201 03-03-2020 09:28:17 3.5 C 40 %
202 03-03-2020 09:38:17 3.6 C 40 %
203 03-03-2020 09:48:18 4.1 C 39 %
204 03-03-2020 09:58:18 4.6 C 38 %
205 03-03-2020 10:08:18 5.3 C 36 %
206 03-03-2020 10:18:18 5.1 C 36 %
207 03-03-2020 10:28:18 5.2 C 35 %
208 03-03-2020 10:38:18 5.4 C 35 %
209 03-03-2020 10:48:17 4.9 C 35 %
210 03-03-2020 10:58:18 5 C 35 %
211 03-03-2020 11:08:17 5.2 C 35 %
212 03-03-2020 11:18:17 5.2 C 35 %
213 03-03-2020 11:28:17 5.3 C 35 %
214 03-03-2020 11:38:17 5.1 C 35 %
215 03-03-2020 11:48:17 5.8 C 35 %
216 03-03-2020 11:58:17 5.7 C 35 %
217 03-03-2020 12:08:17 6.1 C 35 %
218 03-03-2020 12:18:17 6.4 C 34 %
219 03-03-2020 12:28:17 6.6 C 34 %
220 03-03-2020 12:38:17 6.5 C 33 %
221 03-03-2020 12:48:17 7.1 C 33 %
222 03-03-2020 12:58:17 6.6 C 33 %
223 03-03-2020 13:08:17 6.6 C 33 %
224 03-03-2020 13:18:17 9.6 C 28 %
225 03-03-2020 13:28:18 9.8 C 27 %
Sensor: Nr:Datum:Temp:Feuchte:
Aussen-T/F 226 03-03-2020 13:38:18 8.9 C 27 %
227 03-03-2020 13:48:17 9.7 C 25 %
228 03-03-2020 13:58:17 6.2 C 31 %
229 03-03-2020 14:08:18 5.8 C 35 %
230 03-03-2020 14:18:18 5.4 C 39 %
231 03-03-2020 14:28:18 5.7 C 38 %
232 03-03-2020 14:38:18 5 C 37 %
233 03-03-2020 14:48:18 4.7 C 39 %
234 03-03-2020 14:58:18 4.7 C 40 %
235 03-03-2020 15:08:18 4.7 C 39 %
236 03-03-2020 15:18:18 6.8 C 36 %
237 03-03-2020 15:28:18 6.9 C 35 %
238 03-03-2020 15:38:18 8.9 C 32 %
239 03-03-2020 15:48:17 8.9 C 30 %
240 03-03-2020 15:58:17 7.4 C 32 %
241 03-03-2020 16:08:18 11.8 C 23 %
242 03-03-2020 16:18:18 9.3 C 25 %
243 03-03-2020 16:28:18 7.4 C 30 %
244 03-03-2020 16:38:18 7.2 C 30 %
245 03-03-2020 16:48:17 7.3 C 31 %
246 03-03-2020 16:58:17 7.6 C 30 %
247 03-03-2020 17:08:17 6.7 C 32 %
248 03-03-2020 17:18:17 6.7 C 33 %
249 03-03-2020 17:28:18 6.5 C 34 %
250 03-03-2020 17:38:18 6.4 C 34 %
Sensor: Nr:Datum:Temp:Feuchte:
Aussen-T/F 251 03-03-2020 17:48:17 6 C 35 %
252 03-03-2020 17:58:18 5.4 C 36 %
253 03-03-2020 18:08:18 4.3 C 38 %
254 03-03-2020 18:18:18 4.4 C 39 %
255 03-03-2020 18:28:18 4 C 39 %
256 03-03-2020 18:38:18 3.7 C 41 %
257 03-03-2020 18:48:17 3.5 C 41 %
258 03-03-2020 18:58:17 3.6 C 41 %
259 03-03-2020 19:08:17 3.6 C 40 %
260 03-03-2020 19:18:17 3.8 C 40 %
261 03-03-2020 19:28:17 3.1 C 41 %
262 03-03-2020 19:38:17 3.2 C 41 %
263 03-03-2020 19:48:17 2.7 C 42 %
264 03-03-2020 19:58:17 2.3 C 42 %
265 03-03-2020 20:08:17 1.7 C 45 %
266 03-03-2020 20:18:17 1.8 C 47 %
267 03-03-2020 20:28:17 1.7 C 47 %
268 03-03-2020 20:38:17 1.3 C 46 %
269 03-03-2020 20:48:17 1.4 C 47 %
270 03-03-2020 20:58:17 1.3 C 47 %
271 03-03-2020 21:08:17 1.2 C 47 %
272 03-03-2020 21:18:17 1.6 C 48 %
273 03-03-2020 21:28:17 2 C 47 %
274 03-03-2020 21:38:17 2.1 C 45 %
275 03-03-2020 21:48:17 2 C 45 %
Sensor: Nr:Datum:Temp:Feuchte:
Aussen-T/F 276 03-03-2020 21:58:17 2.2 C 45 %
277 03-03-2020 22:08:17 1.9 C 46 %
278 03-03-2020 22:18:17 1.5 C 46 %
279 03-03-2020 22:28:17 1.4 C 47 %
280 03-03-2020 22:38:17 1.2 C 47 %
281 03-03-2020 22:48:17 1 C 47 %
282 03-03-2020 22:58:17 1.2 C 48 %
283 03-03-2020 23:08:17 1.7 C 48 %
284 03-03-2020 23:18:18 2.3 C 46 %
285 03-03-2020 23:28:18 2.4 C 44 %
286 03-03-2020 23:38:17 2.6 C 44 %
287 03-03-2020 23:48:17 2.7 C 43 %
288 03-03-2020 23:58:17 2.8 C 43 %
289 04-03-2020 00:08:17 3.1 C 42 %
290 04-03-2020 00:18:18 3 C 41 %
291 04-03-2020 00:28:18 2.9 C 42 %
292 04-03-2020 00:38:18 3.1 C 41 %
293 04-03-2020 00:48:17 2.5 C 42 %
294 04-03-2020 00:58:17 2.3 C 44 %
295 04-03-2020 01:08:17 2.6 C 43 %
296 04-03-2020 01:18:17 2.6 C 42 %
297 04-03-2020 01:28:17 2.4 C 42 %
298 04-03-2020 01:38:17 2.5 C 42 %
299 04-03-2020 01:48:17 2.6 C 42 %
300 04-03-2020 01:58:17 2.6 C 42 %
Sensor: Nr:Datum:Temp:Feuchte:
Aussen-T/F 301 04-03-2020 02:08:17 2.7 C 42 %
302 04-03-2020 02:18:17 2.8 C 42 %
303 04-03-2020 02:28:18 2.7 C 42 %
304 04-03-2020 02:38:18 3.2 C 41 %
305 04-03-2020 02:48:17 3.6 C 40 %
306 04-03-2020 02:58:18 3.4 C 40 %
307 04-03-2020 03:08:17 3.3 C 40 %
308 04-03-2020 03:18:17 3 C 41 %
309 04-03-2020 03:28:17 3.2 C 41 %
310 04-03-2020 03:38:17 2.9 C 42 %
311 04-03-2020 03:48:17 2.6 C 42 %
312 04-03-2020 03:58:18 2.5 C 44 %
313 04-03-2020 04:08:18 3.4 C 41 %
314 04-03-2020 04:18:18 3.4 C 41 %
315 04-03-2020 04:28:18 3.6 C 40 %
316 04-03-2020 04:38:18 3.6 C 40 %
317 04-03-2020 04:48:17 3.7 C 40 %
318 04-03-2020 04:58:18 3.5 C 41 %
319 04-03-2020 05:08:18 3.4 C 41 %
320 04-03-2020 05:18:18 3.2 C 42 %
321 04-03-2020 05:28:18 3.1 C 44 %
322 04-03-2020 05:38:18 3.2 C 44 %
323 04-03-2020 05:48:17 3.2 C 43 %
324 04-03-2020 05:58:18 3.2 C 43 %
325 04-03-2020 06:08:18 3.3 C 43 %
Sensor: Nr:Datum:Temp:Feuchte:
Aussen-T/F 326 04-03-2020 06:18:18 3.3 C 42 %
327 04-03-2020 06:28:18 3.4 C 42 %
328 04-03-2020 06:38:18 3.6 C 42 %
329 04-03-2020 06:48:17 3.6 C 42 %
330 04-03-2020 06:58:17 3.7 C 41 %
331 04-03-2020 07:08:17 3.7 C 41 %
332 04-03-2020 07:18:17 3.9 C 41 %
333 04-03-2020 07:28:17 3.9 C 41 %
334 04-03-2020 07:38:18 4 C 40 %
335 04-03-2020 07:48:17 3.9 C 41 %
336 04-03-2020 07:58:17 3.7 C 41 %
337 04-03-2020 08:08:18 3.3 C 42 %
338 04-03-2020 08:18:17 3.4 C 42 %
339 04-03-2020 08:28:17 3.8 C 41 %
340 04-03-2020 08:38:18 3.7 C 41 %
341 04-03-2020 08:48:18 4.1 C 40 %
342 04-03-2020 08:58:18 3.7 C 41 %
343 04-03-2020 09:08:18 3.9 C 41 %
344 04-03-2020 09:18:18 4.2 C 40 %
345 04-03-2020 09:28:18 4.6 C 40 %
346 04-03-2020 09:38:18 4.7 C 39 %
347 04-03-2020 09:48:17 5.1 C 38 %
348 04-03-2020 09:58:18 5.4 C 37 %
349 04-03-2020 10:08:18 5.6 C 37 %
350 04-03-2020 10:18:18 5.8 C 37 %
Sensor: Nr:Datum:Temp:Feuchte:
Aussen-T/F 351 04-03-2020 10:28:18 6 C 36 %
352 04-03-2020 10:38:17 6.6 C 36 %
353 04-03-2020 10:48:18 6.4 C 36 %
354 04-03-2020 10:58:18 6.5 C 36 %
355 04-03-2020 11:08:18 6.8 C 35 %
356 04-03-2020 11:18:18 7.7 C 34 %
357 04-03-2020 11:28:18 8.2 C 33 %
358 04-03-2020 11:38:18 8.3 C 32 %
359 04-03-2020 11:48:18 8.8 C 32 %
360 04-03-2020 11:58:18 9.5 C 31 %
361 04-03-2020 12:08:18 9.6 C 31 %
362 04-03-2020 12:18:18 10.1 C 30 %
363 04-03-2020 12:28:18 9 C 30 %
364 04-03-2020 12:38:18 9.9 C 29 %
365 04-03-2020 12:48:17 10.9 C 28 %
366 04-03-2020 12:58:17 9.1 C 29 %
367 04-03-2020 13:08:17 9.3 C 28 %
368 04-03-2020 13:18:17 9.4 C 28 %
369 04-03-2020 13:28:17 10.7 C 27 %
370 04-03-2020 13:38:18 9.5 C 28 %
371 04-03-2020 13:48:17 9.6 C 28 %
372 04-03-2020 13:58:17 10.2 C 26 %
373 04-03-2020 14:08:18 10.6 C 26 %
374 04-03-2020 14:18:18 9.6 C 27 %
375 04-03-2020 14:28:18 9.6 C 27 %
Sensor: Nr:Datum:Temp:Feuchte:
Aussen-T/F 376 04-03-2020 14:38:18 10.1 C 26 %
377 04-03-2020 14:48:18 9.5 C 28 %
378 04-03-2020 14:58:18 9 C 28 %
379 04-03-2020 15:08:18 9.4 C 28 %
380 04-03-2020 15:18:18 9.5 C 28 %
381 04-03-2020 15:28:18 9.7 C 27 %
382 04-03-2020 15:38:18 9.4 C 29 %
383 04-03-2020 15:48:17 9.5 C 28 %
384 04-03-2020 15:58:18 10.6 C 26 %
385 04-03-2020 16:08:17 10.1 C 26 %
386 04-03-2020 16:18:17 10.9 C 26 %
387 04-03-2020 16:28:17 10 C 26 %
388 04-03-2020 16:38:17 10.9 C 26 %
389 04-03-2020 16:48:17 11 C 25 %
390 04-03-2020 16:58:17 11.5 C 25 %
391 04-03-2020 17:08:17 10.6 C 25 %
392 04-03-2020 17:18:17 8.8 C 27 %
393 04-03-2020 17:28:18 8 C 29 %
394 04-03-2020 17:38:18 7.3 C 32 %
395 04-03-2020 17:48:17 6.4 C 35 %
396 04-03-2020 17:58:17 5.7 C 36 %
397 04-03-2020 18:08:17 5.2 C 37 %
398 04-03-2020 18:18:17 4.8 C 38 %
399 04-03-2020 18:28:17 4.7 C 39 %
400 04-03-2020 18:38:17 4.5 C 39 %
Sensor: Nr:Datum:Temp:Feuchte:
Aussen-T/F 401 04-03-2020 18:48:17 4.3 C 39 %
402 04-03-2020 18:58:17 4 C 39 %
403 04-03-2020 19:08:17 3.9 C 40 %
404 04-03-2020 19:18:17 4 C 40 %
405 04-03-2020 19:28:17 4.1 C 40 %
406 04-03-2020 19:38:17 4.1 C 40 %
407 04-03-2020 19:48:18 4 C 40 %
408 04-03-2020 19:58:18 3.7 C 41 %
409 04-03-2020 20:08:17 3.8 C 41 %
410 04-03-2020 20:18:17 3.7 C 41 %
411 04-03-2020 20:28:17 3.4 C 41 %
412 04-03-2020 20:38:17 3.1 C 42 %
413 04-03-2020 20:48:18 3.1 C 42 %
414 04-03-2020 20:58:18 2.9 C 43 %
415 04-03-2020 21:08:18 3.3 C 42 %
416 04-03-2020 21:18:18 3 C 42 %
417 04-03-2020 21:28:18 3.1 C 42 %
418 04-03-2020 21:38:18 3.3 C 42 %
419 04-03-2020 21:48:18 3.1 C 42 %
420 04-03-2020 21:58:18 3.1 C 42 %
421 04-03-2020 22:08:18 2.6 C 44 %
422 04-03-2020 22:18:17 2.5 C 45 %
423 04-03-2020 22:28:17 2.4 C 45 %
424 04-03-2020 22:38:17 2.9 C 46 %
425 04-03-2020 22:48:17 2.9 C 46 %
Sensor: Nr:Datum:Temp:Feuchte:
Aussen-T/F 426 04-03-2020 22:58:17 3.2 C 45 %
427 04-03-2020 23:08:17 3.3 C 43 %
428 04-03-2020 23:18:17 3.6 C 43 %
429 04-03-2020 23:28:18 3.5 C 43 %
430 04-03-2020 23:38:18 3.6 C 43 %
431 04-03-2020 23:48:18 3.7 C 45 %
432 04-03-2020 23:58:18 3.6 C 45 %
433 05-03-2020 00:08:18 3.6 C 46 %
434 05-03-2020 00:18:18 3.6 C 46 %
435 05-03-2020 00:28:18 3.8 C 47 %
436 05-03-2020 00:38:17 3.8 C 47 %
437 05-03-2020 00:48:17 3.6 C 47 %
438 05-03-2020 00:58:17 3.5 C 47 %
439 05-03-2020 01:08:17 3.5 C 47 %
440 05-03-2020 01:18:17 3.5 C 47 %
441 05-03-2020 01:28:17 3.4 C 47 %
442 05-03-2020 01:38:17 3.4 C 47 %
443 05-03-2020 01:48:18 3.5 C 47 %
444 05-03-2020 01:58:18 3.5 C 47 %
445 05-03-2020 02:08:18 3.6 C 46 %
446 05-03-2020 02:18:18 3.7 C 46 %
447 05-03-2020 02:28:18 3.7 C 45 %
448 05-03-2020 02:38:18 3.7 C 44 %
449 05-03-2020 02:48:18 3.9 C 43 %
450 05-03-2020 02:58:18 3.9 C 43 %
Sensor: Nr:Datum:Temp:Feuchte:
Aussen-T/F 451 05-03-2020 03:08:18 4 C 42 %
452 05-03-2020 03:18:17 4.1 C 42 %
453 05-03-2020 03:28:17 4 C 41 %
454 05-03-2020 03:38:17 4.1 C 41 %
455 05-03-2020 03:48:17 4 C 42 %
456 05-03-2020 03:58:17 3.8 C 43 %
457 05-03-2020 04:08:17 3.8 C 44 %
458 05-03-2020 04:18:17 3.9 C 44 %
459 05-03-2020 04:28:18 3.9 C 43 %
460 05-03-2020 04:38:18 3.9 C 43 %
461 05-03-2020 04:48:17 3.8 C 43 %
462 05-03-2020 04:58:18 3.8 C 43 %
463 05-03-2020 05:08:18 3.9 C 44 %
464 05-03-2020 05:18:18 3.9 C 44 %
465 05-03-2020 05:28:18 3.8 C 44 %
466 05-03-2020 05:38:18 3.9 C 44 %
467 05-03-2020 05:48:17 3.7 C 44 %
468 05-03-2020 05:58:18 3.9 C 44 %
469 05-03-2020 06:08:18 4 C 43 %
470 05-03-2020 06:18:18 3.9 C 43 %
471 05-03-2020 06:28:18 4 C 42 %
472 05-03-2020 06:38:18 4 C 42 %
473 05-03-2020 06:48:17 4.1 C 42 %
474 05-03-2020 06:58:17 4.1 C 42 %
475 05-03-2020 07:08:18 4.2 C 42 %
Sensor: Nr:Datum:Temp:Feuchte:
Aussen-T/F 476 05-03-2020 07:18:17 4.3 C 42 %
477 05-03-2020 07:28:18 4.4 C 42 %
478 05-03-2020 07:38:18 4.5 C 41 %
479 05-03-2020 07:48:17 4.7 C 41 %
480 05-03-2020 07:58:17 4.8 C 41 %
481 05-03-2020 08:08:18 4.7 C 41 %
482 05-03-2020 08:18:18 4.8 C 41 %
483 05-03-2020 08:28:18 4.8 C 41 %
484 05-03-2020 08:38:17 5.1 C 40 %
485 05-03-2020 08:48:17 5.3 C 40 %
486 05-03-2020 08:58:17 5.4 C 40 %
487 05-03-2020 09:08:17 5.9 C 40 %
488 05-03-2020 09:18:17 6.1 C 38 %
489 05-03-2020 09:28:17 6.4 C 38 %
490 05-03-2020 09:38:17 6.4 C 38 %
491 05-03-2020 09:48:17 6.6 C 38 %
492 05-03-2020 09:58:17 6.6 C 38 %
493 05-03-2020 10:08:18 6.9 C 38 %
494 05-03-2020 10:18:17 6.4 C 38 %
495 05-03-2020 10:28:17 6.3 C 38 %
496 05-03-2020 10:38:18 6.2 C 38 %
497 05-03-2020 10:48:18 6.3 C 39 %
498 05-03-2020 10:58:18 6.7 C 38 %
499 05-03-2020 11:08:17 7 C 38 %
500 05-03-2020 11:18:17 7.1 C 37 %
Sensor: Nr:Datum:Temp:Feuchte:
Aussen-T/F 501 05-03-2020 11:28:17 7.3 C 37 %
502 05-03-2020 11:38:18 7.7 C 37 %
503 05-03-2020 11:48:18 7.8 C 37 %
504 05-03-2020 11:58:18 7.4 C 37 %
505 05-03-2020 12:08:17 7.5 C 37 %
506 05-03-2020 12:18:17 7.5 C 37 %
507 05-03-2020 12:28:18 6.9 C 38 %
508 05-03-2020 12:38:18 7.1 C 38 %
509 05-03-2020 12:48:17 7 C 39 %
510 05-03-2020 12:58:17 6.8 C 40 %
511 05-03-2020 13:08:17 6.8 C 41 %
512 05-03-2020 13:18:17 6.9 C 41 %
513 05-03-2020 13:28:17 6.9 C 41 %
514 05-03-2020 13:38:17 7 C 41 %
515 05-03-2020 13:48:17 6.6 C 42 %
516 05-03-2020 13:58:17 6.4 C 42 %
517 05-03-2020 14:08:17 6.4 C 43 %
518 05-03-2020 14:18:17 6.4 C 43 %
519 05-03-2020 14:28:17 6.3 C 42 %
520 05-03-2020 14:38:17 6.3 C 43 %
521 05-03-2020 14:48:18 6.3 C 44 %
522 05-03-2020 14:58:18 6.3 C 44 %
523 05-03-2020 15:08:18 6.3 C 45 %
524 05-03-2020 15:18:18 6.3 C 45 %
525 05-03-2020 15:28:18 6.3 C 45 %
Sensor: Nr:Datum:Temp:Feuchte:
Aussen-T/F 526 05-03-2020 15:38:18 6.4 C 45 %
527 05-03-2020 15:48:17 6.5 C 45 %
528 05-03-2020 15:58:17 6.7 C 45 %
529 05-03-2020 16:08:17 6.7 C 44 %
530 05-03-2020 16:18:17 6.7 C 43 %
531 05-03-2020 16:28:17 6.5 C 43 %
532 05-03-2020 16:38:17 6.4 C 43 %
533 05-03-2020 16:48:18 6.3 C 44 %
534 05-03-2020 16:58:18 6.2 C 45 %
535 05-03-2020 17:08:17 6.1 C 45 %
536 05-03-2020 17:18:17 6 C 45 %
537 05-03-2020 17:28:17 6 C 45 %
538 05-03-2020 17:38:17 5.9 C 46 %
539 05-03-2020 17:48:17 5.9 C 46 %
540 05-03-2020 17:58:17 5.9 C 46 %
541 05-03-2020 18:08:18 5.8 C 46 %
542 05-03-2020 18:18:17 5.9 C 46 %
543 05-03-2020 18:28:17 5.8 C 46 %
544 05-03-2020 18:38:17 5.7 C 46 %
545 05-03-2020 18:48:17 5.7 C 46 %
546 05-03-2020 18:58:17 5.7 C 46 %
547 05-03-2020 19:08:18 5.7 C 46 %
548 05-03-2020 19:18:17 5.6 C 46 %
549 05-03-2020 19:28:17 5.5 C 46 %
550 05-03-2020 19:38:17 5.5 C 46 %
Sensor: Nr:Datum:Temp:Feuchte:
Aussen-T/F 551 05-03-2020 19:48:18 5.7 C 46 %
552 05-03-2020 19:58:18 5.7 C 46 %
553 05-03-2020 20:08:17 5.8 C 45 %
554 05-03-2020 20:18:17 5.9 C 45 %
555 05-03-2020 20:28:17 6.1 C 45 %
556 05-03-2020 20:38:18 6.1 C 45 %
557 05-03-2020 20:48:17 6 C 45 %
558 05-03-2020 20:58:17 6 C 45 %
559 05-03-2020 21:08:18 6.1 C 45 %
560 05-03-2020 21:18:17 6.1 C 45 %
561 05-03-2020 21:28:17 6.1 C 45 %
562 05-03-2020 21:38:17 6.1 C 45 %
563 05-03-2020 21:48:17 6 C 45 %
564 05-03-2020 21:58:17 6.1 C 45 %
565 05-03-2020 22:08:17 6 C 45 %
566 05-03-2020 22:18:17 6.2 C 45 %
567 05-03-2020 22:28:17 6.1 C 45 %
568 05-03-2020 22:38:18 6 C 45 %
569 05-03-2020 22:48:17 6.1 C 45 %
570 05-03-2020 22:58:17 6 C 45 %
571 05-03-2020 23:08:17 6.2 C 45 %
572 05-03-2020 23:18:17 6.1 C 45 %
573 05-03-2020 23:28:18 6.1 C 45 %
574 05-03-2020 23:38:18 6.1 C 45 %
575 05-03-2020 23:48:18 6.1 C 45 %
Sensor: Nr:Datum:Temp:Feuchte:
Aussen-T/F 576 05-03-2020 23:58:18 6.1 C 44 %
577 06-03-2020 00:08:17 6.1 C 44 %
578 06-03-2020 00:18:17 6.2 C 44 %
579 06-03-2020 00:28:18 6.2 C 44 %
580 06-03-2020 00:38:18 6.2 C 44 %
581 06-03-2020 00:48:17 6.3 C 44 %
582 06-03-2020 00:58:17 6.4 C 44 %
583 06-03-2020 01:08:18 6.6 C 44 %
584 06-03-2020 01:18:17 6.7 C 44 %
585 06-03-2020 01:28:17 7 C 43 %
586 06-03-2020 01:38:18 7.1 C 43 %
587 06-03-2020 01:48:17 7.3 C 40 %
588 06-03-2020 01:58:18 6.9 C 40 %
589 06-03-2020 02:08:18 6.9 C 40 %
590 06-03-2020 02:18:18 6.9 C 40 %
591 06-03-2020 02:28:18 6.5 C 40 %
592 06-03-2020 02:38:17 6.4 C 41 %
593 06-03-2020 02:48:17 6.4 C 40 %
594 06-03-2020 02:58:17 6.4 C 40 %
595 06-03-2020 03:08:17 6.2 C 40 %
596 06-03-2020 03:18:18 6.2 C 40 %
597 06-03-2020 03:28:18 6.4 C 40 %
598 06-03-2020 03:38:18 6 C 40 %
599 06-03-2020 03:48:17 5.8 C 41 %
600 06-03-2020 03:58:18 5.6 C 43 %
Sensor: Nr:Datum:Temp:Feuchte:
Aussen-T/F 601 06-03-2020 04:08:17 5.5 C 44 %
602 06-03-2020 04:18:17 5.4 C 45 %
603 06-03-2020 04:28:17 5.5 C 45 %
604 06-03-2020 04:38:18 5.4 C 45 %
605 06-03-2020 04:48:17 5.4 C 46 %
606 06-03-2020 04:58:18 5.5 C 45 %
607 06-03-2020 05:08:18 5.6 C 44 %
608 06-03-2020 05:18:18 5.6 C 44 %
609 06-03-2020 05:28:18 5.6 C 45 %
610 06-03-2020 05:38:18 5.8 C 44 %
611 06-03-2020 05:48:17 5.8 C 44 %
612 06-03-2020 05:58:17 5.8 C 44 %
613 06-03-2020 06:08:17 5.8 C 45 %
614 06-03-2020 06:18:17 5.8 C 45 %
615 06-03-2020 06:28:17 5.9 C 45 %
616 06-03-2020 06:38:18 6 C 44 %
617 06-03-2020 06:48:17 6 C 44 %
618 06-03-2020 06:58:17 6.1 C 45 %
619 06-03-2020 07:08:17 6 C 45 %
620 06-03-2020 07:18:18 6 C 45 %
621 06-03-2020 07:28:18 6 C 45 %
622 06-03-2020 07:38:18 6 C 45 %
623 06-03-2020 07:48:17 5.9 C 45 %
624 06-03-2020 07:58:18 5.6 C 43 %
625 06-03-2020 08:08:17 5.3 C 42 %
Sensor: Nr:Datum:Temp:Feuchte:
Aussen-T/F 626 06-03-2020 08:18:17 5 C 41 %
627 06-03-2020 08:28:17 4.9 C 42 %
628 06-03-2020 08:38:17 4.9 C 43 %
629 06-03-2020 08:48:18 4.8 C 44 %
630 06-03-2020 08:58:18 4.8 C 44 %
631 06-03-2020 09:08:17 4.9 C 44 %
632 06-03-2020 09:18:17 4.9 C 43 %
633 06-03-2020 09:28:17 4.9 C 42 %
634 06-03-2020 09:38:18 4.8 C 42 %
635 06-03-2020 09:48:18 4.9 C 42 %
636 06-03-2020 09:58:18 4.8 C 41 %
637 06-03-2020 10:08:18 4.9 C 41 %
638 06-03-2020 10:18:18 4.7 C 42 %
639 06-03-2020 10:28:18 4.7 C 41 %
640 06-03-2020 10:38:18 4.7 C 41 %
641 06-03-2020 10:48:17 4.8 C 41 %
642 06-03-2020 10:58:18 4.9 C 41 %
643 06-03-2020 11:08:18 5 C 40 %
644 06-03-2020 11:18:18 5.2 C 40 %
645 06-03-2020 11:28:18 5.3 C 40 %
646 06-03-2020 11:38:18 5.1 C 40 %
647 06-03-2020 11:48:17 4.9 C 41 %
648 06-03-2020 11:58:17 4.7 C 41 %
649 06-03-2020 12:08:17 4.6 C 41 %
650 06-03-2020 12:18:17 4.5 C 41 %
Sensor: Nr:Datum:Temp:Feuchte:
Aussen-T/F 651 06-03-2020 12:28:17 4.6 C 41 %
652 06-03-2020 12:38:18 4.4 C 41 %
653 06-03-2020 12:48:18 4.6 C 41 %
654 06-03-2020 12:58:18 4.5 C 41 %
655 06-03-2020 13:08:18 4.7 C 41 %
656 06-03-2020 13:18:18 5 C 40 %
657 06-03-2020 13:28:18 5.1 C 40 %
658 06-03-2020 13:38:17 5.3 C 40 %
659 06-03-2020 13:48:17 5.1 C 40 %
660 06-03-2020 13:58:17 5 C 40 %
661 06-03-2020 14:08:17 4.8 C 41 %
662 06-03-2020 14:18:17 4.8 C 41 %
663 06-03-2020 14:28:17 4.8 C 41 %
664 06-03-2020 14:38:17 5 C 40 %
665 06-03-2020 14:48:17 5.3 C 40 %
666 06-03-2020 14:58:17 5.3 C 40 %
667 06-03-2020 15:08:17 5.4 C 39 %
668 06-03-2020 15:18:17 5.6 C 39 %
669 06-03-2020 15:28:17 5.8 C 39 %
670 06-03-2020 15:38:18 5.9 C 38 %
671 06-03-2020 15:48:17 5.8 C 38 %
672 06-03-2020 15:58:17 6 C 37 %
673 06-03-2020 16:08:17 6.1 C 37 %
674 06-03-2020 16:18:18 6.1 C 37 %
675 06-03-2020 16:28:18 6.1 C 37 %
Sensor: Nr:Datum:Temp:Feuchte:
Aussen-T/F 676 06-03-2020 16:38:18 6.1 C 38 %
677 06-03-2020 16:48:17 6 C 38 %
678 06-03-2020 16:58:17 6.3 C 38 %
679 06-03-2020 17:08:18 6.5 C 38 %
680 06-03-2020 17:18:18 6.9 C 37 %
681 06-03-2020 17:28:18 6.8 C 37 %
682 06-03-2020 17:38:18 6.8 C 37 %
683 06-03-2020 17:48:17 6.9 C 37 %
684 06-03-2020 17:58:18 6.7 C 37 %
685 06-03-2020 18:08:18 6.8 C 37 %
686 06-03-2020 18:18:18 6.6 C 37 %
687 06-03-2020 18:28:18 5.9 C 38 %
688 06-03-2020 18:38:18 6 C 37 %
689 06-03-2020 18:48:17 6.5 C 37 %
690 06-03-2020 18:58:18 6.4 C 37 %
691 06-03-2020 19:08:18 6.5 C 37 %
692 06-03-2020 19:18:18 6.3 C 37 %
693 06-03-2020 19:28:18 6.2 C 37 %
694 06-03-2020 19:38:18 6.3 C 37 %
695 06-03-2020 19:48:17 6.3 C 37 %
696 06-03-2020 19:58:17 6.2 C 36 %
697 06-03-2020 20:08:18 6.2 C 36 %
698 06-03-2020 20:18:18 5.9 C 37 %
699 06-03-2020 20:28:18 5.7 C 37 %
700 06-03-2020 20:38:18 5.5 C 38 %
Sensor: Nr:Datum:Temp:Feuchte:
Aussen-T/F 701 06-03-2020 20:48:17 5.4 C 38 %
702 06-03-2020 20:58:17 5.2 C 38 %
703 06-03-2020 21:08:17 5.3 C 38 %
704 06-03-2020 21:18:18 5.1 C 38 %
705 06-03-2020 21:28:18 5.2 C 38 %
706 06-03-2020 21:38:18 5.2 C 37 %
707 06-03-2020 21:48:17 4.9 C 38 %
708 06-03-2020 21:58:18 4.7 C 39 %
709 06-03-2020 22:08:17 4.8 C 39 %
710 06-03-2020 22:18:17 5.1 C 38 %
711 06-03-2020 22:28:18 5 C 38 %
712 06-03-2020 22:38:18 5.2 C 38 %
713 06-03-2020 22:48:17 5.3 C 38 %
714 06-03-2020 22:58:17 5.3 C 38 %
715 06-03-2020 23:08:18 5.2 C 38 %
716 06-03-2020 23:18:18 5.3 C 38 %
717 06-03-2020 23:28:18 5.2 C 37 %
718 06-03-2020 23:38:17 5.3 C 37 %
719 06-03-2020 23:48:17 5.3 C 37 %
720 06-03-2020 23:58:17 5.1 C 38 %
721 07-03-2020 00:08:17 5.1 C 37 %
722 07-03-2020 00:18:18 5.1 C 37 %
723 07-03-2020 00:28:18 5.1 C 37 %
724 07-03-2020 00:38:17 5.1 C 37 %
725 07-03-2020 00:48:17 5.1 C 37 %
Sensor: Nr:Datum:Temp:Feuchte:
Aussen-T/F 726 07-03-2020 00:58:17 5 C 37 %
727 07-03-2020 01:08:17 5.1 C 38 %
728 07-03-2020 01:18:17 5.1 C 38 %
729 07-03-2020 01:28:17 5.1 C 38 %
730 07-03-2020 01:38:18 5.3 C 37 %
731 07-03-2020 01:48:18 5.2 C 38 %
732 07-03-2020 01:58:18 5.2 C 38 %
733 07-03-2020 02:08:18 5.2 C 38 %
734 07-03-2020 02:18:17 5.3 C 38 %
735 07-03-2020 02:28:17 5.1 C 38 %
736 07-03-2020 02:38:17 5.1 C 38 %
737 07-03-2020 02:48:18 5.1 C 38 %
738 07-03-2020 02:58:18 5.1 C 38 %
739 07-03-2020 03:08:18 4.9 C 39 %
740 07-03-2020 03:18:17 4.7 C 40 %
741 07-03-2020 03:28:17 4.6 C 40 %
742 07-03-2020 03:38:17 4.7 C 40 %
743 07-03-2020 03:48:17 4.7 C 39 %
744 07-03-2020 03:58:17 4.6 C 40 %
745 07-03-2020 04:08:18 4.6 C 40 %
746 07-03-2020 04:18:17 4.7 C 40 %
747 07-03-2020 04:28:17 4.8 C 39 %
748 07-03-2020 04:38:18 4.7 C 39 %
749 07-03-2020 04:48:17 4.7 C 39 %
750 07-03-2020 04:58:18 4.7 C 39 %
Sensor: Nr:Datum:Temp:Feuchte:
Aussen-T/F 751 07-03-2020 05:08:18 4.6 C 39 %
752 07-03-2020 05:18:18 4.6 C 39 %
753 07-03-2020 05:28:18 4.6 C 39 %
754 07-03-2020 05:38:18 4.6 C 39 %
755 07-03-2020 05:48:18 4.5 C 39 %
756 07-03-2020 05:58:18 4.5 C 39 %
757 07-03-2020 06:08:17 4.6 C 39 %
758 07-03-2020 06:18:17 4.6 C 40 %
759 07-03-2020 06:28:17 4.6 C 39 %
760 07-03-2020 06:38:18 4.5 C 39 %
761 07-03-2020 06:48:17 4.5 C 39 %
762 07-03-2020 06:58:17 4.5 C 39 %
763 07-03-2020 07:08:18 4.5 C 39 %
764 07-03-2020 07:18:18 4.4 C 39 %
765 07-03-2020 07:28:18 4.4 C 39 %
766 07-03-2020 07:38:18 4.3 C 40 %
767 07-03-2020 07:48:17 4 C 40 %
768 07-03-2020 07:58:17 3.7 C 42 %
769 07-03-2020 08:08:18 3.7 C 45 %
770 07-03-2020 08:18:17 3.7 C 44 %
771 07-03-2020 08:28:17 3.9 C 43 %
772 07-03-2020 08:38:17 4 C 42 %
773 07-03-2020 08:48:17 4.4 C 41 %
774 07-03-2020 08:58:17 4.7 C 40 %
775 07-03-2020 09:08:17 5.1 C 38 %
Sensor: Nr:Datum:Temp:Feuchte:
Aussen-T/F 776 07-03-2020 09:18:17 5.3 C 37 %
777 07-03-2020 09:28:17 5.6 C 37 %
778 07-03-2020 09:38:17 5.7 C 36 %
779 07-03-2020 09:48:17 6.3 C 36 %
780 07-03-2020 09:58:17 6.5 C 35 %
781 07-03-2020 10:08:17 6.1 C 35 %
782 07-03-2020 10:18:17 5.7 C 36 %
783 07-03-2020 10:28:17 6.5 C 36 %
784 07-03-2020 10:38:17 6.4 C 35 %
785 07-03-2020 10:48:18 7 C 35 %
786 07-03-2020 10:58:18 7.3 C 35 %
787 07-03-2020 11:08:18 7.3 C 34 %
788 07-03-2020 11:18:18 7.8 C 32 %
789 07-03-2020 11:28:18 7.6 C 31 %
790 07-03-2020 11:38:18 7.8 C 30 %
791 07-03-2020 11:48:17 9.7 C 25 %
792 07-03-2020 11:58:18 7.6 C 29 %
793 07-03-2020 12:08:18 7.6 C 29 %
794 07-03-2020 12:18:18 7.8 C 29 %
795 07-03-2020 12:28:18 7.8 C 30 %
796 07-03-2020 12:38:17 8.2 C 30 %
797 07-03-2020 12:48:18 7.5 C 28 %
798 07-03-2020 12:58:18 8 C 27 %
799 07-03-2020 13:08:17 9.5 C 26 %
800 07-03-2020 13:18:18 9.1 C 21 %
Sensor: Nr:Datum:Temp:Feuchte:
Aussen-T/F 801 07-03-2020 13:28:18 9.1 C 25 %
802 07-03-2020 13:38:18 8.8 C 26 %
803 07-03-2020 13:48:18 9.1 C 26 %
804 07-03-2020 13:58:18 10 C 25 %
805 07-03-2020 14:08:17 8.9 C 26 %
806 07-03-2020 14:18:17 10.5 C 20 %
807 07-03-2020 14:28:17 10.1 C 20 %
808 07-03-2020 14:38:18 9.8 C 20 %
809 07-03-2020 14:48:17 11.6 C 20 %
810 07-03-2020 14:58:18 11.5 C 20 %
811 07-03-2020 15:08:18 12.4 C 20 %
812 07-03-2020 15:18:18 11.1 C 20 %
813 07-03-2020 15:28:18 9.8 C 20 %
814 07-03-2020 15:38:17 12.4 C 20 %
815 07-03-2020 15:48:18 10.8 C 20 %
816 07-03-2020 15:58:18 9.5 C 20 %
817 07-03-2020 16:08:17 11.7 C 20 %
818 07-03-2020 16:18:17 10.4 C 20 %
819 07-03-2020 16:28:17 9.6 C 20 %
820 07-03-2020 16:38:17 9.1 C 20 %
821 07-03-2020 16:48:18 8.9 C 20 %
822 07-03-2020 16:58:18 8.8 C 20 %
823 07-03-2020 17:08:18 8.8 C 20 %
824 07-03-2020 17:18:18 8.5 C 20 %
825 07-03-2020 17:28:18 8.5 C 20 %
Sensor: Nr:Datum:Temp:Feuchte:
Aussen-T/F 826 07-03-2020 17:38:18 8.6 C 25 %
827 07-03-2020 17:48:18 8.4 C 25 %
828 07-03-2020 17:58:18 7.1 C 31 %
829 07-03-2020 18:08:17 6.7 C 31 %
830 07-03-2020 18:19:17 6.3 C 33 %
831 07-03-2020 18:28:17 5.7 C 34 %
832 07-03-2020 18:38:18 5.2 C 35 %
833 07-03-2020 18:48:18 4.9 C 36 %
834 07-03-2020 18:58:18 5 C 35 %
835 07-03-2020 19:08:17 4.9 C 36 %
836 07-03-2020 19:18:17 4.7 C 36 %
837 07-03-2020 19:28:17 4.4 C 37 %
838 07-03-2020 19:38:17 4.5 C 37 %
839 07-03-2020 19:48:18 4.7 C 37 %
840 07-03-2020 19:58:18 4.5 C 37 %
841 07-03-2020 20:08:18 4.2 C 38 %
842 07-03-2020 20:18:17 4.4 C 38 %
843 07-03-2020 20:28:17 4.6 C 39 %
844 07-03-2020 20:38:17 4.6 C 38 %
845 07-03-2020 20:49:17 4.5 C 38 %
846 07-03-2020 20:59:17 4.5 C 38 %
847 07-03-2020 21:09:17 4.5 C 39 %
848 07-03-2020 21:18:17 4.5 C 39 %
849 07-03-2020 21:28:17 4.7 C 39 %
850 07-03-2020 21:38:17 4.7 C 38 %
Sensor: Nr:Datum:Temp:Feuchte:
Aussen-T/F 851 07-03-2020 21:48:18 5.1 C 37 %
852 07-03-2020 21:58:18 5.1 C 37 %
853 07-03-2020 22:08:17 5.3 C 37 %
854 07-03-2020 22:18:18 5.5 C 36 %
855 07-03-2020 22:28:18 5.6 C 36 %
856 07-03-2020 22:38:17 5.5 C 36 %
857 07-03-2020 22:49:17 5.5 C 36 %
858 07-03-2020 22:59:17 5.8 C 36 %
859 07-03-2020 23:09:17 6.2 C 35 %
860 07-03-2020 23:19:17 6.3 C 35 %
861 07-03-2020 23:29:17 6.4 C 35 %
862 07-03-2020 23:38:17 6.4 C 34 %
863 07-03-2020 23:48:18 6.4 C 34 %
864 07-03-2020 23:58:18 6.5 C 34 %
865 08-03-2020 00:08:18 6.5 C 35 %
866 08-03-2020 00:18:18 6.4 C 35 %
867 08-03-2020 00:28:18 6.8 C 35 %
868 08-03-2020 00:38:18 6.7 C 35 %
869 08-03-2020 00:48:18 7 C 34 %
870 08-03-2020 00:58:18 7.1 C 35 %
871 08-03-2020 01:08:17 7.1 C 34 %
872 08-03-2020 01:18:17 6.8 C 35 %
873 08-03-2020 01:28:17 6.9 C 35 %
874 08-03-2020 01:38:17 6.7 C 35 %
875 08-03-2020 01:49:17 6.9 C 35 %
Sensor: Nr:Datum:Temp:Feuchte:
Aussen-T/F 876 08-03-2020 01:59:17 6.7 C 35 %
877 08-03-2020 02:09:17 6.8 C 35 %
878 08-03-2020 02:19:17 7 C 35 %
879 08-03-2020 02:29:17 6.9 C 35 %
880 08-03-2020 02:38:17 7.3 C 35 %
881 08-03-2020 02:48:17 7.2 C 35 %
882 08-03-2020 02:58:17 7 C 35 %
883 08-03-2020 03:08:18 7.1 C 35 %
884 08-03-2020 03:19:17 6.7 C 35 %
885 08-03-2020 03:29:17 6.4 C 36 %
886 08-03-2020 03:39:17 6.5 C 36 %
887 08-03-2020 03:48:18 6.6 C 36 %
888 08-03-2020 03:58:18 6.8 C 35 %
889 08-03-2020 04:08:18 7 C 35 %
890 08-03-2020 04:19:17 7.1 C 35 %
891 08-03-2020 04:29:17 7 C 35 %
892 08-03-2020 04:39:17 7 C 35 %
893 08-03-2020 04:49:17 6.8 C 35 %
894 08-03-2020 04:59:17 6.9 C 35 %
895 08-03-2020 05:09:17 7 C 35 %
896 08-03-2020 05:19:17 6.8 C 35 %
897 08-03-2020 05:29:17 6.5 C 35 %
898 08-03-2020 05:39:17 6.8 C 35 %
899 08-03-2020 05:49:17 6.6 C 35 %
900 08-03-2020 05:59:17 6.4 C 35 %
Sensor: Nr:Datum:Temp:Feuchte:
Aussen-T/F 901 08-03-2020 06:09:17 6.4 C 35 %
902 08-03-2020 06:19:17 5.9 C 37 %
903 08-03-2020 06:29:18 6.3 C 36 %
904 08-03-2020 06:39:18 6.6 C 36 %
905 08-03-2020 06:49:17 6.9 C 36 %
906 08-03-2020 06:59:17 7.3 C 35 %
907 08-03-2020 07:09:17 7.4 C 35 %
908 08-03-2020 07:19:17 7.7 C 35 %
909 08-03-2020 07:29:17 7.8 C 35 %
910 08-03-2020 07:39:17 7.9 C 35 %
911 08-03-2020 07:49:17 8 C 35 %
912 08-03-2020 07:59:17 8.2 C 34 %
913 08-03-2020 08:09:17 8.2 C 34 %
914 08-03-2020 08:19:17 8.4 C 34 %
915 08-03-2020 08:29:17 8.6 C 34 %
916 08-03-2020 08:39:17 8.5 C 35 %
917 08-03-2020 08:49:17 8.6 C 34 %
918 08-03-2020 08:59:17 8.6 C 34 %
919 08-03-2020 09:09:17 8.6 C 34 %
920 08-03-2020 09:19:17 8.8 C 34 %
921 08-03-2020 09:29:18 9.2 C 33 %
922 08-03-2020 09:39:17 9.6 C 33 %
923 08-03-2020 09:49:17 10.3 C 32 %
924 08-03-2020 09:59:17 10.2 C 32 %
925 08-03-2020 10:09:17 9.9 C 33 %
Sensor: Nr:Datum:Temp:Feuchte:
Aussen-T/F 926 08-03-2020 10:19:17 10.1 C 32 %
927 08-03-2020 10:29:17 10.1 C 32 %
928 08-03-2020 10:39:17 11.4 C 30 %
929 08-03-2020 10:49:17 11.2 C 30 %
930 08-03-2020 10:59:18 11.9 C 30 %
931 08-03-2020 11:09:17 11.9 C 28 %
932 08-03-2020 11:19:16 11.9 C 29 %
933 08-03-2020 11:29:16 12.1 C 27 %
934 08-03-2020 11:39:17 12.5 C 26 %
935 08-03-2020 11:49:16 12.5 C 26 %
936 08-03-2020 11:59:16 13.4 C 25 %
937 08-03-2020 12:09:17 12.8 C 25 %
938 08-03-2020 12:19:17 13.1 C 25 %
939 08-03-2020 12:29:17 13.5 C 23 %
940 08-03-2020 12:39:17 13.2 C 24 %
941 08-03-2020 12:49:17 14.1 C 22 %
942 08-03-2020 12:59:18 13.2 C 22 %
943 08-03-2020 13:09:17 12.2 C 25 %
944 08-03-2020 13:19:16 12.3 C 25 %
945 08-03-2020 13:29:16 12.3 C 25 %
946 08-03-2020 13:39:16 12.7 C 25 %
947 08-03-2020 13:49:17 12.7 C 25 %
948 08-03-2020 13:59:17 12.5 C 25 %
949 08-03-2020 14:09:17 13 C 23 %
950 08-03-2020 14:19:16 12.8 C 25 %
Sensor: Nr:Datum:Temp:Feuchte:
Aussen-T/F 951 08-03-2020 14:29:16 12.5 C 25 %
952 08-03-2020 14:39:16 12.8 C 25 %
953 08-03-2020 14:49:16 12.7 C 25 %
954 08-03-2020 14:59:16 12.3 C 25 %
955 08-03-2020 15:09:16 12.8 C 25 %
956 08-03-2020 15:19:17 12.5 C 25 %
957 08-03-2020 15:29:17 12.5 C 25 %
958 08-03-2020 15:39:17 12.1 C 25 %
959 08-03-2020 15:49:17 12 C 25 %
960 08-03-2020 15:59:17 12.1 C 25 %
961 08-03-2020 16:09:17 12.5 C 25 %
962 08-03-2020 16:19:17 12.4 C 25 %
963 08-03-2020 16:29:17 12.1 C 25 %
964 08-03-2020 16:39:17 12.2 C 26 %
965 08-03-2020 16:49:17 12.2 C 26 %
966 08-03-2020 16:59:17 12 C 26 %
967 08-03-2020 17:09:17 12.6 C 25 %
968 08-03-2020 17:19:17 12.4 C 26 %
969 08-03-2020 17:29:17 12.3 C 26 %
970 08-03-2020 17:39:17 12 C 26 %
971 08-03-2020 17:49:16 11.5 C 28 %
972 08-03-2020 17:59:16 11.4 C 29 %
973 08-03-2020 18:09:17 11.1 C 30 %
974 08-03-2020 18:19:17 10.9 C 31 %
975 08-03-2020 18:29:18 10.7 C 31 %
Sensor: Nr:Datum:Temp:Feuchte:
Aussen-T/F 976 08-03-2020 18:39:17 10.4 C 32 %
977 08-03-2020 18:49:16 10.2 C 32 %
978 08-03-2020 18:59:16 9.6 C 35 %
979 08-03-2020 19:09:17 9.9 C 35 %
980 08-03-2020 19:19:16 9.8 C 35 %
981 08-03-2020 19:29:16 9.6 C 36 %
982 08-03-2020 19:39:17 9.4 C 36 %
983 08-03-2020 19:49:16 9.5 C 36 %
984 08-03-2020 19:59:16 9.5 C 36 %
985 08-03-2020 20:09:16 9.4 C 36 %
986 08-03-2020 20:19:16 9.3 C 36 %
987 08-03-2020 20:29:16 9.3 C 37 %
988 08-03-2020 20:39:17 9.2 C 37 %
989 08-03-2020 20:49:16 9.2 C 37 %
990 08-03-2020 20:59:16 9 C 37 %
991 08-03-2020 21:09:17 9 C 37 %
992 08-03-2020 21:19:17 9.1 C 37 %
993 08-03-2020 21:29:17 9.1 C 37 %
994 08-03-2020 21:39:17 9.3 C 37 %
995 08-03-2020 21:49:17 9.3 C 37 %
996 08-03-2020 21:59:17 9.3 C 37 %
997 08-03-2020 22:09:17 9.3 C 37 %
998 08-03-2020 22:19:16 9.3 C 37 %
999 08-03-2020 22:29:16 8.9 C 37 %
1000 08-03-2020 22:39:17 9.2 C 37 %
Sensor: Nr:Datum:Temp:Feuchte:
Aussen-T/F 1001 08-03-2020 22:49:16 8.7 C 37 %
1002 08-03-2020 22:59:16 9 C 37 %
1003 08-03-2020 23:09:16 9.3 C 37 %
1004 08-03-2020 23:19:16 7.9 C 39 %
1005 08-03-2020 23:29:16 7.8 C 40 %
1006 08-03-2020 23:39:16 7.9 C 40 %
1007 08-03-2020 23:49:16 7.9 C 39 %
1008 08-03-2020 23:59:16 7.6 C 40 %
1009 09-03-2020 00:09:17 7.3 C 41 %
1010 09-03-2020 00:19:16 7 C 41 %
1011 09-03-2020 00:29:16 6.8 C 43 %
1012 09-03-2020 00:39:16 6.8 C 44 %
1013 09-03-2020 00:49:16 6.6 C 45 %
1014 09-03-2020 00:59:16 6.8 C 43 %
1015 09-03-2020 01:09:16 6.9 C 42 %
1016 09-03-2020 01:19:16 6.9 C 43 %
1017 09-03-2020 01:29:16 6.7 C 45 %
1018 09-03-2020 01:39:16 6.8 C 43 %
1019 09-03-2020 01:49:16 6.9 C 42 %
1020 09-03-2020 01:59:16 6.7 C 43 %
1021 09-03-2020 02:09:16 6.6 C 43 %
1022 09-03-2020 02:19:16 6.4 C 44 %
1023 09-03-2020 02:29:16 6.3 C 45 %
1024 09-03-2020 02:39:16 6.2 C 45 %
1025 09-03-2020 02:49:17 6.4 C 45 %
Sensor: Nr:Datum:Temp:Feuchte:
Aussen-T/F 1026 09-03-2020 02:59:17 6.4 C 44 %
1027 09-03-2020 03:09:17 6.1 C 44 %
1028 09-03-2020 03:19:17 6.5 C 43 %
1029 09-03-2020 03:29:17 6.7 C 42 %
1030 09-03-2020 03:39:17 6.4 C 42 %
1031 09-03-2020 03:49:17 6.2 C 43 %
1032 09-03-2020 03:59:17 6 C 44 %
1033 09-03-2020 04:09:17 5.7 C 45 %
1034 09-03-2020 04:19:17 5.5 C 45 %
1035 09-03-2020 04:29:17 6.1 C 44 %
1036 09-03-2020 04:39:18 6.3 C 43 %
1037 09-03-2020 04:49:17 6.2 C 43 %
1038 09-03-2020 04:59:17 6.2 C 43 %
1039 09-03-2020 05:09:18 6.2 C 43 %
1040 09-03-2020 05:19:17 6 C 43 %
1041 09-03-2020 05:29:17 5.8 C 44 %
1042 09-03-2020 05:39:17 5.6 C 44 %
1043 09-03-2020 05:49:17 5.2 C 44 %
1044 09-03-2020 05:59:17 5.3 C 43 %
1045 09-03-2020 06:09:17 5 C 43 %
1046 09-03-2020 06:19:17 5.2 C 43 %
1047 09-03-2020 06:29:17 5.1 C 43 %
1048 09-03-2020 06:39:18 5.4 C 42 %
1049 09-03-2020 06:49:17 5.7 C 41 %
1050 09-03-2020 06:59:18 5.7 C 41 %
Sensor: Nr:Datum:Temp:Feuchte:
Aussen-T/F 1051 09-03-2020 07:09:18 5 C 42 %
1052 09-03-2020 07:19:18 4.7 C 44 %
1053 09-03-2020 07:29:18 5.7 C 42 %
1054 09-03-2020 07:39:17 5.8 C 41 %
1055 09-03-2020 07:49:17 5.4 C 41 %
1056 09-03-2020 07:59:17 5.4 C 42 %
1057 09-03-2020 08:09:17 5.4 C 42 %
1058 09-03-2020 08:19:17 5 C 43 %
1059 09-03-2020 08:29:17 5.3 C 43 %
1060 09-03-2020 08:39:18 6.1 C 41 %
1061 09-03-2020 08:49:17 6.8 C 40 %
1062 09-03-2020 08:59:17 7.3 C 38 %
1063 09-03-2020 09:09:17 7.4 C 38 %
1064 09-03-2020 09:19:17 7.7 C 37 %
1065 09-03-2020 09:29:17 8 C 37 %
1066 09-03-2020 09:39:17 8.1 C 37 %
1067 09-03-2020 09:49:17 8 C 37 %
1068 09-03-2020 09:59:17 7.8 C 37 %
1069 09-03-2020 10:09:17 8.3 C 36 %
1070 09-03-2020 10:19:17 8.2 C 36 %
1071 09-03-2020 10:29:17 8.5 C 36 %
1072 09-03-2020 10:39:17 8.6 C 36 %
1073 09-03-2020 10:49:17 8.5 C 36 %
1074 09-03-2020 10:59:17 8.1 C 36 %
1075 09-03-2020 11:09:17 8.1 C 36 %
Sensor: Nr:Datum:Temp:Feuchte:
Aussen-T/F 1076 09-03-2020 11:19:17 8.5 C 36 %
1077 09-03-2020 11:29:17 9.7 C 34 %
1078 09-03-2020 11:39:17 9.1 C 34 %
1079 09-03-2020 11:49:17 10.1 C 33 %
1080 09-03-2020 11:59:17 10.6 C 29 %
1081 09-03-2020 12:09:18 10.9 C 27 %
1082 09-03-2020 12:19:18 11.2 C 25 %
1083 09-03-2020 12:29:18 10.1 C 26 %
1084 09-03-2020 12:39:18 10.3 C 26 %
1085 09-03-2020 12:49:17 11 C 25 %
1086 09-03-2020 12:59:17 10.1 C 26 %
1087 09-03-2020 13:09:17 11.6 C 26 %
1088 09-03-2020 13:19:17 9.8 C 29 %
1089 09-03-2020 13:29:17 9.5 C 31 %
1090 09-03-2020 13:39:17 10.5 C 30 %
1091 09-03-2020 13:49:17 10.4 C 29 %
1092 09-03-2020 13:59:17 10.5 C 29 %
1093 09-03-2020 14:09:17 11.6 C 27 %
1094 09-03-2020 14:19:17 11.5 C 26 %
1095 09-03-2020 14:29:17 10.4 C 27 %
1096 09-03-2020 14:39:17 11.6 C 26 %
1097 09-03-2020 14:49:17 12.8 C 20 %
1098 09-03-2020 14:59:17 13.6 C 20 %
1099 09-03-2020 15:09:18 12.6 C 20 %
1100 09-03-2020 15:19:18 13 C 20 %
Sensor: Nr:Datum:Temp:Feuchte:
Aussen-T/F 1101 09-03-2020 15:29:18 12.9 C 20 %
1102 09-03-2020 15:39:18 14.4 C 20 %
1103 09-03-2020 15:49:17 14 C 20 %
1104 09-03-2020 15:59:17 12.5 C 20 %
1105 09-03-2020 16:09:18 11.2 C 20 %
1106 09-03-2020 16:19:17 10.5 C 22 %
1107 09-03-2020 16:29:17 10.7 C 23 %
1108 09-03-2020 16:39:17 13.3 C 20 %
1109 09-03-2020 16:49:17 14.2 C 20 %
1110 09-03-2020 16:59:18 14.1 C 20 %
1111 09-03-2020 17:09:18 12.2 C 20 %
1112 09-03-2020 17:19:17 10.1 C 20 %
1113 09-03-2020 17:29:17 9.9 C 25 %
1114 09-03-2020 17:39:18 9.8 C 25 %
1115 09-03-2020 17:49:17 9.7 C 27 %
1116 09-03-2020 17:59:18 9.7 C 26 %
1117 09-03-2020 18:09:18 9.5 C 27 %
1118 09-03-2020 18:19:17 9.2 C 28 %
1119 09-03-2020 18:29:17 8.9 C 30 %
1120 09-03-2020 18:39:17 8.7 C 30 %
1121 09-03-2020 18:49:17 8.1 C 30 %
1122 09-03-2020 18:59:17 7.7 C 32 %
1123 09-03-2020 19:09:18 7.5 C 33 %
1124 09-03-2020 19:19:17 7.4 C 33 %
1125 09-03-2020 19:29:17 7.6 C 33 %
Sensor: Nr:Datum:Temp:Feuchte:
Aussen-T/F 1126 09-03-2020 19:39:17 7.4 C 34 %
1127 09-03-2020 19:49:18 7.3 C 33 %
1128 09-03-2020 19:59:18 7.2 C 34 %
1129 09-03-2020 20:09:17 6.5 C 36 %
1130 09-03-2020 20:19:17 6.9 C 35 %
1131 09-03-2020 20:29:17 6.5 C 36 %
1132 09-03-2020 20:39:18 6.5 C 36 %
1133 09-03-2020 20:49:18 6.7 C 36 %
1134 09-03-2020 20:59:18 6.8 C 35 %
1135 09-03-2020 21:09:17 5.9 C 37 %
1136 09-03-2020 21:19:17 5.6 C 38 %
1137 09-03-2020 21:29:17 5.5 C 38 %
1138 09-03-2020 21:39:17 5.4 C 38 %
1139 09-03-2020 21:49:18 5.4 C 38 %
1140 09-03-2020 21:59:18 5.6 C 38 %
1141 09-03-2020 22:09:18 5.4 C 38 %
1142 09-03-2020 22:19:17 5.6 C 38 %
1143 09-03-2020 22:29:17 5.8 C 38 %
1144 09-03-2020 22:39:17 5.8 C 38 %
1145 09-03-2020 22:49:17 5.4 C 38 %
1146 09-03-2020 22:59:17 5.1 C 39 %
1147 09-03-2020 23:09:18 5.1 C 39 %
1148 09-03-2020 23:19:17 5.2 C 39 %
1149 09-03-2020 23:29:17 5 C 39 %
1150 09-03-2020 23:39:17 4.6 C 40 %
Sensor: Nr:Datum:Temp:Feuchte:
Aussen-T/F 1151 09-03-2020 23:49:17 4.6 C 41 %
1152 09-03-2020 23:59:17 4.5 C 41 %
1153 10-03-2020 00:09:17 4.6 C 41 %
1154 10-03-2020 00:19:18 4.7 C 41 %
1155 10-03-2020 00:29:18 5.1 C 40 %
1156 10-03-2020 00:39:18 5.5 C 40 %
1157 10-03-2020 00:49:18 5.5 C 40 %
1158 10-03-2020 00:59:18 5.8 C 39 %
1159 10-03-2020 01:09:18 5.8 C 39 %
1160 10-03-2020 01:19:17 5.9 C 39 %
1161 10-03-2020 01:29:18 6 C 38 %
1162 10-03-2020 01:39:18 6.3 C 38 %
1163 10-03-2020 01:49:17 6.7 C 37 %
1164 10-03-2020 01:59:17 6.6 C 37 %
1165 10-03-2020 02:09:18 6.7 C 37 %
1166 10-03-2020 02:19:17 6.6 C 37 %
1167 10-03-2020 02:29:18 6.7 C 37 %
1168 10-03-2020 02:39:18 6.8 C 37 %
1169 10-03-2020 02:49:17 6.9 C 37 %
1170 10-03-2020 02:59:17 7.1 C 37 %
1171 10-03-2020 03:09:18 6.6 C 38 %
1172 10-03-2020 03:19:18 6.5 C 38 %
1173 10-03-2020 03:29:18 6.3 C 39 %
1174 10-03-2020 03:39:18 6.2 C 39 %
1175 10-03-2020 03:49:17 6 C 40 %
Sensor: Nr:Datum:Temp:Feuchte:
Aussen-T/F 1176 10-03-2020 03:59:17 6 C 40 %
1177 10-03-2020 04:09:17 5.8 C 40 %
1178 10-03-2020 04:19:17 5.8 C 40 %
1179 10-03-2020 04:29:17 5.6 C 41 %
1180 10-03-2020 04:39:17 5.9 C 40 %
1181 10-03-2020 04:49:17 5.6 C 41 %
1182 10-03-2020 04:59:17 5.5 C 41 %
1183 10-03-2020 05:09:17 5.5 C 41 %
1184 10-03-2020 05:19:17 5.2 C 41 %
1185 10-03-2020 05:29:18 5.2 C 41 %
1186 10-03-2020 05:39:18 5.1 C 42 %
1187 10-03-2020 05:49:18 5.1 C 42 %
1188 10-03-2020 05:59:18 5 C 42 %
1189 10-03-2020 06:09:17 4.9 C 43 %
1190 10-03-2020 06:19:17 5 C 42 %
1191 10-03-2020 06:29:17 4.9 C 43 %
1192 10-03-2020 06:39:18 5 C 44 %
1193 10-03-2020 06:49:17 5.1 C 43 %
1194 10-03-2020 06:59:17 5 C 43 %
1195 10-03-2020 07:09:18 5.1 C 42 %
1196 10-03-2020 07:19:18 5.3 C 42 %
1197 10-03-2020 07:29:18 5.8 C 41 %
1198 10-03-2020 07:39:18 5.8 C 42 %
1199 10-03-2020 07:49:18 5.7 C 41 %
1200 10-03-2020 07:59:18 5.9 C 41 %
Sensor: Nr:Datum:Temp:Feuchte:
Aussen-T/F 1201 10-03-2020 08:09:18 6 C 41 %
1202 10-03-2020 08:19:18 6 C 41 %
1203 10-03-2020 08:29:18 6.3 C 41 %
1204 10-03-2020 08:39:18 6.5 C 40 %
1205 10-03-2020 08:49:18 6.3 C 41 %
1206 10-03-2020 08:59:18 6.5 C 41 %
1207 10-03-2020 09:09:17 6.6 C 41 %
1208 10-03-2020 09:19:17 6.6 C 41 %
1209 10-03-2020 09:29:17 6.7 C 42 %
1210 10-03-2020 09:39:17 6.8 C 42 %
1211 10-03-2020 09:49:17 6.9 C 42 %
1212 10-03-2020 09:59:17 7.1 C 41 %
1213 10-03-2020 10:09:18 7.2 C 41 %
1214 10-03-2020 10:19:18 7.3 C 41 %
1215 10-03-2020 10:29:18 7.4 C 41 %
1216 10-03-2020 10:39:18 7.5 C 41 %
1217 10-03-2020 10:49:18 7.8 C 41 %
1218 10-03-2020 10:59:18 7.9 C 41 %
1219 10-03-2020 11:09:18 8.1 C 41 %
1220 10-03-2020 11:19:18 8.2 C 40 %
1221 10-03-2020 11:29:18 8.4 C 40 %
1222 10-03-2020 11:39:18 8.5 C 41 %
1223 10-03-2020 11:49:17 8.7 C 41 %
1224 10-03-2020 11:59:17 8.9 C 41 %
1225 10-03-2020 12:09:17 8.9 C 40 %
Sensor: Nr:Datum:Temp:Feuchte:
Aussen-T/F 1226 10-03-2020 12:19:17 8.9 C 41 %
1227 10-03-2020 12:29:18 9 C 41 %
1228 10-03-2020 12:39:18 9.1 C 41 %
1229 10-03-2020 12:49:17 9.1 C 41 %
1230 10-03-2020 12:59:17 9.3 C 41 %
1231 10-03-2020 13:09:18 9.4 C 40 %
1232 10-03-2020 13:19:17 9.5 C 41 %
1233 10-03-2020 13:29:18 9.5 C 41 %
1234 10-03-2020 13:39:18 9.5 C 41 %
1235 10-03-2020 13:49:17 9.7 C 41 %
1236 10-03-2020 13:59:18 9.8 C 41 %
1237 10-03-2020 14:09:18 9.9 C 41 %
1238 10-03-2020 14:19:18 10.2 C 40 %
1239 10-03-2020 14:29:18 10.5 C 40 %
1240 10-03-2020 14:39:18 10.8 C 40 %
1241 10-03-2020 14:49:17 10.9 C 40 %
1242 10-03-2020 14:59:17 11.3 C 38 %
1243 10-03-2020 15:09:18 11.3 C 38 %
1244 10-03-2020 15:19:18 11.4 C 38 %
1245 10-03-2020 15:29:18 11.8 C 38 %
1246 10-03-2020 15:39:18 12.3 C 37 %
1247 10-03-2020 15:49:17 12.3 C 36 %
1248 10-03-2020 15:59:18 12.5 C 37 %
1249 10-03-2020 16:09:18 13 C 35 %
1250 10-03-2020 16:19:18 12.6 C 36 %
Sensor: Nr:Datum:Temp:Feuchte:
Aussen-T/F 1251 10-03-2020 16:29:18 12.5 C 37 %
1252 10-03-2020 16:39:18 12.4 C 37 %
1253 10-03-2020 16:49:17 12.5 C 37 %
1254 10-03-2020 16:59:18 12.5 C 37 %
1255 10-03-2020 17:09:18 12.7 C 37 %
1256 10-03-2020 17:19:17 12.6 C 37 %
1257 10-03-2020 17:29:18 12.7 C 37 %
1258 10-03-2020 17:39:18 12.6 C 37 %
1259 10-03-2020 17:49:17 12.5 C 37 %
1260 10-03-2020 17:59:18 12.5 C 38 %
1261 10-03-2020 18:09:18 12.3 C 38 %
1262 10-03-2020 18:19:17 12.3 C 38 %
1263 10-03-2020 18:29:18 12.3 C 38 %
1264 10-03-2020 18:39:18 12.5 C 38 %
1265 10-03-2020 18:49:17 12.4 C 38 %
1266 10-03-2020 18:59:17 12.3 C 38 %
1267 10-03-2020 19:09:18 12.5 C 38 %
1268 10-03-2020 19:19:17 12.3 C 38 %
1269 10-03-2020 19:29:17 12.4 C 38 %
1270 10-03-2020 19:39:17 12.5 C 38 %
1271 10-03-2020 19:49:17 12.5 C 38 %
1272 10-03-2020 19:59:17 12.5 C 38 %
1273 10-03-2020 20:09:17 12.5 C 38 %
1274 10-03-2020 20:19:17 12.7 C 38 %
1275 10-03-2020 20:29:18 12.8 C 38 %
Sensor: Nr:Datum:Temp:Feuchte:
Aussen-T/F 1276 10-03-2020 20:39:18 12.8 C 38 %
1277 10-03-2020 20:49:17 12.9 C 38 %
1278 10-03-2020 20:59:17 13.1 C 37 %
1279 10-03-2020 21:09:18 12.8 C 38 %
1280 10-03-2020 21:19:17 13.2 C 37 %
1281 10-03-2020 21:29:18 13.2 C 37 %
1282 10-03-2020 21:39:18 13.2 C 37 %
1283 10-03-2020 21:49:17 13.2 C 37 %
1284 10-03-2020 21:59:18 13.1 C 37 %
1285 10-03-2020 22:09:18 12.8 C 39 %
1286 10-03-2020 22:19:18 12.5 C 40 %
1287 10-03-2020 22:29:18 12.5 C 40 %
1288 10-03-2020 22:39:18 12.7 C 40 %
1289 10-03-2020 22:49:17 12.5 C 40 %
1290 10-03-2020 22:59:17 12.5 C 40 %
1291 10-03-2020 23:09:18 12.8 C 40 %
1292 10-03-2020 23:19:18 12.8 C 39 %
1293 10-03-2020 23:29:18 12.8 C 39 %
1294 10-03-2020 23:39:18 12.8 C 39 %
1295 10-03-2020 23:49:17 12.9 C 39 %
1296 10-03-2020 23:59:17 13.1 C 37 %
1297 11-03-2020 00:09:17 13.5 C 36 %
1298 11-03-2020 00:19:17 13.5 C 36 %
1299 11-03-2020 00:29:17 13.6 C 36 %
1300 11-03-2020 00:39:18 13.7 C 36 %
Sensor: Nr:Datum:Temp:Feuchte:
Aussen-T/F 1301 11-03-2020 00:49:17 13.7 C 36 %
1302 11-03-2020 00:59:17 13.7 C 36 %
1303 11-03-2020 01:09:17 13.5 C 36 %
1304 11-03-2020 01:19:17 13.4 C 37 %
1305 11-03-2020 01:29:17 13.4 C 37 %
1306 11-03-2020 01:39:17 13.3 C 37 %
1307 11-03-2020 01:49:17 13 C 38 %
1308 11-03-2020 01:59:17 12.9 C 39 %
1309 11-03-2020 02:09:17 13.2 C 38 %
1310 11-03-2020 02:19:17 13.1 C 38 %
1311 11-03-2020 02:29:17 13.1 C 38 %
1312 11-03-2020 02:39:17 13.2 C 37 %
1313 11-03-2020 02:49:17 13.4 C 37 %
1314 11-03-2020 02:59:17 13.5 C 37 %
1315 11-03-2020 03:09:17 13.1 C 37 %
1316 11-03-2020 03:19:18 13 C 38 %
1317 11-03-2020 03:29:18 13.2 C 37 %
1318 11-03-2020 03:39:18 13.4 C 37 %
1319 11-03-2020 03:49:17 13.5 C 37 %
1320 11-03-2020 03:59:18 13.4 C 37 %
1321 11-03-2020 04:09:18 13.4 C 37 %
1322 11-03-2020 04:19:18 13.4 C 37 %
1323 11-03-2020 04:29:18 13.4 C 37 %
1324 11-03-2020 04:39:17 13.4 C 37 %
1325 11-03-2020 04:49:17 13.5 C 36 %
Sensor: Nr:Datum:Temp:Feuchte:
Aussen-T/F 1326 11-03-2020 04:59:17 13.4 C 37 %
1327 11-03-2020 05:09:17 13.1 C 37 %
1328 11-03-2020 05:19:17 13.1 C 37 %
1329 11-03-2020 05:29:17 13.1 C 37 %
1330 11-03-2020 05:39:17 13.1 C 37 %
1331 11-03-2020 05:49:18 13 C 37 %
1332 11-03-2020 05:59:18 12.9 C 38 %
1333 11-03-2020 06:09:18 13.1 C 37 %
1334 11-03-2020 06:19:17 13.2 C 37 %
1335 11-03-2020 06:29:17 13.2 C 36 %
1336 11-03-2020 06:39:18 13.2 C 36 %
1337 11-03-2020 06:49:17 13.6 C 36 %
1338 11-03-2020 06:59:17 13.4 C 36 %
1339 11-03-2020 07:09:17 13.2 C 36 %
1340 11-03-2020 07:19:17 13.1 C 36 %
1341 11-03-2020 07:29:17 13.1 C 36 %
1342 11-03-2020 07:39:17 13.1 C 36 %
1343 11-03-2020 07:49:17 13.1 C 36 %
1344 11-03-2020 07:59:18 12.9 C 37 %
1345 11-03-2020 08:09:18 12.8 C 37 %
1346 11-03-2020 08:19:18 12.6 C 37 %
1347 11-03-2020 08:29:18 12.6 C 37 %
1348 11-03-2020 08:39:18 12.7 C 37 %
1349 11-03-2020 08:49:18 12.8 C 37 %
1350 11-03-2020 08:59:18 12.7 C 37 %
Sensor: Nr:Datum:Temp:Feuchte:
Aussen-T/F 1351 11-03-2020 09:09:18 13 C 36 %
1352 11-03-2020 09:19:18 13.2 C 36 %
1353 11-03-2020 09:29:18 13.6 C 36 %
1354 11-03-2020 09:39:18 13.8 C 36 %
1355 11-03-2020 09:49:18 14 C 35 %
1356 11-03-2020 09:59:18 13.9 C 35 %
1357 11-03-2020 10:09:18 13.7 C 36 %
1358 11-03-2020 10:19:17 13.8 C 36 %
1359 11-03-2020 10:29:17 14 C 35 %
1360 11-03-2020 10:39:18 14.3 C 35 %
1361 11-03-2020 10:49:18 14.4 C 35 %
1362 11-03-2020 10:59:18 14.5 C 35 %
1363 11-03-2020 11:09:17 14.9 C 35 %
1364 11-03-2020 11:19:17 14.6 C 35 %
1365 11-03-2020 11:29:17 15.8 C 33 %
1366 11-03-2020 11:39:17 15.8 C 33 %
1367 11-03-2020 11:49:17 15.6 C 33 %
1368 11-03-2020 11:59:17 15.9 C 33 %
1369 11-03-2020 12:09:18 15.9 C 33 %
1370 11-03-2020 12:19:18 16.4 C 32 %
1371 11-03-2020 12:29:18 16.5 C 32 %
1372 11-03-2020 12:39:18 16.3 C 32 %
1373 11-03-2020 12:49:18 16.5 C 32 %
1374 11-03-2020 12:59:18 16.3 C 32 %
1375 11-03-2020 13:09:17 16 C 32 %
Sensor: Nr:Datum:Temp:Feuchte:
Aussen-T/F 1376 11-03-2020 13:19:17 17 C 31 %
1377 11-03-2020 13:29:17 16.8 C 31 %
1378 11-03-2020 13:39:17 17.7 C 31 %
1379 11-03-2020 13:49:17 15.8 C 32 %
1380 11-03-2020 13:59:17 16.1 C 31 %
1381 11-03-2020 14:09:17 16.3 C 31 %
1382 11-03-2020 14:19:17 16.1 C 31 %
1383 11-03-2020 14:29:17 16.6 C 31 %
1384 11-03-2020 14:39:17 15.7 C 31 %
1385 11-03-2020 14:49:17 16.2 C 31 %
1386 11-03-2020 14:59:17 15.8 C 31 %
1387 11-03-2020 15:09:17 16.5 C 31 %
1388 11-03-2020 15:19:17 15.6 C 32 %
1389 11-03-2020 15:29:18 16.4 C 31 %
1390 11-03-2020 15:39:18 17.5 C 30 %
1391 11-03-2020 15:49:17 15.1 C 32 %
1392 11-03-2020 15:59:17 15.6 C 33 %
1393 11-03-2020 16:09:18 15 C 33 %
1394 11-03-2020 16:19:18 14.7 C 35 %
1395 11-03-2020 16:29:18 15.1 C 34 %
1396 11-03-2020 16:39:17 14.5 C 35 %
1397 11-03-2020 16:49:18 14.5 C 35 %
1398 11-03-2020 16:59:18 14.5 C 34 %
1399 11-03-2020 17:09:18 14.1 C 35 %
1400 11-03-2020 17:19:18 14 C 35 %
Sensor: Nr:Datum:Temp:Feuchte:
Aussen-T/F 1401 11-03-2020 17:29:18 13.2 C 38 %
1402 11-03-2020 17:39:17 13.2 C 38 %
1403 11-03-2020 17:49:18 13.2 C 38 %
1404 11-03-2020 17:59:18 13.4 C 37 %
1405 11-03-2020 18:09:18 13.5 C 37 %
1406 11-03-2020 18:19:17 13.5 C 36 %
1407 11-03-2020 18:29:17 13.3 C 36 %
1408 11-03-2020 18:39:17 13.4 C 36 %
1409 11-03-2020 18:49:17 13.5 C 36 %
1410 11-03-2020 18:59:17 13.4 C 36 %
1411 11-03-2020 19:09:17 13.2 C 37 %
1412 11-03-2020 19:19:17 13.1 C 37 %
1413 11-03-2020 19:29:17 13.1 C 37 %
1414 11-03-2020 19:39:18 13.4 C 36 %
1415 11-03-2020 19:49:17 13.3 C 36 %
1416 11-03-2020 19:59:17 13.2 C 36 %
1417 11-03-2020 20:09:17 13.4 C 36 %
1418 11-03-2020 20:19:17 13.6 C 36 %
1419 11-03-2020 20:29:18 13.6 C 36 %
1420 11-03-2020 20:39:18 13.6 C 36 %
1421 11-03-2020 20:49:17 13.5 C 36 %
1422 11-03-2020 20:59:17 13.3 C 36 %
1423 11-03-2020 21:09:18 13.2 C 36 %
1424 11-03-2020 21:19:17 13.4 C 36 %
1425 11-03-2020 21:29:17 13.5 C 36 %
Sensor: Nr:Datum:Temp:Feuchte:
Aussen-T/F 1426 11-03-2020 21:39:18 13.7 C 36 %
1427 11-03-2020 21:49:17 14 C 35 %
1428 11-03-2020 21:59:17 14 C 35 %
1429 11-03-2020 22:09:18 14.1 C 34 %
1430 11-03-2020 22:19:18 14 C 34 %
1431 11-03-2020 22:29:18 13.9 C 35 %
1432 11-03-2020 22:39:17 13.9 C 35 %
1433 11-03-2020 22:49:18 13.8 C 35 %
1434 11-03-2020 22:59:18 13.8 C 35 %
1435 11-03-2020 23:09:18 13.8 C 34 %
1436 11-03-2020 23:19:18 13.9 C 34 %
1437 11-03-2020 23:29:18 13.8 C 34 %
1438 11-03-2020 23:39:17 13.8 C 34 %
1439 11-03-2020 23:49:17 13.8 C 34 %
1440 11-03-2020 23:59:17 13.7 C 34 %
1441 12-03-2020 00:09:17 13.6 C 34 %
1442 12-03-2020 00:19:17 13.6 C 34 %
1443 12-03-2020 00:29:17 13.6 C 34 %
1444 12-03-2020 00:39:18 13.7 C 34 %
1445 12-03-2020 00:49:17 13.8 C 34 %
1446 12-03-2020 00:59:17 13.9 C 34 %
1447 12-03-2020 01:09:18 13.9 C 34 %
1448 12-03-2020 01:19:17 13.8 C 34 %
1449 12-03-2020 01:29:17 13.9 C 34 %
1450 12-03-2020 01:39:18 13.8 C 34 %
Sensor: Nr:Datum:Temp:Feuchte:
Aussen-T/F 1451 12-03-2020 01:49:17 13.7 C 34 %
1452 12-03-2020 01:59:17 13.8 C 34 %
1453 12-03-2020 02:09:18 13.7 C 34 %
1454 12-03-2020 02:19:17 13.7 C 34 %
1455 12-03-2020 02:29:18 13.6 C 34 %
1456 12-03-2020 02:39:18 13.6 C 33 %
1457 12-03-2020 02:49:18 13.6 C 33 %
1458 12-03-2020 02:59:18 13.5 C 33 %
1459 12-03-2020 03:09:18 13.5 C 33 %
1460 12-03-2020 03:19:18 13.5 C 32 %
1461 12-03-2020 03:29:18 13.5 C 32 %
1462 12-03-2020 03:39:17 13.4 C 32 %
1463 12-03-2020 03:49:17 13.2 C 32 %
1464 12-03-2020 03:59:17 13.1 C 32 %
1465 12-03-2020 04:09:17 13.1 C 32 %
1466 12-03-2020 04:19:17 13.1 C 32 %
1467 12-03-2020 04:29:17 13 C 32 %
1468 12-03-2020 04:39:17 13 C 32 %
1469 12-03-2020 04:49:17 13 C 32 %
1470 12-03-2020 04:59:17 13 C 32 %
1471 12-03-2020 05:09:17 12.7 C 33 %
1472 12-03-2020 05:19:17 12.7 C 33 %
1473 12-03-2020 05:29:17 12.6 C 34 %
1474 12-03-2020 05:39:18 12.5 C 34 %
1475 12-03-2020 05:49:17 12.5 C 34 %
Sensor: Nr:Datum:Temp:Feuchte:
Aussen-T/F 1476 12-03-2020 05:59:17 12.3 C 34 %
1477 12-03-2020 06:09:18 12.2 C 34 %
1478 12-03-2020 06:19:18 12.1 C 34 %
1479 12-03-2020 06:29:18 12 C 34 %
1480 12-03-2020 06:39:18 12 C 35 %
1481 12-03-2020 06:49:17 12 C 35 %
1482 12-03-2020 06:59:17 11.9 C 35 %
1483 12-03-2020 07:09:18 11.9 C 35 %
1484 12-03-2020 07:19:18 12 C 35 %
1485 12-03-2020 07:29:18 12 C 35 %
1486 12-03-2020 07:39:18 12 C 35 %
1487 12-03-2020 07:49:17 11.2 C 38 %
1488 12-03-2020 07:59:17 11 C 39 %
1489 12-03-2020 08:09:18 10.8 C 41 %
1490 12-03-2020 08:19:18 10.7 C 42 %
1491 12-03-2020 08:29:18 10.4 C 40 %
1492 12-03-2020 08:39:18 10.1 C 39 %
1493 12-03-2020 08:49:17 10.4 C 38 %
1494 12-03-2020 08:59:17 10.2 C 38 %
1495 12-03-2020 09:09:18 10.4 C 38 %
1496 12-03-2020 09:19:17 10.5 C 37 %
1497 12-03-2020 09:29:17 10.9 C 36 %
1498 12-03-2020 09:39:17 10.8 C 36 %
1499 12-03-2020 09:49:18 11 C 36 %
1500 12-03-2020 09:59:18 11.5 C 35 %
Sensor: Nr:Datum:Temp:Feuchte:
Aussen-T/F 1501 12-03-2020 10:09:18 11.7 C 34 %
1502 12-03-2020 10:19:17 11.5 C 34 %
1503 12-03-2020 10:29:17 11.5 C 34 %
1504 12-03-2020 10:39:17 11.8 C 33 %
1505 12-03-2020 10:49:17 11.3 C 33 %
1506 12-03-2020 10:59:17 11.3 C 32 %
1507 12-03-2020 11:09:18 11.6 C 28 %
1508 12-03-2020 11:19:17 11.5 C 27 %
1509 12-03-2020 11:29:17 11.7 C 26 %
1510 12-03-2020 11:39:17 11.9 C 23 %
1511 12-03-2020 11:49:18 11.9 C 20 %
1512 12-03-2020 11:59:18 12.3 C 20 %
1513 12-03-2020 12:09:18 12.2 C 20 %
1514 12-03-2020 12:19:18 12.4 C 20 %
1515 12-03-2020 12:29:18 12.8 C 20 %
1516 12-03-2020 12:39:17 12.4 C 20 %
1517 12-03-2020 12:49:17 12.1 C 20 %
1518 12-03-2020 12:59:18 12 C 20 %
1519 12-03-2020 13:09:18 12.2 C 20 %
1520 12-03-2020 13:19:17 12.3 C 20 %
1521 12-03-2020 13:29:17 12.3 C 20 %
1522 12-03-2020 13:39:17 12.7 C 20 %
1523 12-03-2020 13:49:17 12.5 C 20 %
1524 12-03-2020 13:59:17 12.4 C 20 %
1525 12-03-2020 14:09:17 12.2 C 20 %
Sensor: Nr:Datum:Temp:Feuchte:
Aussen-T/F 1526 12-03-2020 14:19:17 12.2 C 20 %
1527 12-03-2020 14:29:18 12.2 C 20 %
1528 12-03-2020 14:39:18 13.4 C 20 %
1529 12-03-2020 14:49:17 13 C 20 %
1530 12-03-2020 14:59:17 11.8 C 20 %
1531 12-03-2020 15:09:17 11.9 C 20 %
1532 12-03-2020 15:19:17 11.8 C 20 %
1533 12-03-2020 15:29:18 11.9 C 20 %
1534 12-03-2020 15:39:18 11.8 C 20 %
1535 12-03-2020 15:49:17 11.7 C 20 %
1536 12-03-2020 15:59:18 11.6 C 20 %
1537 12-03-2020 16:09:18 11.5 C 20 %
1538 12-03-2020 16:19:18 11.7 C 20 %
1539 12-03-2020 16:29:18 11.7 C 20 %
1540 12-03-2020 16:39:18 12.4 C 20 %
1541 12-03-2020 16:49:17 11.8 C 20 %
1542 12-03-2020 16:59:17 11.5 C 20 %
1543 12-03-2020 17:09:17 11.5 C 20 %
1544 12-03-2020 17:19:17 11.5 C 20 %
1545 12-03-2020 17:29:17 11.2 C 20 %
1546 12-03-2020 17:39:18 10.9 C 20 %
1547 12-03-2020 17:49:17 11 C 20 %
1548 12-03-2020 17:59:18 10.8 C 22 %
1549 12-03-2020 18:09:18 10.3 C 25 %
1550 12-03-2020 18:19:18 9.8 C 27 %
Sensor: Nr:Datum:Temp:Feuchte:
Aussen-T/F 1551 12-03-2020 18:29:18 9.3 C 30 %
1552 12-03-2020 18:39:17 8.7 C 31 %
1553 12-03-2020 18:49:17 7.9 C 33 %
1554 12-03-2020 18:59:17 7.6 C 35 %
1555 12-03-2020 19:09:17 7.5 C 34 %
1556 12-03-2020 19:19:17 7 C 35 %
1557 12-03-2020 19:29:17 6.6 C 36 %
1558 12-03-2020 19:39:17 6.5 C 36 %
1559 12-03-2020 19:49:17 7.1 C 35 %
1560 12-03-2020 19:59:17 6.8 C 35 %
1561 12-03-2020 20:09:17 7.6 C 35 %
1562 12-03-2020 20:19:17 7.3 C 35 %
1563 12-03-2020 20:29:17 6.8 C 35 %
1564 12-03-2020 20:39:17 6.8 C 36 %
1565 12-03-2020 20:49:17 6.4 C 36 %
1566 12-03-2020 20:59:17 6.7 C 36 %
1567 12-03-2020 21:09:17 6.3 C 36 %
1568 12-03-2020 21:19:17 7.2 C 35 %
1569 12-03-2020 21:29:17 7.6 C 35 %
1570 12-03-2020 21:39:18 7.4 C 35 %
1571 12-03-2020 21:49:17 7.4 C 35 %
1572 12-03-2020 21:59:17 7.6 C 35 %
1573 12-03-2020 22:09:18 7.6 C 35 %
1574 12-03-2020 22:19:18 7.1 C 35 %
1575 12-03-2020 22:29:18 7.2 C 35 %
Sensor: Nr:Datum:Temp:Feuchte:
Aussen-T/F 1576 12-03-2020 22:39:18 7.5 C 35 %
1577 12-03-2020 22:49:17 7.6 C 35 %
1578 12-03-2020 22:59:17 7.3 C 35 %
1579 12-03-2020 23:09:17 7.2 C 35 %
1580 12-03-2020 23:19:17 7 C 35 %
1581 12-03-2020 23:29:18 6.2 C 35 %
1582 12-03-2020 23:39:18 6.7 C 34 %
1583 12-03-2020 23:49:17 6.5 C 34 %
1584 12-03-2020 23:59:17 6.4 C 32 %
1585 13-03-2020 00:09:17 6.5 C 32 %
1586 13-03-2020 00:19:17 6.5 C 32 %
1587 13-03-2020 00:29:17 6.1 C 32 %
1588 13-03-2020 00:39:17 6.2 C 32 %
1589 13-03-2020 00:49:17 6 C 32 %
1590 13-03-2020 00:59:17 5.9 C 33 %
1591 13-03-2020 01:09:17 5.4 C 33 %
1592 13-03-2020 01:19:17 5.4 C 33 %
1593 13-03-2020 01:29:17 5.1 C 34 %
1594 13-03-2020 01:39:17 5.2 C 34 %
1595 13-03-2020 01:49:17 5.2 C 33 %
1596 13-03-2020 01:59:17 5.2 C 33 %
1597 13-03-2020 02:09:17 4.8 C 35 %
1598 13-03-2020 02:19:17 5 C 34 %
1599 13-03-2020 02:29:17 5.1 C 34 %
1600 13-03-2020 02:39:18 5.1 C 34 %
Sensor: Nr:Datum:Temp:Feuchte:
Aussen-T/F 1601 13-03-2020 02:49:17 5.1 C 34 %
1602 13-03-2020 02:59:17 5.1 C 34 %
1603 13-03-2020 03:09:17 5 C 34 %
1604 13-03-2020 03:19:17 5.2 C 34 %
1605 13-03-2020 03:29:17 5.2 C 34 %
1606 13-03-2020 03:39:18 5.1 C 34 %
1607 13-03-2020 03:49:17 5.1 C 34 %
1608 13-03-2020 03:59:17 5.2 C 34 %
1609 13-03-2020 04:09:17 5 C 34 %
1610 13-03-2020 04:19:17 4.9 C 35 %
1611 13-03-2020 04:29:17 5.1 C 35 %
1612 13-03-2020 04:39:17 5.1 C 35 %
1613 13-03-2020 04:49:17 5 C 34 %
1614 13-03-2020 04:59:17 5.2 C 34 %
1615 13-03-2020 05:09:17 5.2 C 34 %
1616 13-03-2020 05:19:17 5.6 C 34 %
1617 13-03-2020 05:29:17 5.4 C 34 %
1618 13-03-2020 05:39:17 5.4 C 34 %
1619 13-03-2020 05:49:18 5.4 C 34 %
1620 13-03-2020 05:59:18 5.4 C 34 %
1621 13-03-2020 06:09:18 5.6 C 34 %
1622 13-03-2020 06:19:17 5.7 C 34 %
1623 13-03-2020 06:29:17 5.4 C 34 %
1624 13-03-2020 06:39:17 5.4 C 35 %
1625 13-03-2020 06:49:17 5.3 C 34 %
Sensor: Nr:Datum:Temp:Feuchte:
Aussen-T/F 1626 13-03-2020 06:59:17 5.4 C 35 %
1627 13-03-2020 07:09:17 5.3 C 35 %
1628 13-03-2020 07:19:17 5.4 C 35 %
1629 13-03-2020 07:29:17 5.6 C 35 %
1630 13-03-2020 07:39:17 5.7 C 35 %
1631 13-03-2020 07:49:18 5.7 C 35 %
1632 13-03-2020 07:59:18 5.7 C 35 %
1633 13-03-2020 08:09:17 5.8 C 35 %
1634 13-03-2020 08:19:17 6 C 35 %
1635 13-03-2020 08:29:17 5.9 C 35 %
1636 13-03-2020 08:39:18 6 C 35 %
1637 13-03-2020 08:49:17 6.2 C 35 %
1638 13-03-2020 08:59:17 6.4 C 34 %
1639 13-03-2020 09:09:17 6.5 C 35 %
1640 13-03-2020 09:19:17 6.9 C 34 %
1641 13-03-2020 09:29:17 7.1 C 33 %
1642 13-03-2020 09:39:18 7.1 C 33 %
1643 13-03-2020 09:49:17 6.6 C 34 %
1644 13-03-2020 09:59:17 7.1 C 33 %
1645 13-03-2020 10:09:18 7.5 C 33 %
1646 13-03-2020 10:19:17 8.5 C 32 %
1647 13-03-2020 10:29:17 8.1 C 32 %
1648 13-03-2020 10:39:18 8 C 32 %
1649 13-03-2020 10:49:17 7.6 C 33 %
1650 13-03-2020 10:59:17 7.4 C 35 %
Sensor: Nr:Datum:Temp:Feuchte:
Aussen-T/F 1651 13-03-2020 11:09:17 8.9 C 33 %
1652 13-03-2020 11:19:17 9.1 C 31 %
1653 13-03-2020 11:29:17 8 C 32 %
1654 13-03-2020 11:39:17 7.3 C 35 %
1655 13-03-2020 11:49:18 7.4 C 35 %
1656 13-03-2020 11:59:18 8.2 C 33 %
1657 13-03-2020 12:09:18 8.9 C 32 %
1658 13-03-2020 12:19:18 9.7 C 29 %
1659 13-03-2020 12:29:18 9 C 30 %
1660 13-03-2020 12:39:18 9.6 C 30 %
1661 13-03-2020 12:49:18 9 C 31 %
1662 13-03-2020 12:59:18 8.8 C 31 %
1663 13-03-2020 13:09:18 8.4 C 32 %
1664 13-03-2020 13:19:18 8.6 C 33 %
1665 13-03-2020 13:29:18 9.5 C 31 %
1666 13-03-2020 13:39:18 9.9 C 30 %
1667 13-03-2020 13:49:17 9.7 C 30 %
1668 13-03-2020 13:59:17 9.6 C 30 %
1669 13-03-2020 14:09:18 9.3 C 30 %
1670 13-03-2020 14:19:18 9.4 C 30 %
1671 13-03-2020 14:29:18 8.9 C 32 %
1672 13-03-2020 14:39:18 9.5 C 31 %
1673 13-03-2020 14:49:18 10.3 C 28 %
1674 13-03-2020 14:59:18 10.1 C 28 %
1675 13-03-2020 15:09:18 9.5 C 29 %
Sensor: Nr:Datum:Temp:Feuchte:
Aussen-T/F 1676 13-03-2020 15:19:17 9.3 C 29 %
1677 13-03-2020 15:29:17 10.1 C 27 %
1678 13-03-2020 15:39:18 10.4 C 26 %
1679 13-03-2020 15:49:18 10.4 C 26 %
1680 13-03-2020 15:59:18 10.1 C 27 %
1681 13-03-2020 16:09:18 10 C 27 %
1682 13-03-2020 16:19:17 9.8 C 27 %
1683 13-03-2020 16:29:17 9.1 C 29 %
1684 13-03-2020 16:39:17 9 C 30 %
1685 13-03-2020 16:49:17 10 C 27 %
1686 13-03-2020 16:59:17 9.3 C 30 %
1687 13-03-2020 17:09:17 9.1 C 30 %
1688 13-03-2020 17:19:18 9.1 C 30 %
1689 13-03-2020 17:29:18 9.3 C 30 %
1690 13-03-2020 17:39:17 9.4 C 29 %
1691 13-03-2020 17:49:18 9.5 C 30 %
1692 13-03-2020 17:59:18 9.1 C 31 %
1693 13-03-2020 18:09:18 8.7 C 31 %
1694 13-03-2020 18:19:17 8.6 C 31 %
1695 13-03-2020 18:29:17 8.4 C 31 %
1696 13-03-2020 18:39:17 8.2 C 31 %
1697 13-03-2020 18:49:17 8.1 C 32 %
1698 13-03-2020 18:59:17 8 C 32 %
1699 13-03-2020 19:09:17 7.8 C 33 %
1700 13-03-2020 19:19:17 7.3 C 35 %
Sensor: Nr:Datum:Temp:Feuchte:
Aussen-T/F 1701 13-03-2020 19:29:17 7.3 C 35 %
1702 13-03-2020 19:39:18 7.3 C 35 %
1703 13-03-2020 19:49:17 7.3 C 35 %
1704 13-03-2020 19:59:18 7 C 35 %
1705 13-03-2020 20:09:18 6.7 C 36 %
1706 13-03-2020 20:19:17 6.7 C 36 %
1707 13-03-2020 20:29:17 6.9 C 36 %
1708 13-03-2020 20:39:17 6.4 C 36 %
1709 13-03-2020 20:49:17 6.3 C 37 %
1710 13-03-2020 20:59:17 6.2 C 37 %
1711 13-03-2020 21:09:18 5.8 C 38 %
1712 13-03-2020 21:19:18 5.8 C 38 %
1713 13-03-2020 21:29:18 5.8 C 38 %
1714 13-03-2020 21:39:18 6.2 C 37 %
1715 13-03-2020 21:49:17 5.7 C 38 %
1716 13-03-2020 21:59:17 5.8 C 38 %
1717 13-03-2020 22:09:18 5.4 C 39 %
1718 13-03-2020 22:19:17 5.6 C 39 %
1719 13-03-2020 22:29:18 5.4 C 39 %
1720 13-03-2020 22:39:18 5.5 C 40 %
1721 13-03-2020 22:49:17 5.7 C 39 %
1722 13-03-2020 22:59:17 5.8 C 39 %
1723 13-03-2020 23:09:18 5.6 C 39 %
1724 13-03-2020 23:19:17 5.6 C 39 %
1725 13-03-2020 23:29:17 5.5 C 40 %
Sensor: Nr:Datum:Temp:Feuchte:
Aussen-T/F 1726 13-03-2020 23:39:17 5.4 C 40 %
1727 13-03-2020 23:49:17 5.4 C 40 %
1728 13-03-2020 23:59:17 4.8 C 41 %
1729 14-03-2020 00:09:17 4.8 C 41 %
1730 14-03-2020 00:19:18 4.6 C 41 %
1731 14-03-2020 00:29:18 4.4 C 41 %
1732 14-03-2020 00:39:18 3.7 C 42 %
1733 14-03-2020 00:49:17 3.5 C 44 %
1734 14-03-2020 00:59:17 3 C 43 %
1735 14-03-2020 01:09:18 2.6 C 45 %
1736 14-03-2020 01:19:17 2.4 C 46 %
1737 14-03-2020 01:29:18 2 C 45 %
1738 14-03-2020 01:39:18 2 C 46 %
1739 14-03-2020 01:49:17 2.4 C 48 %
1740 14-03-2020 01:59:18 2.8 C 49 %
1741 14-03-2020 02:09:18 3.3 C 47 %
1742 14-03-2020 02:19:18 3.6 C 46 %
1743 14-03-2020 02:29:18 3.3 C 45 %
1744 14-03-2020 02:39:18 3 C 45 %
1745 14-03-2020 02:49:18 2.8 C 45 %
1746 14-03-2020 02:59:18 2.3 C 46 %
1747 14-03-2020 03:09:18 2.2 C 46 %
1748 14-03-2020 03:19:17 1.5 C 47 %
1749 14-03-2020 03:29:17 1.3 C 47 %
1750 14-03-2020 03:39:17 1.4 C 48 %
Sensor: Nr:Datum:Temp:Feuchte:
Aussen-T/F 1751 14-03-2020 03:49:18 1.5 C 48 %
1752 14-03-2020 03:59:18 1.5 C 49 %
1753 14-03-2020 04:09:17 1.7 C 49 %
1754 14-03-2020 04:19:17 1.6 C 48 %
1755 14-03-2020 04:29:17 1.6 C 49 %
1756 14-03-2020 04:39:17 1.5 C 48 %
1757 14-03-2020 04:49:17 1.3 C 48 %
1758 14-03-2020 04:59:17 1.3 C 48 %
1759 14-03-2020 05:09:17 1.3 C 49 %
1760 14-03-2020 05:19:17 1.1 C 48 %
1761 14-03-2020 05:29:17 0.8 C 49 %
1762 14-03-2020 05:39:18 0.9 C 50 %
1763 14-03-2020 05:49:17 1.3 C 49 %
1764 14-03-2020 05:59:17 0.5 C 49 %
1765 14-03-2020 06:09:18 0.3 C 49 %
1766 14-03-2020 06:19:18 0.6 C 50 %
1767 14-03-2020 06:29:18 0.4 C 49 %
1768 14-03-2020 06:39:18 0.4 C 50 %
1769 14-03-2020 06:49:17 0.8 C 50 %
1770 14-03-2020 06:59:17 0.8 C 50 %
1771 14-03-2020 07:09:17 0.7 C 50 %
1772 14-03-2020 07:19:17 0.8 C 50 %
1773 14-03-2020 07:29:17 0.6 C 49 %
1774 14-03-2020 07:39:18 0.6 C 49 %
1775 14-03-2020 07:49:17 0.8 C 49 %
Sensor: Nr:Datum:Temp:Feuchte:
Aussen-T/F 1776 14-03-2020 07:59:17 0.8 C 50 %
1777 14-03-2020 08:09:17 1 C 48 %
1778 14-03-2020 08:19:17 1.4 C 49 %
1779 14-03-2020 08:29:17 1.7 C 49 %
1780 14-03-2020 08:39:18 1.9 C 49 %
1781 14-03-2020 08:49:17 2.2 C 48 %
1782 14-03-2020 08:59:17 2.5 C 48 %
1783 14-03-2020 09:09:17 2.8 C 48 %
1784 14-03-2020 09:19:17 3.4 C 46 %
1785 14-03-2020 09:29:17 3.7 C 45 %
1786 14-03-2020 09:39:18 4.1 C 43 %
1787 14-03-2020 09:49:17 4.5 C 43 %
1788 14-03-2020 09:59:17 5 C 41 %
1789 14-03-2020 10:09:18 5.7 C 41 %
1790 14-03-2020 10:19:18 6 C 39 %
1791 14-03-2020 10:29:18 6.8 C 40 %
1792 14-03-2020 10:39:18 7.7 C 38 %
1793 14-03-2020 10:49:17 7.7 C 37 %
1794 14-03-2020 10:59:17 8.4 C 36 %
1795 14-03-2020 11:09:18 9 C 35 %
1796 14-03-2020 11:19:18 10.4 C 34 %
1797 14-03-2020 11:29:18 11 C 31 %
1798 14-03-2020 11:39:18 10.4 C 31 %
1799 14-03-2020 11:49:17 10.1 C 32 %
1800 14-03-2020 11:59:17 11.3 C 31 %
Sensor: Nr:Datum:Temp:Feuchte:
Aussen-T/F 1801 14-03-2020 12:09:18 13 C 27 %
1802 14-03-2020 12:19:17 12.4 C 27 %
1803 14-03-2020 12:29:18 12 C 27 %
1804 14-03-2020 12:39:18 11.3 C 28 %
1805 14-03-2020 12:49:17 11.5 C 28 %
1806 14-03-2020 12:59:17 13.1 C 26 %
1807 14-03-2020 13:09:18 12.9 C 25 %
1808 14-03-2020 13:19:17 13 C 22 %
1809 14-03-2020 13:29:17 13.3 C 23 %
1810 14-03-2020 13:39:17 12.5 C 22 %
1811 14-03-2020 13:49:17 12.4 C 22 %
1812 14-03-2020 13:59:17 13.8 C 21 %
1813 14-03-2020 14:09:18 12.3 C 22 %
1814 14-03-2020 14:19:17 12.5 C 21 %
1815 14-03-2020 14:29:17 14 C 20 %
1816 14-03-2020 14:39:17 13.7 C 20 %
1817 14-03-2020 14:49:18 12.3 C 20 %
1818 14-03-2020 14:59:18 11.6 C 23 %
1819 14-03-2020 15:09:18 11.4 C 22 %
1820 14-03-2020 15:19:17 12.1 C 21 %
1821 14-03-2020 15:29:17 12.1 C 20 %
1822 14-03-2020 15:39:18 11.7 C 21 %
1823 14-03-2020 15:49:17 12 C 20 %
1824 14-03-2020 15:59:17 11.8 C 21 %
1825 14-03-2020 16:09:18 11.2 C 23 %
Sensor: Nr:Datum:Temp:Feuchte:
Aussen-T/F 1826 14-03-2020 16:19:17 10.6 C 25 %
1827 14-03-2020 16:29:17 10.4 C 26 %
1828 14-03-2020 16:39:18 9.9 C 26 %
1829 14-03-2020 16:49:18 10.1 C 26 %
1830 14-03-2020 16:59:18 9.8 C 27 %
1831 14-03-2020 17:09:18 10.3 C 26 %
1832 14-03-2020 17:19:17 10.3 C 26 %
1833 14-03-2020 17:29:17 10.7 C 26 %
1834 14-03-2020 17:39:17 9.6 C 27 %
1835 14-03-2020 17:49:17 9.3 C 28 %
1836 14-03-2020 17:59:17 8.6 C 30 %
1837 14-03-2020 18:09:17 8.1 C 31 %
1838 14-03-2020 18:19:17 7.3 C 33 %
1839 14-03-2020 18:29:17 7.1 C 33 %
1840 14-03-2020 18:39:17 6.3 C 36 %
1841 14-03-2020 18:49:17 5.9 C 37 %
1842 14-03-2020 18:59:17 5.9 C 38 %
1843 14-03-2020 19:09:17 5.3 C 38 %
1844 14-03-2020 19:19:17 5.5 C 39 %
1845 14-03-2020 19:29:17 5.1 C 39 %
1846 14-03-2020 19:39:17 5.6 C 39 %
1847 14-03-2020 19:49:17 5.2 C 39 %
1848 14-03-2020 19:59:17 5.3 C 39 %
1849 14-03-2020 20:09:18 5.3 C 39 %
1850 14-03-2020 20:19:18 5.3 C 39 %
Sensor: Nr:Datum:Temp:Feuchte:
Aussen-T/F 1851 14-03-2020 20:29:18 5.3 C 39 %
1852 14-03-2020 20:39:18 5.6 C 39 %
1853 14-03-2020 20:49:17 5.5 C 39 %
1854 14-03-2020 20:59:18 5.7 C 39 %
1855 14-03-2020 21:09:18 5.7 C 39 %
1856 14-03-2020 21:19:18 5.7 C 39 %
1857 14-03-2020 21:29:18 5.6 C 38 %
1858 14-03-2020 21:39:17 5.1 C 39 %
1859 14-03-2020 21:49:18 5.2 C 39 %
1860 14-03-2020 21:59:18 5 C 39 %
1861 14-03-2020 22:09:18 5 C 39 %
1862 14-03-2020 22:19:17 5 C 39 %
1863 14-03-2020 22:29:17 5 C 39 %
1864 14-03-2020 22:39:18 5.1 C 39 %
1865 14-03-2020 22:49:18 4.8 C 40 %
1866 14-03-2020 22:59:18 5.1 C 39 %
1867 14-03-2020 23:09:17 5.5 C 39 %
1868 14-03-2020 23:19:17 5.7 C 39 %
1869 14-03-2020 23:29:17 5.6 C 40 %
1870 14-03-2020 23:39:17 5.6 C 39 %
1871 14-03-2020 23:49:18 5.8 C 40 %
1872 14-03-2020 23:59:18 5.8 C 40 %
1873 15-03-2020 00:09:18 5.9 C 39 %
1874 15-03-2020 00:19:17 5.8 C 39 %
1875 15-03-2020 00:29:17 6.1 C 37 %
Sensor: Nr:Datum:Temp:Feuchte:
Aussen-T/F 1876 15-03-2020 00:39:18 6 C 38 %
1877 15-03-2020 00:49:18 5.6 C 39 %
1878 15-03-2020 00:59:18 5.3 C 39 %
1879 15-03-2020 01:09:17 5.1 C 40 %
1880 15-03-2020 01:19:18 5.1 C 39 %
1881 15-03-2020 01:29:18 5.5 C 39 %
1882 15-03-2020 01:39:17 5.2 C 40 %
1883 15-03-2020 01:49:17 5.2 C 40 %
1884 15-03-2020 01:59:17 5.2 C 40 %
1885 15-03-2020 02:09:17 5.1 C 40 %
1886 15-03-2020 02:19:17 5.1 C 40 %
1887 15-03-2020 02:29:17 4.8 C 40 %
1888 15-03-2020 02:39:18 4.5 C 40 %
1889 15-03-2020 02:49:17 4.9 C 40 %
1890 15-03-2020 02:59:17 5 C 40 %
1891 15-03-2020 03:09:17 4.8 C 40 %
1892 15-03-2020 03:19:17 4.2 C 40 %
1893 15-03-2020 03:29:17 4 C 40 %
1894 15-03-2020 03:39:18 4 C 40 %
1895 15-03-2020 03:49:17 3.8 C 41 %
1896 15-03-2020 03:59:17 3.7 C 42 %
1897 15-03-2020 04:09:18 3.7 C 41 %
1898 15-03-2020 04:19:18 3.9 C 41 %
1899 15-03-2020 04:29:18 3.7 C 41 %
1900 15-03-2020 04:39:18 3.8 C 41 %
Sensor: Nr:Datum:Temp:Feuchte:
Aussen-T/F 1901 15-03-2020 04:49:17 3.7 C 41 %
1902 15-03-2020 04:59:18 3.5 C 41 %
1903 15-03-2020 05:09:18 3.5 C 41 %
1904 15-03-2020 05:19:17 3.3 C 41 %
1905 15-03-2020 05:29:18 3.2 C 41 %
1906 15-03-2020 05:39:18 3 C 41 %
1907 15-03-2020 05:49:17 3.1 C 41 %
1908 15-03-2020 05:59:17 3.1 C 41 %
1909 15-03-2020 06:09:18 3.1 C 41 %
1910 15-03-2020 06:19:17 3.1 C 41 %
1911 15-03-2020 06:29:17 2.9 C 43 %
1912 15-03-2020 06:39:18 3.3 C 41 %
1913 15-03-2020 06:49:18 3.6 C 41 %
1914 15-03-2020 06:59:18 3.3 C 41 %
1915 15-03-2020 07:09:18 3 C 42 %
1916 15-03-2020 07:19:18 3.1 C 42 %
1917 15-03-2020 07:29:18 3.6 C 41 %
1918 15-03-2020 07:39:18 3.6 C 41 %
1919 15-03-2020 07:49:18 3.5 C 41 %
1920 15-03-2020 07:59:18 4 C 41 %
1921 15-03-2020 08:09:18 4.8 C 40 %
1922 15-03-2020 08:19:18 5.4 C 39 %
1923 15-03-2020 08:29:18 5.7 C 39 %
1924 15-03-2020 08:39:18 5.9 C 38 %
1925 15-03-2020 08:49:17 6.4 C 38 %
Sensor: Nr:Datum:Temp:Feuchte:
Aussen-T/F 1926 15-03-2020 08:59:17 6.7 C 38 %
1927 15-03-2020 09:09:18 6.8 C 37 %
1928 15-03-2020 09:19:18 6.9 C 38 %
1929 15-03-2020 09:29:18 7.1 C 37 %
1930 15-03-2020 09:39:18 7.8 C 36 %
1931 15-03-2020 09:49:18 9.2 C 33 %
1932 15-03-2020 09:59:18 9.9 C 32 %
1933 15-03-2020 10:09:18 9.9 C 31 %
1934 15-03-2020 10:19:18 9.8 C 32 %
1935 15-03-2020 10:29:18 10 C 32 %
1936 15-03-2020 10:39:18 10.8 C 31 %
1937 15-03-2020 10:49:17 11.8 C 29 %
1938 15-03-2020 10:59:17 12.5 C 27 %
1939 15-03-2020 11:09:17 13.4 C 25 %
1940 15-03-2020 11:19:17 14.7 C 23 %
1941 15-03-2020 11:29:17 16 C 20 %
1942 15-03-2020 11:39:18 15.5 C 20 %
1943 15-03-2020 11:49:17 14.9 C 20 %
1944 15-03-2020 11:59:18 15.2 C 20 %
1945 15-03-2020 12:09:18 14.5 C 20 %
1946 15-03-2020 12:19:18 14.1 C 20 %
1947 15-03-2020 12:29:18 14.4 C 20 %
1948 15-03-2020 12:39:18 14.7 C 20 %
1949 15-03-2020 12:49:17 15.2 C 20 %
1950 15-03-2020 12:59:17 15.4 C 20 %
Sensor: Nr:Datum:Temp:Feuchte:
Aussen-T/F 1951 15-03-2020 13:09:18 14.8 C 20 %
1952 15-03-2020 13:19:17 17 C 20 %
1953 15-03-2020 13:29:17 18.6 C 20 %
1954 15-03-2020 13:39:18 17.4 C 20 %
1955 15-03-2020 13:49:17 16.7 C 20 %
1956 15-03-2020 13:59:17 16.2 C 20 %
1957 15-03-2020 14:09:17 15.5 C 20 %
1958 15-03-2020 14:19:17 16.5 C 20 %
1959 15-03-2020 14:29:17 16.3 C 20 %
1960 15-03-2020 14:39:18 16.6 C 20 %
1961 15-03-2020 14:49:17 16.2 C 20 %
1962 15-03-2020 14:59:17 16 C 20 %
1963 15-03-2020 15:09:17 17.4 C 20 %
1964 15-03-2020 15:19:17 20.3 C 20 %
1965 15-03-2020 15:29:18 20.4 C 20 %
1966 15-03-2020 15:39:18 19.4 C 20 %
1967 15-03-2020 15:49:17 20.7 C 20 %
1968 15-03-2020 15:59:17 19.9 C 20 %
1969 15-03-2020 16:09:17 21.2 C 20 %
1970 15-03-2020 16:19:17 20.2 C 20 %
1971 15-03-2020 16:29:17 20.5 C 20 %
1972 15-03-2020 16:39:17 19.7 C 20 %
1973 15-03-2020 16:49:18 18.1 C 20 %
1974 15-03-2020 16:59:18 16.9 C 20 %
1975 15-03-2020 17:09:18 16 C 20 %
Sensor: Nr:Datum:Temp:Feuchte:
Aussen-T/F 1976 15-03-2020 17:19:18 15.5 C 20 %
1977 15-03-2020 17:29:18 15.5 C 20 %
1978 15-03-2020 17:39:18 14.9 C 20 %
1979 15-03-2020 17:49:18 13.8 C 20 %
1980 15-03-2020 17:59:18 12.6 C 23 %
1981 15-03-2020 18:09:18 12.1 C 25 %
1982 15-03-2020 18:19:18 11.7 C 26 %
1983 15-03-2020 18:29:18 11.1 C 27 %
1984 15-03-2020 18:39:18 10.6 C 28 %
1985 15-03-2020 18:49:17 10.4 C 28 %
1986 15-03-2020 18:59:17 10 C 28 %
1987 15-03-2020 19:09:18 9.6 C 30 %
1988 15-03-2020 19:19:18 9.4 C 30 %
1989 15-03-2020 19:29:18 9.2 C 31 %
1990 15-03-2020 19:39:18 9.1 C 30 %
1991 15-03-2020 19:49:17 9 C 31 %
1992 15-03-2020 19:59:17 8.9 C 31 %
1993 15-03-2020 20:09:18 8.6 C 31 %
1994 15-03-2020 20:19:17 8.5 C 32 %
1995 15-03-2020 20:29:17 8.2 C 32 %
1996 15-03-2020 20:39:18 8.2 C 32 %
1997 15-03-2020 20:49:18 8 C 32 %
1998 15-03-2020 20:59:18 7.4 C 34 %
1999 15-03-2020 21:09:18 7.1 C 35 %
2000 15-03-2020 21:19:17 7 C 35 %
Sensor: Nr:Datum:Temp:Feuchte:
Aussen-T/F 2001 15-03-2020 21:29:17 7.4 C 35 %
2002 15-03-2020 21:39:17 7.5 C 35 %
2003 15-03-2020 21:49:17 7.1 C 35 %
2004 15-03-2020 21:59:17 6.3 C 36 %
2005 15-03-2020 22:09:17 5.8 C 37 %
2006 15-03-2020 22:19:17 5.4 C 37 %
2007 15-03-2020 22:29:18 5 C 38 %
2008 15-03-2020 22:39:17 4.7 C 40 %
2009 15-03-2020 22:49:17 4.7 C 40 %
2010 15-03-2020 22:59:17 4.7 C 40 %
2011 15-03-2020 23:09:17 4.7 C 40 %
2012 15-03-2020 23:19:17 4.6 C 40 %
2013 15-03-2020 23:29:17 4.5 C 40 %
2014 15-03-2020 23:39:17 4.5 C 40 %
2015 15-03-2020 23:49:17 4.3 C 40 %
2016 15-03-2020 23:59:17 4.1 C 40 %
2017 16-03-2020 00:09:17 4 C 40 %
2018 16-03-2020 00:19:17 3.8 C 41 %
2019 16-03-2020 00:29:17 3.4 C 41 %
2020 16-03-2020 00:39:17 3.4 C 42 %
2021 16-03-2020 00:49:17 3.3 C 42 %
2022 16-03-2020 00:59:17 3.3 C 42 %
2023 16-03-2020 01:09:18 2.9 C 43 %
2024 16-03-2020 01:19:17 3 C 43 %
2025 16-03-2020 01:29:17 3 C 42 %
Sensor: Nr:Datum:Temp:Feuchte:
Aussen-T/F 2026 16-03-2020 01:39:17 3.2 C 42 %
2027 16-03-2020 01:49:18 2.8 C 43 %
2028 16-03-2020 01:59:18 2.6 C 44 %
2029 16-03-2020 02:09:17 2.7 C 45 %
2030 16-03-2020 02:19:17 2.7 C 44 %
2031 16-03-2020 02:29:17 2.4 C 44 %
2032 16-03-2020 02:39:17 2.6 C 45 %
2033 16-03-2020 02:49:17 2.8 C 45 %
2034 16-03-2020 02:59:17 2.8 C 44 %
2035 16-03-2020 03:09:18 2.2 C 44 %
2036 16-03-2020 03:19:17 2.3 C 44 %
2037 16-03-2020 03:29:17 2.2 C 45 %
2038 16-03-2020 03:39:17 1.8 C 45 %
2039 16-03-2020 03:49:18 2 C 46 %
2040 16-03-2020 03:59:18 1.8 C 46 %
2041 16-03-2020 04:09:18 1.6 C 46 %
2042 16-03-2020 04:19:18 1.7 C 46 %
2043 16-03-2020 04:29:18 2 C 46 %
2044 16-03-2020 04:39:18 1.5 C 46 %
2045 16-03-2020 04:49:17 1.7 C 46 %
2046 16-03-2020 04:59:18 1.9 C 46 %
2047 16-03-2020 05:09:18 1.7 C 46 %
2048 16-03-2020 05:19:18 1.7 C 46 %
2049 16-03-2020 05:29:18 1.4 C 46 %
2050 16-03-2020 05:39:18 1.3 C 46 %
Sensor: Nr:Datum:Temp:Feuchte:
Aussen-T/F 2051 16-03-2020 05:49:17 1.2 C 46 %
2052 16-03-2020 05:59:17 1.3 C 47 %
2053 16-03-2020 06:09:18 1.1 C 47 %
2054 16-03-2020 06:19:17 0.6 C 48 %
2055 16-03-2020 06:29:17 0.6 C 48 %
2056 16-03-2020 06:39:17 0.6 C 48 %
2057 16-03-2020 06:49:17 0.6 C 48 %
2058 16-03-2020 06:59:17 0.9 C 49 %
2059 16-03-2020 07:09:17 1.2 C 49 %
2060 16-03-2020 07:19:17 1.1 C 47 %
2061 16-03-2020 07:29:17 1 C 47 %
2062 16-03-2020 07:39:17 1.4 C 49 %
2063 16-03-2020 07:49:17 1.4 C 48 %
2064 16-03-2020 07:59:17 1.7 C 48 %
2065 16-03-2020 08:09:18 2 C 47 %
2066 16-03-2020 08:19:17 2.3 C 47 %
2067 16-03-2020 08:29:18 2.4 C 46 %
2068 16-03-2020 08:39:18 2.4 C 46 %
2069 16-03-2020 08:49:17 2.6 C 46 %
2070 16-03-2020 08:59:17 2.9 C 47 %
2071 16-03-2020 09:09:18 3.4 C 46 %
2072 16-03-2020 09:19:18 3.7 C 45 %
2073 16-03-2020 09:29:18 4 C 45 %
2074 16-03-2020 09:39:18 4.6 C 44 %
2075 16-03-2020 09:49:18 5 C 43 %
Sensor: Nr:Datum:Temp:Feuchte:
Aussen-T/F 2076 16-03-2020 09:59:18 5.6 C 42 %
2077 16-03-2020 10:09:18 6.6 C 41 %
2078 16-03-2020 10:19:18 7.3 C 40 %
2079 16-03-2020 10:29:18 8.3 C 39 %
2080 16-03-2020 10:39:17 9.3 C 38 %
2081 16-03-2020 10:49:18 10.4 C 37 %
2082 16-03-2020 10:59:18 12.4 C 34 %
2083 16-03-2020 11:09:17 13.3 C 32 %
2084 16-03-2020 11:19:17 14.3 C 30 %
2085 16-03-2020 11:29:17 15.4 C 27 %
2086 16-03-2020 11:39:18 15.7 C 26 %
2087 16-03-2020 11:49:17 15.6 C 25 %
2088 16-03-2020 11:59:17 16.1 C 25 %
2089 16-03-2020 12:09:17 16.5 C 25 %
2090 16-03-2020 12:19:17 16.8 C 25 %
2091 16-03-2020 12:29:17 16.4 C 24 %
2092 16-03-2020 12:39:17 16.9 C 24 %
2093 16-03-2020 12:49:17 18.3 C 21 %
2094 16-03-2020 12:59:17 18.7 C 20 %
2095 16-03-2020 13:09:17 22.3 C 20 %
2096 16-03-2020 13:19:17 21.2 C 20 %
2097 16-03-2020 13:29:17 21.1 C 20 %
2098 16-03-2020 13:39:17 20.6 C 20 %
2099 16-03-2020 13:49:17 21.1 C 20 %
2100 16-03-2020 13:59:17 19.7 C 20 %
Sensor: Nr:Datum:Temp:Feuchte:
Aussen-T/F 2101 16-03-2020 14:09:17 18.7 C 20 %
2102 16-03-2020 14:19:17 19.7 C 20 %
2103 16-03-2020 14:29:17 19.7 C 20 %
2104 16-03-2020 14:39:17 20 C 20 %
2105 16-03-2020 14:49:17 19.2 C 20 %
2106 16-03-2020 14:59:17 20.8 C 20 %
2107 16-03-2020 15:09:17 20 C 20 %
2108 16-03-2020 15:19:17 19.1 C 20 %
2109 16-03-2020 15:29:17 18.8 C 20 %
2110 16-03-2020 15:39:18 18.8 C 20 %
2111 16-03-2020 15:49:17 19 C 20 %
2112 16-03-2020 15:59:17 19 C 20 %
2113 16-03-2020 16:09:18 18.7 C 20 %
2114 16-03-2020 16:19:18 19 C 20 %
2115 16-03-2020 16:29:18 21.4 C 20 %
2116 16-03-2020 16:39:17 20.8 C 20 %
2117 16-03-2020 16:49:17 20.2 C 20 %
2118 16-03-2020 16:59:17 19.4 C 20 %
2119 16-03-2020 17:09:17 18.4 C 20 %
2120 16-03-2020 17:19:17 17.9 C 20 %
2121 16-03-2020 17:29:18 17.7 C 20 %
2122 16-03-2020 17:39:18 17.5 C 20 %
2123 16-03-2020 17:49:17 16.8 C 21 %
2124 16-03-2020 17:59:18 16 C 23 %
2125 16-03-2020 18:09:18 15 C 26 %
Sensor: Nr:Datum:Temp:Feuchte:
Aussen-T/F 2126 16-03-2020 18:19:18 14.3 C 27 %
2127 16-03-2020 18:29:18 13.7 C 29 %
2128 16-03-2020 18:39:18 13.1 C 30 %
2129 16-03-2020 18:49:18 12.7 C 31 %
2130 16-03-2020 18:59:18 12.4 C 32 %
2131 16-03-2020 19:09:18 12.1 C 32 %
2132 16-03-2020 19:19:18 12.2 C 32 %
2133 16-03-2020 19:29:18 12.2 C 32 %
2134 16-03-2020 19:39:18 11.9 C 34 %
2135 16-03-2020 19:49:17 11.5 C 34 %
2136 16-03-2020 19:59:18 11 C 35 %
2137 16-03-2020 20:09:18 10.7 C 36 %
2138 16-03-2020 20:19:18 11.4 C 35 %
2139 16-03-2020 20:29:18 10.8 C 36 %
2140 16-03-2020 20:39:18 10.3 C 36 %
2141 16-03-2020 20:49:18 9.5 C 38 %
2142 16-03-2020 20:59:18 10.8 C 37 %
2143 16-03-2020 21:09:18 10.1 C 37 %
2144 16-03-2020 21:19:17 10.3 C 38 %
2145 16-03-2020 21:29:17 9.9 C 38 %
2146 16-03-2020 21:39:17 9.7 C 38 %
2147 16-03-2020 21:49:18 10.2 C 37 %
2148 16-03-2020 21:59:18 9.9 C 38 %
2149 16-03-2020 22:09:18 9.7 C 38 %
2150 16-03-2020 22:19:18 9.5 C 38 %
Sensor: Nr:Datum:Temp:Feuchte:
Aussen-T/F 2151 16-03-2020 22:29:18 9.5 C 39 %
2152 16-03-2020 22:39:18 9.2 C 38 %
2153 16-03-2020 22:49:18 8.9 C 39 %
2154 16-03-2020 22:59:18 9.1 C 39 %
2155 16-03-2020 23:09:18 9.4 C 39 %
2156 16-03-2020 23:19:17 9.4 C 39 %
2157 16-03-2020 23:29:17 9.4 C 39 %
2158 16-03-2020 23:39:17 9.5 C 39 %
2159 16-03-2020 23:49:17 9.5 C 40 %
2160 16-03-2020 23:59:17 9.5 C 39 %
2161 17-03-2020 00:09:17 9.3 C 39 %
2162 17-03-2020 00:19:17 9.7 C 40 %
2163 17-03-2020 00:29:17 9.5 C 39 %
2164 17-03-2020 00:39:18 9.3 C 39 %
2165 17-03-2020 00:49:18 9.1 C 40 %
2166 17-03-2020 00:59:18 9 C 40 %
2167 17-03-2020 01:09:18 9.3 C 40 %
2168 17-03-2020 01:19:17 9.2 C 40 %
2169 17-03-2020 01:29:17 8.9 C 40 %
2170 17-03-2020 01:39:17 8.7 C 41 %
2171 17-03-2020 01:49:18 8.8 C 41 %
2172 17-03-2020 01:59:18 8.8 C 41 %
2173 17-03-2020 02:09:18 8.7 C 41 %
2174 17-03-2020 02:19:17 8.7 C 41 %
2175 17-03-2020 02:29:17 8.7 C 41 %
Sensor: Nr:Datum:Temp:Feuchte:
Aussen-T/F 2176 17-03-2020 02:39:17 8.9 C 41 %
2177 17-03-2020 02:49:17 8.9 C 41 %
2178 17-03-2020 02:59:17 8.8 C 41 %
2179 17-03-2020 03:09:18 8.6 C 41 %
2180 17-03-2020 03:19:18 8.6 C 41 %
2181 17-03-2020 03:29:18 8.4 C 41 %
2182 17-03-2020 03:39:17 8.3 C 41 %
2183 17-03-2020 03:49:18 8.1 C 42 %
2184 17-03-2020 03:59:18 8 C 41 %
2185 17-03-2020 04:09:18 8.9 C 42 %
2186 17-03-2020 04:19:18 9.2 C 40 %
2187 17-03-2020 04:29:18 9.3 C 40 %
2188 17-03-2020 04:39:17 9 C 40 %
2189 17-03-2020 04:49:18 9 C 40 %
2190 17-03-2020 04:59:18 8.6 C 41 %
2191 17-03-2020 05:09:17 8.9 C 41 %
2192 17-03-2020 05:19:17 9 C 40 %
2193 17-03-2020 05:29:17 8.6 C 41 %
2194 17-03-2020 05:39:17 8.3 C 41 %
2195 17-03-2020 05:49:17 8.2 C 41 %
2196 17-03-2020 05:59:18 8.2 C 41 %
2197 17-03-2020 06:09:18 8.1 C 41 %
2198 17-03-2020 06:19:18 8.1 C 41 %
2199 17-03-2020 06:29:18 8 C 41 %
2200 17-03-2020 06:39:18 8.2 C 41 %
Sensor: Nr:Datum:Temp:Feuchte:
Aussen-T/F 2201 17-03-2020 06:49:18 8.1 C 41 %
2202 17-03-2020 06:59:18 8.2 C 41 %
2203 17-03-2020 07:09:17 8.8 C 40 %
2204 17-03-2020 07:19:17 9 C 40 %
2205 17-03-2020 07:29:17 9.5 C 39 %
2206 17-03-2020 07:39:17 9.6 C 39 %
2207 17-03-2020 07:49:18 9.6 C 39 %
2208 17-03-2020 07:59:18 9.8 C 38 %
2209 17-03-2020 08:09:18 10.1 C 37 %
2210 17-03-2020 08:19:17 10 C 37 %
2211 17-03-2020 08:29:17 9.8 C 38 %
2212 17-03-2020 08:39:17 9.9 C 38 %
2213 17-03-2020 08:49:17 9.9 C 38 %
2214 17-03-2020 08:59:17 10 C 37 %
2215 17-03-2020 09:09:17 10.2 C 37 %
2216 17-03-2020 09:19:18 10.4 C 37 %
2217 17-03-2020 09:29:18 10.4 C 37 %
2218 17-03-2020 09:39:18 10.6 C 37 %
2219 17-03-2020 09:49:17 10.6 C 37 %
2220 17-03-2020 09:59:17 10.7 C 37 %
2221 17-03-2020 10:09:17 10.7 C 37 %
2222 17-03-2020 10:19:17 10.9 C 36 %
2223 17-03-2020 10:29:17 11 C 35 %
2224 17-03-2020 10:39:17 11.7 C 35 %
2225 17-03-2020 10:49:17 12.4 C 33 %
Sensor: Nr:Datum:Temp:Feuchte:
Aussen-T/F 2226 17-03-2020 10:59:17 12.9 C 33 %
2227 17-03-2020 11:09:17 13.1 C 32 %
2228 17-03-2020 11:19:17 13.3 C 31 %
2229 17-03-2020 11:29:17 13.3 C 31 %
2230 17-03-2020 11:39:17 14.7 C 30 %
2231 17-03-2020 11:49:17 14.1 C 29 %
2232 17-03-2020 11:59:17 15.4 C 28 %
2233 17-03-2020 12:09:17 14.5 C 29 %
2234 17-03-2020 12:19:18 14.6 C 27 %
2235 17-03-2020 12:29:18 15.2 C 26 %
2236 17-03-2020 12:39:18 16.5 C 26 %
2237 17-03-2020 12:49:18 16.6 C 24 %
2238 17-03-2020 12:59:18 19.3 C 20 %
2239 17-03-2020 13:09:17 18.8 C 20 %
2240 17-03-2020 13:19:17 20.4 C 20 %
2241 17-03-2020 13:29:17 19.5 C 20 %
2242 17-03-2020 13:39:17 18.5 C 20 %
2243 17-03-2020 13:49:18 18.8 C 20 %
2244 17-03-2020 13:59:18 19.3 C 20 %
2245 17-03-2020 14:09:17 18.3 C 20 %
2246 17-03-2020 14:19:17 18.5 C 20 %
2247 17-03-2020 14:29:17 17.9 C 20 %
2248 17-03-2020 14:39:18 17.1 C 20 %
2249 17-03-2020 14:49:18 20.5 C 20 %
2250 17-03-2020 14:59:18 22.2 C 20 %
Sensor: Nr:Datum:Temp:Feuchte:
Aussen-T/F 2251 17-03-2020 15:09:17 22.5 C 20 %
2252 17-03-2020 15:19:17 22.1 C 20 %
2253 17-03-2020 15:29:17 23.8 C 20 %
2254 17-03-2020 15:39:18 23.6 C 20 %
2255 17-03-2020 15:49:17 23.8 C 20 %
2256 17-03-2020 15:59:17 23.9 C 20 %
2257 17-03-2020 16:09:18 23.3 C 20 %
2258 17-03-2020 16:19:18 21.8 C 20 %
2259 17-03-2020 16:29:18 23.2 C 20 %
2260 17-03-2020 16:39:17 21.4 C 20 %
2261 17-03-2020 16:49:17 22.3 C 20 %
2262 17-03-2020 16:59:17 20.1 C 20 %
2263 17-03-2020 17:09:17 18.7 C 20 %
2264 17-03-2020 17:19:18 17.7 C 20 %
2265 17-03-2020 17:29:18 17.3 C 20 %
2266 17-03-2020 17:39:18 16.8 C 20 %
2267 17-03-2020 17:49:17 16.1 C 22 %
2268 17-03-2020 17:59:18 15.3 C 24 %
2269 17-03-2020 18:09:18 14.1 C 27 %
2270 17-03-2020 18:19:17 13.5 C 28 %
2271 17-03-2020 18:29:17 13.2 C 29 %
2272 17-03-2020 18:39:18 12.8 C 30 %
2273 17-03-2020 18:49:18 12.4 C 31 %
2274 17-03-2020 18:59:18 12 C 31 %
2275 17-03-2020 19:09:18 11.9 C 32 %
Sensor: Nr:Datum:Temp:Feuchte:
Aussen-T/F 2276 17-03-2020 19:19:17 11.8 C 32 %
2277 17-03-2020 19:29:17 11.1 C 33 %
2278 17-03-2020 19:39:17 11 C 34 %
2279 17-03-2020 19:49:17 10.4 C 35 %
2280 17-03-2020 19:59:17 10.2 C 35 %
2281 17-03-2020 20:09:17 9.9 C 36 %
2282 17-03-2020 20:19:17 10.1 C 36 %
2283 17-03-2020 20:29:17 10.7 C 35 %
2284 17-03-2020 20:39:18 10.4 C 35 %
2285 17-03-2020 20:49:18 9.6 C 37 %
2286 17-03-2020 20:59:18 9.5 C 37 %
2287 17-03-2020 21:09:18 9 C 37 %
2288 17-03-2020 21:19:17 8.4 C 39 %
2289 17-03-2020 21:29:17 8.4 C 39 %
2290 17-03-2020 21:39:17 8.1 C 39 %
2291 17-03-2020 21:49:18 8 C 40 %
2292 17-03-2020 21:59:18 7.6 C 40 %
2293 17-03-2020 22:09:18 7.3 C 40 %
2294 17-03-2020 22:19:18 7.2 C 41 %
2295 17-03-2020 22:29:18 7 C 41 %
2296 17-03-2020 22:39:17 6.9 C 41 %
2297 17-03-2020 22:49:17 6.7 C 42 %
2298 17-03-2020 22:59:17 6.5 C 42 %
2299 17-03-2020 23:09:17 6.4 C 42 %
2300 17-03-2020 23:19:17 6.3 C 42 %
Sensor: Nr:Datum:Temp:Feuchte:
Aussen-T/F 2301 17-03-2020 23:29:17 6.1 C 42 %
2302 17-03-2020 23:39:18 6.1 C 42 %
2303 17-03-2020 23:49:18 6.2 C 43 %
2304 17-03-2020 23:59:18 6.3 C 43 %
2305 18-03-2020 00:09:17 5.9 C 43 %
2306 18-03-2020 00:19:17 5.8 C 44 %
2307 18-03-2020 00:29:17 5.9 C 44 %
2308 18-03-2020 00:39:17 5.8 C 44 %
2309 18-03-2020 00:49:17 6 C 44 %
2310 18-03-2020 00:59:17 6 C 43 %
2311 18-03-2020 01:09:17 5.7 C 44 %
2312 18-03-2020 01:19:17 5.6 C 44 %
2313 18-03-2020 01:29:17 5.3 C 44 %
2314 18-03-2020 01:39:17 5.6 C 45 %
2315 18-03-2020 01:49:17 5.3 C 45 %
2316 18-03-2020 01:59:17 5.6 C 46 %
2317 18-03-2020 02:09:17 5.1 C 44 %
2318 18-03-2020 02:19:17 4.8 C 45 %
2319 18-03-2020 02:29:17 4.8 C 45 %
2320 18-03-2020 02:39:17 4.6 C 46 %
2321 18-03-2020 02:49:18 4.3 C 46 %
2322 18-03-2020 02:59:18 4.3 C 46 %
2323 18-03-2020 03:09:18 4.2 C 46 %
2324 18-03-2020 03:19:17 4.2 C 46 %
2325 18-03-2020 03:29:17 4.1 C 46 %
Sensor: Nr:Datum:Temp:Feuchte:
Aussen-T/F 2326 18-03-2020 03:39:17 4 C 46 %
2327 18-03-2020 03:49:17 3.8 C 47 %
2328 18-03-2020 03:59:17 3.8 C 47 %
2329 18-03-2020 04:09:17 3.8 C 47 %
2330 18-03-2020 04:19:18 3.8 C 47 %
2331 18-03-2020 04:29:18 3.7 C 47 %
2332 18-03-2020 04:39:18 3.7 C 47 %
2333 18-03-2020 04:49:18 3.6 C 47 %
2334 18-03-2020 04:59:18 3.6 C 47 %
2335 18-03-2020 05:09:18 3.7 C 48 %
2336 18-03-2020 05:19:18 3.8 C 48 %
2337 18-03-2020 05:29:18 3.3 C 47 %
2338 18-03-2020 05:39:18 3.2 C 47 %
2339 18-03-2020 05:49:18 3.3 C 47 %
2340 18-03-2020 05:59:18 3.1 C 47 %
2341 18-03-2020 06:09:18 2.9 C 48 %
2342 18-03-2020 06:19:17 3.3 C 47 %
2343 18-03-2020 06:29:18 3.1 C 47 %
2344 18-03-2020 06:39:18 3.1 C 47 %
2345 18-03-2020 06:49:17 3.1 C 47 %
2346 18-03-2020 06:59:18 3.6 C 47 %
2347 18-03-2020 07:09:18 3.5 C 47 %
2348 18-03-2020 07:19:17 3.4 C 47 %
2349 18-03-2020 07:29:17 3.7 C 47 %
2350 18-03-2020 07:39:17 3.9 C 47 %
Sensor: Nr:Datum:Temp:Feuchte:
Aussen-T/F 2351 18-03-2020 07:49:18 4 C 46 %
2352 18-03-2020 07:59:18 4.9 C 46 %
2353 18-03-2020 08:09:18 4.6 C 46 %
2354 18-03-2020 08:19:18 4.5 C 46 %
2355 18-03-2020 08:29:18 4.7 C 46 %
2356 18-03-2020 08:39:17 5 C 45 %
2357 18-03-2020 08:49:18 5.3 C 46 %
2358 18-03-2020 08:59:18 5.6 C 46 %
2359 18-03-2020 09:09:17 6.7 C 45 %
2360 18-03-2020 09:19:17 7.1 C 45 %
2361 18-03-2020 09:29:17 8.5 C 45 %
2362 18-03-2020 09:39:17 9.7 C 41 %
2363 18-03-2020 09:49:18 10.5 C 40 %
2364 18-03-2020 09:59:18 11 C 38 %
2365 18-03-2020 10:09:18 11.1 C 38 %
2366 18-03-2020 10:19:18 11.6 C 38 %
2367 18-03-2020 10:29:18 11.6 C 37 %
2368 18-03-2020 10:39:18 11.7 C 38 %
2369 18-03-2020 10:49:18 12 C 36 %
2370 18-03-2020 10:59:18 12.2 C 35 %
2371 18-03-2020 11:09:18 12.7 C 35 %
2372 18-03-2020 11:19:18 12.8 C 34 %
2373 18-03-2020 11:29:18 13.3 C 34 %
2374 18-03-2020 11:39:18 13.9 C 33 %
2375 18-03-2020 11:49:17 14.7 C 32 %
Sensor: Nr:Datum:Temp:Feuchte:
Aussen-T/F 2376 18-03-2020 11:59:17 15.3 C 30 %
2377 18-03-2020 12:09:18 15.8 C 30 %
2378 18-03-2020 12:19:17 16.6 C 29 %
2379 18-03-2020 12:29:18 17 C 27 %
2380 18-03-2020 12:39:18 17.8 C 26 %
2381 18-03-2020 12:49:17 19.1 C 25 %
2382 18-03-2020 12:59:17 19.8 C 20 %
2383 18-03-2020 13:09:17 21 C 20 %
2384 18-03-2020 13:19:17 21.2 C 20 %
2385 18-03-2020 13:29:17 19.5 C 20 %
2386 18-03-2020 13:39:18 17.7 C 20 %
2387 18-03-2020 13:49:17 16.6 C 22 %
2388 18-03-2020 13:59:17 16 C 22 %
2389 18-03-2020 14:09:17 17.6 C 21 %
2390 18-03-2020 14:19:17 16.7 C 20 %
2391 18-03-2020 14:29:17 17.9 C 20 %
2392 18-03-2020 14:39:18 18.5 C 20 %
2393 18-03-2020 14:49:17 17.4 C 20 %
2394 18-03-2020 14:59:17 17.4 C 20 %
2395 18-03-2020 15:09:17 20.6 C 20 %
2396 18-03-2020 15:19:18 17.9 C 20 %
2397 18-03-2020 15:29:18 18.2 C 20 %
2398 18-03-2020 15:39:18 17.7 C 20 %
2399 18-03-2020 15:49:17 16.9 C 20 %
2400 18-03-2020 15:59:17 16.7 C 21 %
Sensor: Nr:Datum:Temp:Feuchte:
Aussen-T/F 2401 18-03-2020 16:09:17 16.4 C 21 %
2402 18-03-2020 16:19:17 16.4 C 22 %
2403 18-03-2020 16:29:17 16.4 C 20 %
2404 18-03-2020 16:39:17 16.5 C 20 %
2405 18-03-2020 16:49:18 16.2 C 21 %
2406 18-03-2020 16:59:18 16.1 C 21 %
2407 18-03-2020 17:09:17 16 C 21 %
2408 18-03-2020 17:19:17 16 C 21 %
2409 18-03-2020 17:29:17 15.7 C 22 %
2410 18-03-2020 17:39:18 16 C 20 %
2411 18-03-2020 17:49:17 16.3 C 20 %
2412 18-03-2020 17:59:17 15.8 C 22 %
2413 18-03-2020 18:09:17 15.4 C 22 %
2414 18-03-2020 18:19:17 14.7 C 26 %
2415 18-03-2020 18:29:17 13.7 C 26 %
2416 18-03-2020 18:39:17 13.3 C 28 %
2417 18-03-2020 18:49:17 12.7 C 30 %
2418 18-03-2020 18:59:17 12 C 31 %
2419 18-03-2020 19:09:17 11.7 C 32 %
2420 18-03-2020 19:19:18 11.5 C 32 %
2421 18-03-2020 19:29:18 10.5 C 34 %
2422 18-03-2020 19:39:18 10.9 C 34 %
2423 18-03-2020 19:49:18 11.1 C 34 %
2424 18-03-2020 19:59:18 10.9 C 35 %
2425 18-03-2020 20:09:18 10.6 C 35 %
Sensor: Nr:Datum:Temp:Feuchte:
Aussen-T/F 2426 18-03-2020 20:19:17 10.4 C 35 %
2427 18-03-2020 20:29:17 10.4 C 35 %
2428 18-03-2020 20:39:18 10 C 36 %
2429 18-03-2020 20:49:17 9.7 C 37 %
2430 18-03-2020 20:59:17 9.7 C 37 %
2431 18-03-2020 21:09:18 9.7 C 37 %
2432 18-03-2020 21:19:17 9.6 C 37 %
2433 18-03-2020 21:29:17 9.4 C 37 %
2434 18-03-2020 21:39:17 9 C 37 %
2435 18-03-2020 21:49:17 8.7 C 38 %
2436 18-03-2020 21:59:17 8.4 C 39 %
2437 18-03-2020 22:09:17 8.2 C 39 %
2438 18-03-2020 22:19:17 8.1 C 40 %
2439 18-03-2020 22:29:17 8 C 40 %
2440 18-03-2020 22:39:17 8 C 40 %
2441 18-03-2020 22:49:17 8.1 C 40 %
2442 18-03-2020 22:59:17 8.2 C 40 %
2443 18-03-2020 23:09:18 8.3 C 40 %
2444 18-03-2020 23:19:17 8.1 C 40 %
2445 18-03-2020 23:29:17 8 C 40 %
2446 18-03-2020 23:39:18 8 C 40 %
2447 18-03-2020 23:49:18 8.4 C 40 %
2448 18-03-2020 23:59:18 8.9 C 40 %
2449 19-03-2020 00:09:17 8.9 C 39 %
2450 19-03-2020 00:19:18 8.9 C 38 %
Sensor: Nr:Datum:Temp:Feuchte:
Aussen-T/F 2451 19-03-2020 00:29:18 9 C 38 %
2452 19-03-2020 00:39:18 9 C 38 %
2453 19-03-2020 00:49:17 9.1 C 38 %
2454 19-03-2020 00:59:17 9.1 C 38 %
2455 19-03-2020 01:09:18 9 C 38 %
2456 19-03-2020 01:19:17 9.1 C 38 %
2457 19-03-2020 01:29:17 9 C 38 %
2458 19-03-2020 01:39:17 9 C 38 %
2459 19-03-2020 01:49:17 8.9 C 38 %
2460 19-03-2020 01:59:17 8.8 C 39 %
2461 19-03-2020 02:09:18 8.7 C 39 %
2462 19-03-2020 02:19:17 8.7 C 39 %
2463 19-03-2020 02:29:17 8.6 C 39 %
2464 19-03-2020 02:39:17 8.5 C 39 %
2465 19-03-2020 02:49:18 8.5 C 39 %
2466 19-03-2020 02:59:18 8.5 C 39 %
2467 19-03-2020 03:09:18 8.5 C 39 %
2468 19-03-2020 03:19:18 8.6 C 39 %
2469 19-03-2020 03:29:18 8.5 C 39 %
2470 19-03-2020 03:39:17 8.5 C 39 %
2471 19-03-2020 03:49:18 8.4 C 39 %
2472 19-03-2020 03:59:18 8.4 C 40 %
2473 19-03-2020 04:09:18 8.4 C 40 %
2474 19-03-2020 04:19:17 8.5 C 40 %
2475 19-03-2020 04:29:17 8.5 C 39 %
Sensor: Nr:Datum:Temp:Feuchte:
Aussen-T/F 2476 19-03-2020 04:39:17 8.5 C 39 %
2477 19-03-2020 04:49:18 8.5 C 39 %
2478 19-03-2020 04:59:18 8.5 C 39 %
2479 19-03-2020 05:09:18 8.6 C 39 %
2480 19-03-2020 05:19:18 8.9 C 38 %
2481 19-03-2020 05:29:18 8.7 C 39 %
2482 19-03-2020 05:39:18 8.6 C 39 %
2483 19-03-2020 05:49:17 8.5 C 39 %
2484 19-03-2020 05:59:18 8.4 C 39 %
2485 19-03-2020 06:09:18 8.4 C 39 %
2486 19-03-2020 06:19:17 8.3 C 40 %
2487 19-03-2020 06:29:17 8.2 C 39 %
2488 19-03-2020 06:39:17 8.1 C 40 %
2489 19-03-2020 06:49:17 8.1 C 40 %
2490 19-03-2020 06:59:17 8.2 C 40 %
2491 19-03-2020 07:09:17 8.2 C 40 %
2492 19-03-2020 07:19:17 8.5 C 40 %
2493 19-03-2020 07:29:17 8.7 C 39 %
2494 19-03-2020 07:39:18 8.9 C 39 %
2495 19-03-2020 07:49:18 9.1 C 38 %
2496 19-03-2020 07:59:18 9.4 C 38 %
2497 19-03-2020 08:09:18 9.7 C 38 %
2498 19-03-2020 08:19:17 9.9 C 37 %
2499 19-03-2020 08:29:17 9.9 C 37 %
2500 19-03-2020 08:39:17 10.5 C 36 %
Sensor: Nr:Datum:Temp:Feuchte:
Aussen-T/F 2501 19-03-2020 08:49:18 10.4 C 36 %
2502 19-03-2020 08:59:18 10.2 C 36 %
2503 19-03-2020 09:09:17 11.2 C 35 %
2504 19-03-2020 09:19:17 11.7 C 35 %
2505 19-03-2020 09:29:17 11.5 C 35 %
2506 19-03-2020 09:39:18 11.8 C 35 %
2507 19-03-2020 09:49:17 11.6 C 35 %
2508 19-03-2020 09:59:17 12.4 C 33 %
2509 19-03-2020 10:09:18 12.3 C 32 %
2510 19-03-2020 10:19:18 13.1 C 31 %
2511 19-03-2020 10:29:18 13.5 C 30 %
2512 19-03-2020 10:39:17 13.9 C 31 %
2513 19-03-2020 10:49:17 14.2 C 30 %
2514 19-03-2020 10:59:17 15.4 C 29 %
2515 19-03-2020 11:09:17 15.5 C 29 %
2516 19-03-2020 11:19:17 16.4 C 26 %
2517 19-03-2020 11:29:17 17.7 C 26 %
2518 19-03-2020 11:39:17 18.5 C 24 %
2519 19-03-2020 11:49:17 15.8 C 26 %
2520 19-03-2020 11:59:17 15 C 28 %
2521 19-03-2020 12:09:17 15.2 C 28 %
2522 19-03-2020 12:19:17 15.5 C 28 %
2523 19-03-2020 12:29:17 16.8 C 26 %
2524 19-03-2020 12:39:18 18.1 C 22 %
2525 19-03-2020 12:49:17 18.6 C 20 %
Sensor: Nr:Datum:Temp:Feuchte:
Aussen-T/F 2526 19-03-2020 12:59:17 17.9 C 20 %
2527 19-03-2020 13:09:18 20.4 C 20 %
2528 19-03-2020 13:19:18 25.8 C 20 %
2529 19-03-2020 13:29:18 25.6 C 20 %
2530 19-03-2020 13:39:18 19.7 C 20 %
2531 19-03-2020 13:49:17 18.8 C 20 %
2532 19-03-2020 13:59:17 18.2 C 20 %
2533 19-03-2020 14:09:17 18.7 C 20 %
2534 19-03-2020 14:19:17 18.9 C 20 %
2535 19-03-2020 14:29:17 18.8 C 20 %
2536 19-03-2020 14:39:17 18.9 C 20 %
2537 19-03-2020 14:49:17 19.3 C 20 %
2538 19-03-2020 14:59:17 19.1 C 20 %
2539 19-03-2020 15:09:18 18.5 C 20 %
2540 19-03-2020 15:19:18 19.1 C 20 %
2541 19-03-2020 15:29:18 19.3 C 20 %
2542 19-03-2020 15:39:18 19.8 C 20 %
2543 19-03-2020 15:49:17 21.8 C 20 %
2544 19-03-2020 15:59:18 19.5 C 20 %
2545 19-03-2020 16:09:18 19.1 C 20 %
2546 19-03-2020 16:20:17 19.1 C 20 %
2547 19-03-2020 16:29:17 19.1 C 20 %
2548 19-03-2020 16:39:17 19.1 C 20 %
2549 19-03-2020 16:49:17 19.1 C 20 %
2550 19-03-2020 16:59:17 18.4 C 20 %
Sensor: Nr:Datum:Temp:Feuchte:
Aussen-T/F 2551 19-03-2020 17:09:18 17.6 C 20 %
2552 19-03-2020 17:19:18 17.3 C 20 %
2553 19-03-2020 17:29:18 17 C 20 %
2554 19-03-2020 17:39:18 16.8 C 20 %
2555 19-03-2020 17:49:18 16.9 C 20 %
2556 19-03-2020 17:59:18 16.7 C 20 %
2557 19-03-2020 18:09:18 16.3 C 20 %
2558 19-03-2020 18:20:17 15.7 C 23 %
2559 19-03-2020 18:30:17 13.9 C 29 %
2560 19-03-2020 18:40:17 13.5 C 30 %
2561 19-03-2020 18:50:17 12.8 C 31 %
2562 19-03-2020 18:59:18 12.7 C 31 %
2563 19-03-2020 19:09:18 12.3 C 31 %
2564 19-03-2020 19:20:17 12.2 C 31 %
2565 19-03-2020 19:30:17 11.9 C 32 %
2566 19-03-2020 19:40:17 11.7 C 32 %
2567 19-03-2020 19:50:17 11.7 C 33 %
2568 19-03-2020 19:59:17 11.7 C 33 %
2569 19-03-2020 20:09:17 11.7 C 33 %
2570 19-03-2020 20:29:17 11.5 C 34 %
2571 19-03-2020 20:29:17 11.6 C 34 %
2572 19-03-2020 20:39:17 12 C 33 %
2573 19-03-2020 20:49:17 11.8 C 34 %
2574 19-03-2020 20:59:17 11.5 C 35 %
2575 19-03-2020 21:09:18 12 C 33 %
Sensor: Nr:Datum:Temp:Feuchte:
Aussen-T/F 2576 19-03-2020 21:20:17 11.4 C 35 %
2577 19-03-2020 21:30:17 11.3 C 35 %
2578 19-03-2020 21:40:17 10.3 C 36 %
2579 19-03-2020 21:50:17 10.7 C 36 %
2580 19-03-2020 21:59:18 10.6 C 36 %
2581 19-03-2020 22:09:18 10.1 C 37 %
2582 19-03-2020 22:19:18 9.7 C 38 %
2583 19-03-2020 22:29:18 9.8 C 38 %
2584 19-03-2020 22:39:18 9.5 C 39 %
2585 19-03-2020 22:49:18 9.4 C 39 %
2586 19-03-2020 22:59:18 9.5 C 38 %
2587 19-03-2020 23:09:18 9.5 C 38 %
2588 19-03-2020 23:20:17 9.4 C 39 %
2589 19-03-2020 23:30:17 9.2 C 39 %
2590 19-03-2020 23:40:17 9.6 C 38 %
2591 19-03-2020 23:50:17 9.1 C 39 %
2592 19-03-2020 23:59:18 8.7 C 40 %
2593 20-03-2020 00:09:18 8.6 C 40 %
2594 20-03-2020 00:19:18 9.3 C 39 %
2595 20-03-2020 00:29:18 9.1 C 39 %
2596 20-03-2020 00:39:18 9 C 39 %
2597 20-03-2020 00:59:17 8.8 C 40 %
2598 20-03-2020 01:00:18 8.8 C 40 %
2599 20-03-2020 01:10:18 8.7 C 40 %
2600 20-03-2020 01:20:17 8.7 C 40 %
Sensor: Nr:Datum:Temp:Feuchte:
Aussen-T/F 2601 20-03-2020 01:30:18 8.6 C 40 %
2602 20-03-2020 01:40:18 8.4 C 40 %
2603 20-03-2020 01:50:17 8.5 C 40 %
2604 20-03-2020 02:00:18 8.3 C 40 %
2605 20-03-2020 02:10:18 7.9 C 40 %
2606 20-03-2020 02:20:17 7.6 C 41 %
2607 20-03-2020 02:30:17 7.4 C 41 %
2608 20-03-2020 02:40:17 7.4 C 41 %
2609 20-03-2020 02:50:17 7.1 C 41 %
2610 20-03-2020 03:00:17 7.1 C 42 %
2611 20-03-2020 03:10:17 7.1 C 42 %
2612 20-03-2020 03:20:17 7.1 C 42 %
2613 20-03-2020 03:30:18 7.2 C 42 %
2614 20-03-2020 03:40:18 7.3 C 42 %
2615 20-03-2020 03:50:17 7.5 C 42 %
2616 20-03-2020 04:00:18 7.5 C 42 %
2617 20-03-2020 04:10:18 7.7 C 42 %
2618 20-03-2020 04:20:18 7.6 C 41 %
2619 20-03-2020 04:30:18 7.4 C 42 %
2620 20-03-2020 04:40:18 7.2 C 42 %
2621 20-03-2020 04:50:17 7 C 42 %
2622 20-03-2020 05:00:18 6.9 C 43 %
2623 20-03-2020 05:10:18 6.8 C 43 %
2624 20-03-2020 05:20:17 6.5 C 43 %
2625 20-03-2020 05:30:17 6.2 C 43 %
Sensor: Nr:Datum:Temp:Feuchte:
Aussen-T/F 2626 20-03-2020 05:40:17 5.9 C 44 %
2627 20-03-2020 05:50:17 5.6 C 44 %
2628 20-03-2020 06:00:17 5.4 C 45 %
2629 20-03-2020 06:10:17 5.2 C 45 %
2630 20-03-2020 06:20:17 5 C 45 %
2631 20-03-2020 06:30:17 5.1 C 46 %
2632 20-03-2020 06:40:17 5 C 46 %
2633 20-03-2020 06:50:17 5 C 46 %
2634 20-03-2020 07:00:17 5.1 C 46 %
2635 20-03-2020 07:10:17 5.3 C 46 %
2636 20-03-2020 07:20:17 5.5 C 46 %
2637 20-03-2020 07:30:17 5.6 C 46 %
2638 20-03-2020 07:40:17 5.7 C 46 %
2639 20-03-2020 07:50:18 5.8 C 46 %
2640 20-03-2020 08:00:17 6.3 C 46 %
2641 20-03-2020 08:10:17 6.9 C 45 %
2642 20-03-2020 08:20:17 7.2 C 43 %
2643 20-03-2020 08:30:17 7.1 C 43 %
2644 20-03-2020 08:40:17 7.1 C 43 %
2645 20-03-2020 08:50:17 7.3 C 43 %
2646 20-03-2020 09:00:17 8 C 43 %
2647 20-03-2020 09:10:17 8.2 C 42 %
2648 20-03-2020 09:20:17 9.6 C 42 %
2649 20-03-2020 09:30:17 10 C 40 %
2650 20-03-2020 09:40:17 10.2 C 40 %
Sensor: Nr:Datum:Temp:Feuchte:
Aussen-T/F 2651 20-03-2020 09:50:17 10.5 C 39 %
2652 20-03-2020 10:00:18 10.8 C 39 %
2653 20-03-2020 10:10:18 11.2 C 38 %
2654 20-03-2020 10:20:18 11.1 C 37 %
2655 20-03-2020 10:30:18 11 C 37 %
2656 20-03-2020 10:40:18 11.5 C 37 %
2657 20-03-2020 10:50:18 12.6 C 36 %
2658 20-03-2020 11:00:17 13.1 C 35 %
2659 20-03-2020 11:10:18 13.1 C 35 %
2660 20-03-2020 11:20:18 14.2 C 33 %
2661 20-03-2020 11:30:18 14.5 C 32 %
2662 20-03-2020 11:40:18 15.3 C 31 %
2663 20-03-2020 11:50:18 14.6 C 32 %
2664 20-03-2020 12:00:17 15.6 C 31 %
2665 20-03-2020 12:10:17 15.4 C 30 %
2666 20-03-2020 12:20:17 15.6 C 30 %
2667 20-03-2020 12:30:18 14.4 C 31 %
2668 20-03-2020 12:40:18 14.9 C 31 %
2669 20-03-2020 12:50:18 14.9 C 31 %
2670 20-03-2020 13:00:18 14.9 C 31 %
2671 20-03-2020 13:10:18 14.9 C 31 %
2672 20-03-2020 13:20:18 14.9 C 31 %
2673 20-03-2020 13:30:18 14.9 C 31 %
2674 20-03-2020 13:40:18 14.9 C 31 %
2675 20-03-2020 13:50:17 16.4 C 26 %
Sensor: Nr:Datum:Temp:Feuchte:
Aussen-T/F 2676 20-03-2020 14:00:17 16.2 C 27 %
2677 20-03-2020 14:10:17 16.6 C 26 %
2678 20-03-2020 14:20:17 16.2 C 27 %
2679 20-03-2020 14:30:18 17.4 C 26 %
2680 20-03-2020 14:40:18 17.3 C 26 %
2681 20-03-2020 14:50:18 17.9 C 25 %
2682 20-03-2020 15:00:17 17.9 C 25 %
2683 20-03-2020 15:10:17 18.1 C 25 %
2684 20-03-2020 15:20:17 17 C 25 %
2685 20-03-2020 15:30:18 17.9 C 25 %
2686 20-03-2020 15:40:18 18.5 C 25 %
2687 20-03-2020 15:50:18 17 C 25 %
2688 20-03-2020 16:00:17 16.2 C 26 %
2689 20-03-2020 16:10:17 16.1 C 26 %
2690 20-03-2020 16:20:17 15.5 C 26 %
2691 20-03-2020 16:30:18 15.8 C 26 %
2692 20-03-2020 16:40:18 15.3 C 26 %
2693 20-03-2020 16:50:18 17 C 25 %
2694 20-03-2020 17:00:18 16.1 C 26 %
2695 20-03-2020 17:10:18 15.2 C 27 %
2696 20-03-2020 17:20:18 14.3 C 28 %
2697 20-03-2020 17:30:18 13.9 C 30 %
2698 20-03-2020 17:40:18 12.8 C 31 %
2699 20-03-2020 17:50:17 12.5 C 31 %
2700 20-03-2020 18:00:17 12.4 C 32 %
Sensor: Nr:Datum:Temp:Feuchte:
Aussen-T/F 2701 20-03-2020 18:10:17 11.9 C 33 %
2702 20-03-2020 18:20:17 11.8 C 34 %
2703 20-03-2020 18:30:17 11.6 C 34 %
2704 20-03-2020 18:40:17 11.6 C 34 %
2705 20-03-2020 18:50:18 11.5 C 34 %
2706 20-03-2020 19:00:17 11.5 C 34 %
2707 20-03-2020 19:10:17 11.3 C 34 %
2708 20-03-2020 19:20:17 11.1 C 34 %
2709 20-03-2020 19:30:17 11 C 35 %
2710 20-03-2020 19:40:17 10.7 C 35 %
2711 20-03-2020 19:50:17 10.6 C 35 %
2712 20-03-2020 20:00:17 10.4 C 35 %
2713 20-03-2020 20:10:17 10.2 C 35 %
2714 20-03-2020 20:20:17 10.3 C 35 %
2715 20-03-2020 20:30:17 10.3 C 35 %
2716 20-03-2020 20:40:17 10.2 C 35 %
2717 20-03-2020 20:50:18 10.3 C 35 %
2718 20-03-2020 21:00:18 10.1 C 35 %
2719 20-03-2020 21:10:18 9.9 C 35 %
2720 20-03-2020 21:20:17 9.5 C 35 %
2721 20-03-2020 21:30:17 9.2 C 35 %
2722 20-03-2020 21:40:17 9.1 C 35 %
2723 20-03-2020 21:50:17 8.7 C 36 %
2724 20-03-2020 22:00:17 8.5 C 36 %
2725 20-03-2020 22:10:17 8.4 C 36 %
Sensor: Nr:Datum:Temp:Feuchte:
Aussen-T/F 2726 20-03-2020 22:20:18 8.3 C 36 %
2727 20-03-2020 22:30:17 8.2 C 36 %
2728 20-03-2020 22:40:18 8.1 C 36 %
2729 20-03-2020 22:50:17 8.1 C 36 %
2730 20-03-2020 23:00:18 8 C 35 %
2731 20-03-2020 23:10:18 7.9 C 36 %
2732 20-03-2020 23:20:17 7.9 C 36 %
2733 20-03-2020 23:30:18 7.9 C 35 %
2734 20-03-2020 23:40:18 7.8 C 35 %
2735 20-03-2020 23:50:18 7.7 C 35 %
2736 21-03-2020 00:00:17 7.6 C 34 %
2737 21-03-2020 00:10:17 7.6 C 34 %
2738 21-03-2020 00:20:17 7.4 C 34 %
2739 21-03-2020 00:30:17 7.3 C 34 %
2740 21-03-2020 00:40:17 7.3 C 34 %
2741 21-03-2020 00:50:17 7.3 C 34 %
2742 21-03-2020 01:00:17 7.2 C 33 %
2743 21-03-2020 01:10:17 7.1 C 33 %
2744 21-03-2020 01:20:17 6.8 C 35 %
2745 21-03-2020 01:30:18 6.5 C 35 %
2746 21-03-2020 01:40:18 6.2 C 36 %
2747 21-03-2020 01:50:17 5.9 C 38 %
2748 21-03-2020 02:00:18 5.6 C 39 %
2749 21-03-2020 02:10:18 5.3 C 40 %
2750 21-03-2020 02:20:17 5.1 C 41 %
Sensor: Nr:Datum:Temp:Feuchte:
Aussen-T/F 2751 21-03-2020 02:30:18 4.9 C 43 %
2752 21-03-2020 02:40:18 4.9 C 43 %
2753 21-03-2020 02:50:18 4.6 C 43 %
2754 21-03-2020 03:00:17 4.5 C 43 %
2755 21-03-2020 03:10:17 4.4 C 44 %
2756 21-03-2020 03:20:17 4.5 C 45 %
2757 21-03-2020 03:30:18 4.5 C 45 %
2758 21-03-2020 03:40:18 4.4 C 45 %
2759 21-03-2020 03:50:17 4.4 C 45 %
2760 21-03-2020 04:00:18 4.3 C 45 %
2761 21-03-2020 04:10:18 4.2 C 45 %
2762 21-03-2020 04:20:17 4.1 C 45 %
2763 21-03-2020 04:30:18 4.1 C 45 %
2764 21-03-2020 04:40:18 4 C 45 %
2765 21-03-2020 04:50:18 3.9 C 46 %
2766 21-03-2020 05:00:18 3.9 C 46 %
2767 21-03-2020 05:10:18 4 C 46 %
2768 21-03-2020 05:20:18 3.9 C 47 %
2769 21-03-2020 05:30:18 3.9 C 47 %
2770 21-03-2020 05:40:18 3.9 C 47 %
2771 21-03-2020 05:50:17 4 C 46 %
2772 21-03-2020 06:00:18 4 C 47 %
2773 21-03-2020 06:10:18 3.9 C 47 %
2774 21-03-2020 06:20:17 4 C 47 %
2775 21-03-2020 06:30:18 4 C 47 %
Sensor: Nr:Datum:Temp:Feuchte:
Aussen-T/F 2776 21-03-2020 06:40:18 4 C 47 %
2777 21-03-2020 06:50:17 4 C 47 %
2778 21-03-2020 07:00:17 4.1 C 47 %
2779 21-03-2020 07:10:18 4.1 C 47 %
2780 21-03-2020 07:20:18 4.1 C 47 %
2781 21-03-2020 07:30:18 4.2 C 47 %
2782 21-03-2020 07:40:18 4.3 C 47 %
2783 21-03-2020 07:50:17 4.3 C 47 %
2784 21-03-2020 08:00:18 4.4 C 47 %
2785 21-03-2020 08:10:18 4.5 C 47 %
2786 21-03-2020 08:20:17 4.5 C 46 %
2787 21-03-2020 08:30:17 4.6 C 46 %
2788 21-03-2020 08:40:17 4.7 C 46 %
2789 21-03-2020 08:50:18 4.8 C 46 %
2790 21-03-2020 09:00:18 4.7 C 46 %
2791 21-03-2020 09:10:18 4.6 C 45 %
2792 21-03-2020 09:20:18 5.2 C 43 %
2793 21-03-2020 09:30:18 5.6 C 42 %
2794 21-03-2020 09:40:18 5.8 C 41 %
2795 21-03-2020 09:50:17 6 C 41 %
2796 21-03-2020 10:00:17 6.2 C 41 %
2797 21-03-2020 10:10:18 6.4 C 39 %
2798 21-03-2020 10:20:18 6.5 C 40 %
2799 21-03-2020 10:30:18 6.7 C 39 %
2800 21-03-2020 10:40:18 6.7 C 38 %
Sensor: Nr:Datum:Temp:Feuchte:
Aussen-T/F 2801 21-03-2020 10:50:17 6.4 C 39 %
2802 21-03-2020 11:00:17 6.5 C 37 %
2803 21-03-2020 11:10:18 7.1 C 36 %
2804 21-03-2020 11:20:18 7.3 C 36 %
2805 21-03-2020 11:30:18 8.1 C 34 %
2806 21-03-2020 11:40:18 8 C 34 %
2807 21-03-2020 11:50:18 8.3 C 32 %
2808 21-03-2020 12:00:18 7.8 C 32 %
2809 21-03-2020 12:10:18 7.6 C 33 %
2810 21-03-2020 12:20:17 7.9 C 31 %
2811 21-03-2020 12:30:17 8.7 C 32 %
2812 21-03-2020 12:40:17 8.2 C 30 %
2813 21-03-2020 12:50:17 7.8 C 31 %
2814 21-03-2020 13:00:17 7.9 C 30 %
2815 21-03-2020 13:10:17 8.7 C 30 %
2816 21-03-2020 13:20:18 8.9 C 28 %
2817 21-03-2020 13:30:18 8.5 C 28 %
2818 21-03-2020 13:40:18 8.2 C 27 %
2819 21-03-2020 13:50:17 8.4 C 27 %
2820 21-03-2020 14:00:18 8.6 C 27 %
2821 21-03-2020 14:10:18 9.1 C 26 %
2822 21-03-2020 14:20:18 8.7 C 27 %
2823 21-03-2020 14:30:18 9.1 C 25 %
2824 21-03-2020 14:40:18 11.1 C 24 %
2825 21-03-2020 14:50:17 9.8 C 23 %
Sensor: Nr:Datum:Temp:Feuchte:
Aussen-T/F 2826 21-03-2020 15:00:18 11 C 20 %
2827 21-03-2020 15:10:18 10.1 C 20 %
2828 21-03-2020 15:20:17 11.2 C 20 %
2829 21-03-2020 15:30:17 11.7 C 20 %
2830 21-03-2020 15:40:17 9.4 C 20 %
2831 21-03-2020 15:50:17 8.6 C 20 %
2832 21-03-2020 16:00:18 9.4 C 20 %
2833 21-03-2020 16:10:18 9.5 C 20 %
2834 21-03-2020 16:20:17 12.1 C 20 %
2835 21-03-2020 16:30:17 12 C 20 %
2836 21-03-2020 16:40:17 13.3 C 20 %
2837 21-03-2020 16:50:17 10.9 C 20 %
2838 21-03-2020 17:00:17 9.2 C 20 %
2839 21-03-2020 17:10:17 8.9 C 20 %
2840 21-03-2020 17:20:17 8.3 C 20 %
2841 21-03-2020 17:30:18 7.8 C 20 %
2842 21-03-2020 17:40:18 7.8 C 20 %
2843 21-03-2020 17:50:17 7.5 C 20 %
2844 21-03-2020 18:00:17 7 C 20 %
2845 21-03-2020 18:10:17 6.9 C 20 %
2846 21-03-2020 18:20:17 6.6 C 21 %
2847 21-03-2020 18:30:17 6.4 C 23 %
2848 21-03-2020 18:40:17 5.9 C 25 %
2849 21-03-2020 18:50:17 5.5 C 27 %
2850 21-03-2020 19:00:17 5.5 C 26 %
Sensor: Nr:Datum:Temp:Feuchte:
Aussen-T/F 2851 21-03-2020 19:10:17 5.1 C 28 %
2852 21-03-2020 19:20:17 4.7 C 30 %
2853 21-03-2020 19:30:18 4.4 C 31 %
2854 21-03-2020 19:40:18 4.5 C 30 %
2855 21-03-2020 19:50:17 4.4 C 29 %
2856 21-03-2020 20:00:18 4.1 C 30 %
2857 21-03-2020 20:10:18 3.7 C 31 %
2858 21-03-2020 20:20:18 3.2 C 33 %
2859 21-03-2020 20:30:18 3.7 C 32 %
2860 21-03-2020 20:40:18 3.9 C 30 %
2861 21-03-2020 20:50:17 3.6 C 31 %
2862 21-03-2020 21:00:18 3.3 C 32 %
2863 21-03-2020 21:10:18 3 C 32 %
2864 21-03-2020 21:20:18 3.4 C 32 %
2865 21-03-2020 21:30:18 3.1 C 31 %
2866 21-03-2020 21:40:18 2.9 C 32 %
2867 21-03-2020 21:50:17 2.6 C 33 %
2868 21-03-2020 22:00:17 1.9 C 36 %
2869 21-03-2020 22:10:17 2.3 C 34 %
2870 21-03-2020 22:20:17 3 C 32 %
2871 21-03-2020 22:30:18 2.7 C 32 %
2872 21-03-2020 22:40:18 2.3 C 33 %
2873 21-03-2020 22:50:18 2.7 C 32 %
2874 21-03-2020 23:00:18 2 C 34 %
2875 21-03-2020 23:10:18 2.2 C 33 %
Sensor: Nr:Datum:Temp:Feuchte:
Aussen-T/F 2876 21-03-2020 23:20:18 1.6 C 35 %
2877 21-03-2020 23:30:18 1.7 C 35 %
2878 21-03-2020 23:40:18 1.8 C 35 %
2879 21-03-2020 23:50:17 1.7 C 35 %
2880 22-03-2020 00:00:18 1.4 C 35 %
2881 22-03-2020 00:10:18 1.5 C 35 %
2882 22-03-2020 00:20:17 0.9 C 37 %
2883 22-03-2020 00:30:17 0.7 C 38 %
2884 22-03-2020 00:40:17 1.2 C 36 %
2885 22-03-2020 00:50:17 0.9 C 37 %
2886 22-03-2020 01:00:18 1.5 C 35 %
2887 22-03-2020 01:10:18 1.5 C 35 %
2888 22-03-2020 01:20:18 1.1 C 35 %
2889 22-03-2020 01:30:18 1.1 C 35 %
2890 22-03-2020 01:40:18 0.9 C 36 %
2891 22-03-2020 01:50:18 1 C 35 %
2892 22-03-2020 02:00:18 1 C 35 %
2893 22-03-2020 02:10:18 0.1 C 38 %
2894 22-03-2020 02:20:17 0.3 C 38 %
2895 22-03-2020 02:30:18 0.5 C 37 %
2896 22-03-2020 02:40:18 0.5 C 37 %
2897 22-03-2020 02:50:18 0.4 C 37 %
2898 22-03-2020 03:00:18 0.2 C 37 %
2899 22-03-2020 03:10:18 0.7 C 37 %
2900 22-03-2020 03:20:18 -0.4 C 38 %
Sensor: Nr:Datum:Temp:Feuchte:
Aussen-T/F 2901 22-03-2020 03:30:18 -0.1 C 38 %
2902 22-03-2020 03:40:18 -0.4 C 39 %
2903 22-03-2020 03:50:17 -0.3 C 39 %
2904 22-03-2020 04:00:17 -0.2 C 38 %
2905 22-03-2020 04:10:17 0 C 37 %
2906 22-03-2020 04:20:17 -0.4 C 38 %
2907 22-03-2020 04:30:17 0.3 C 37 %
2908 22-03-2020 04:40:17 0.1 C 37 %
2909 22-03-2020 04:50:17 -0.2 C 38 %
2910 22-03-2020 05:00:18 0.1 C 37 %
2911 22-03-2020 05:10:18 -0.3 C 37 %
2912 22-03-2020 05:20:17 -0.4 C 37 %
2913 22-03-2020 05:30:18 -0.5 C 38 %
2914 22-03-2020 05:40:18 -0.7 C 38 %
2915 22-03-2020 05:50:17 -1 C 39 %
2916 22-03-2020 06:00:17 -1.1 C 39 %
2917 22-03-2020 06:10:17 -0.8 C 39 %
2918 22-03-2020 06:20:17 0.1 C 37 %
2919 22-03-2020 06:30:17 -0.3 C 37 %
2920 22-03-2020 06:40:17 -0.4 C 37 %
2921 22-03-2020 06:50:18 0 C 36 %
2922 22-03-2020 07:00:18 -0.3 C 37 %
2923 22-03-2020 07:10:18 -0.2 C 37 %
2924 22-03-2020 07:20:18 -0.4 C 37 %
2925 22-03-2020 07:30:18 -0.1 C 36 %
Sensor: Nr:Datum:Temp:Feuchte:
Aussen-T/F 2926 22-03-2020 07:40:18 -0.2 C 37 %
2927 22-03-2020 07:50:17 -0.1 C 36 %
2928 22-03-2020 08:00:18 -0.1 C 36 %
2929 22-03-2020 08:10:18 0.3 C 36 %
2930 22-03-2020 08:20:18 0.3 C 35 %
2931 22-03-2020 08:30:18 0.5 C 35 %
2932 22-03-2020 08:40:18 0.8 C 35 %
2933 22-03-2020 08:50:18 0.4 C 35 %
2934 22-03-2020 09:00:18 0.8 C 35 %
2935 22-03-2020 09:10:18 1.2 C 32 %
2936 22-03-2020 09:20:18 1.6 C 32 %
2937 22-03-2020 09:30:18 2.2 C 30 %
2938 22-03-2020 09:40:18 2.5 C 27 %
2939 22-03-2020 09:50:17 2.8 C 26 %
2940 22-03-2020 10:00:18 3.3 C 25 %
2941 22-03-2020 10:10:18 3.6 C 25 %
2942 22-03-2020 10:20:18 3.9 C 20 %
2943 22-03-2020 10:30:18 4.4 C 20 %
2944 22-03-2020 10:40:18 4.6 C 20 %
2945 22-03-2020 10:50:17 5.2 C 20 %
2946 22-03-2020 11:00:18 5.5 C 20 %
2947 22-03-2020 11:10:18 6.3 C 20 %
2948 22-03-2020 11:20:17 6.5 C 20 %
2949 22-03-2020 11:30:18 6.7 C 20 %
2950 22-03-2020 11:40:18 6.7 C 20 %
Sensor: Nr:Datum:Temp:Feuchte:
Aussen-T/F 2951 22-03-2020 11:50:17 6.5 C 20 %
2952 22-03-2020 12:00:18 7 C 20 %
2953 22-03-2020 12:10:18 7.4 C 20 %
2954 22-03-2020 12:20:18 7.3 C 20 %
2955 22-03-2020 12:30:17 6.9 C 20 %
2956 22-03-2020 12:40:17 8 C 20 %
2957 22-03-2020 12:50:18 8.5 C 20 %
2958 22-03-2020 13:00:18 10.1 C 20 %
2959 22-03-2020 13:10:18 11.1 C 20 %
2960 22-03-2020 13:20:17 11.9 C 20 %
2961 22-03-2020 13:30:18 11.6 C 20 %
2962 22-03-2020 13:40:18 10.9 C 20 %
2963 22-03-2020 13:50:18 10.3 C 20 %
2964 22-03-2020 14:00:17 9.6 C 20 %
2965 22-03-2020 14:10:17 10.2 C 20 %
2966 22-03-2020 14:20:17 12.2 C 20 %
2967 22-03-2020 14:30:17 12.6 C 20 %
2968 22-03-2020 14:40:17 14.4 C 20 %
2969 22-03-2020 14:50:17 14.4 C 20 %
2970 22-03-2020 15:00:18 15 C 20 %
2971 22-03-2020 15:10:18 14.4 C 20 %
2972 22-03-2020 15:20:17 14.7 C 20 %
2973 22-03-2020 15:30:17 13.6 C 20 %
2974 22-03-2020 15:40:17 13.7 C 20 %
2975 22-03-2020 15:50:18 15.4 C 20 %
Sensor: Nr:Datum:Temp:Feuchte:
Aussen-T/F 2976 22-03-2020 16:00:18 16.2 C 20 %
2977 22-03-2020 16:10:18 14.9 C 20 %
2978 22-03-2020 16:20:18 14.1 C 20 %
2979 22-03-2020 16:30:18 13.3 C 20 %
2980 22-03-2020 16:40:18 13.2 C 20 %
2981 22-03-2020 16:50:17 11.7 C 20 %
2982 22-03-2020 17:00:17 10.7 C 20 %
2983 22-03-2020 17:10:17 9.9 C 20 %
2984 22-03-2020 17:20:17 9.7 C 20 %
2985 22-03-2020 17:30:17 9.8 C 20 %
2986 22-03-2020 17:40:17 9.5 C 20 %
2987 22-03-2020 17:50:17 8.9 C 20 %
2988 22-03-2020 18:00:18 8.6 C 20 %
2989 22-03-2020 18:10:18 8.4 C 20 %
2990 22-03-2020 18:20:17 7.9 C 20 %
2991 22-03-2020 18:30:17 7.5 C 20 %
2992 22-03-2020 18:40:17 7 C 20 %
2993 22-03-2020 18:50:17 6.5 C 20 %
2994 22-03-2020 19:00:17 5.6 C 20 %
2995 22-03-2020 19:10:17 4.9 C 21 %
2996 22-03-2020 19:20:17 5.2 C 20 %
2997 22-03-2020 19:30:17 4.3 C 26 %
2998 22-03-2020 19:40:17 3.8 C 27 %
2999 22-03-2020 19:50:18 3.7 C 28 %
3000 22-03-2020 20:00:18 3.6 C 28 %
Sensor: Nr:Datum:Temp:Feuchte:
Aussen-T/F 3001 22-03-2020 20:10:18 3.6 C 27 %
3002 22-03-2020 20:20:17 3.6 C 26 %
3003 22-03-2020 20:30:17 3.2 C 26 %
3004 22-03-2020 20:40:17 3 C 26 %
3005 22-03-2020 20:50:17 2.5 C 30 %
3006 22-03-2020 21:00:17 2.9 C 26 %
3007 22-03-2020 21:10:17 2.7 C 27 %
3008 22-03-2020 21:20:17 2.3 C 30 %
3009 22-03-2020 21:30:17 2.2 C 29 %
3010 22-03-2020 21:40:17 1.8 C 30 %
3011 22-03-2020 21:50:18 1.5 C 31 %
3012 22-03-2020 22:00:18 2 C 30 %
3013 22-03-2020 22:10:18 2.5 C 26 %
3014 22-03-2020 22:20:17 1.8 C 30 %
3015 22-03-2020 22:30:17 1.5 C 29 %
3016 22-03-2020 22:40:17 1.3 C 31 %
3017 22-03-2020 22:50:17 1.4 C 30 %
3018 22-03-2020 23:00:17 0.7 C 33 %
3019 22-03-2020 23:10:17 1.1 C 30 %
3020 22-03-2020 23:20:17 0.8 C 32 %
3021 22-03-2020 23:30:18 0.3 C 33 %
3022 22-03-2020 23:40:18 0.3 C 34 %
3023 22-03-2020 23:50:18 0.6 C 33 %
3024 23-03-2020 00:00:18 0.4 C 34 %
3025 23-03-2020 00:10:18 0 C 33 %
Sensor: Nr:Datum:Temp:Feuchte:
Aussen-T/F 3026 23-03-2020 00:20:17 -0.2 C 33 %
3027 23-03-2020 00:30:17 -0.5 C 35 %
3028 23-03-2020 00:40:17 -0.7 C 36 %
3029 23-03-2020 00:50:18 -1.1 C 36 %
3030 23-03-2020 01:00:17 -0.6 C 35 %
3031 23-03-2020 01:10:17 -0.7 C 36 %
3032 23-03-2020 01:20:17 -0.9 C 35 %
3033 23-03-2020 01:30:18 -0.8 C 35 %
3034 23-03-2020 01:40:18 -1.1 C 35 %
3035 23-03-2020 01:50:18 -0.8 C 35 %
3036 23-03-2020 02:00:18 -1.1 C 35 %
3037 23-03-2020 02:10:18 -1.4 C 35 %
3038 23-03-2020 02:20:17 -1.2 C 35 %
3039 23-03-2020 02:30:17 -1.2 C 35 %
3040 23-03-2020 02:40:17 -1.2 C 35 %
3041 23-03-2020 02:50:17 -1.3 C 35 %
3042 23-03-2020 03:00:17 -1.6 C 35 %
3043 23-03-2020 03:10:18 -1.9 C 35 %
3044 23-03-2020 03:20:18 -1.6 C 35 %
3045 23-03-2020 03:30:18 -1.7 C 35 %
3046 23-03-2020 03:40:18 -1.9 C 35 %
3047 23-03-2020 03:50:18 -1.8 C 35 %
3048 23-03-2020 04:00:18 -1.8 C 35 %
3049 23-03-2020 04:10:18 -2.1 C 35 %
3050 23-03-2020 04:20:17 -1.9 C 35 %
Sensor: Nr:Datum:Temp:Feuchte:
Aussen-T/F 3051 23-03-2020 04:30:17 -2 C 35 %
3052 23-03-2020 04:40:17 -2.1 C 35 %
3053 23-03-2020 04:50:17 -2.7 C 36 %
3054 23-03-2020 05:00:18 -2.5 C 36 %
3055 23-03-2020 05:10:18 -2.4 C 36 %
3056 23-03-2020 05:20:17 -2.3 C 36 %
3057 23-03-2020 05:30:18 -2.4 C 35 %
3058 23-03-2020 05:40:18 -2.7 C 36 %
3059 23-03-2020 05:50:17 -2.7 C 36 %
3060 23-03-2020 06:00:18 -2.6 C 36 %
3061 23-03-2020 06:10:18 -2.9 C 36 %
3062 23-03-2020 06:20:17 -2.6 C 36 %
3063 23-03-2020 06:30:18 -2.8 C 36 %
3064 23-03-2020 06:40:18 -3.2 C 36 %
3065 23-03-2020 06:50:18 -3 C 36 %
3066 23-03-2020 07:00:18 -3 C 36 %
3067 23-03-2020 07:10:18 -3.1 C 36 %
3068 23-03-2020 07:20:18 -2.5 C 35 %
3069 23-03-2020 07:30:18 -2.7 C 36 %
3070 23-03-2020 07:40:18 -2.6 C 36 %
3071 23-03-2020 07:50:18 -1.9 C 34 %
3072 23-03-2020 08:00:18 -2 C 35 %
3073 23-03-2020 08:10:18 -1.4 C 32 %
3074 23-03-2020 08:20:17 -1.1 C 31 %
3075 23-03-2020 08:30:18 -0.2 C 27 %
Sensor: Nr:Datum:Temp:Feuchte:
Aussen-T/F 3076 23-03-2020 08:40:18 -0.2 C 26 %
3077 23-03-2020 08:50:18 -0.3 C 25 %
3078 23-03-2020 09:00:18 0 C 23 %
3079 23-03-2020 09:10:18 0.2 C 23 %
3080 23-03-2020 09:20:18 0.5 C 20 %
3081 23-03-2020 09:30:17 0.7 C 20 %
3082 23-03-2020 09:40:17 1.5 C 20 %
3083 23-03-2020 09:50:18 1.8 C 20 %
3084 23-03-2020 10:00:18 2.4 C 20 %
3085 23-03-2020 10:10:18 2.7 C 20 %
3086 23-03-2020 10:20:18 3 C 20 %
3087 23-03-2020 10:30:17 3.8 C 20 %
3088 23-03-2020 10:40:17 4.1 C 20 %
3089 23-03-2020 10:50:17 4.7 C 20 %
3090 23-03-2020 11:00:17 5.5 C 20 %
3091 23-03-2020 11:10:17 5.5 C 20 %
3092 23-03-2020 11:20:17 6 C 20 %
3093 23-03-2020 11:30:18 6.7 C 20 %
3094 23-03-2020 11:40:18 6.2 C 20 %
3095 23-03-2020 11:50:17 6.3 C 20 %
3096 23-03-2020 12:00:18 7 C 20 %
3097 23-03-2020 12:10:18 7.4 C 20 %
3098 23-03-2020 12:20:18 7.8 C 20 %
3099 23-03-2020 12:30:18 7.5 C 20 %
3100 23-03-2020 12:40:18 8.1 C 20 %
Sensor: Nr:Datum:Temp:Feuchte:
Aussen-T/F 3101 23-03-2020 12:50:18 8.7 C 20 %
3102 23-03-2020 13:00:17 10.4 C 20 %
3103 23-03-2020 13:10:17 10.7 C 20 %
3104 23-03-2020 13:20:17 11.9 C 20 %
3105 23-03-2020 13:30:17 11.4 C 20 %
3106 23-03-2020 13:40:17 10 C 20 %
3107 23-03-2020 13:50:17 9.8 C 20 %
3108 23-03-2020 14:00:18 9.2 C 20 %
3109 23-03-2020 14:10:18 10.5 C 20 %
3110 23-03-2020 14:20:18 12.9 C 20 %
3111 23-03-2020 14:30:18 13 C 20 %
3112 23-03-2020 14:40:18 14.2 C 20 %
3113 23-03-2020 14:50:18 14.3 C 20 %
3114 23-03-2020 15:00:18 14.3 C 20 %
3115 23-03-2020 15:10:18 14.4 C 20 %
3116 23-03-2020 15:20:17 14.7 C 20 %
3117 23-03-2020 15:30:17 13.5 C 20 %
3118 23-03-2020 15:40:17 14.4 C 20 %
3119 23-03-2020 15:50:17 14.1 C 20 %
3120 23-03-2020 16:00:17 13.8 C 20 %
3121 23-03-2020 16:10:17 14.7 C 20 %
3122 23-03-2020 16:20:17 15.3 C 20 %
3123 23-03-2020 16:30:18 14.7 C 20 %
3124 23-03-2020 16:40:18 14.8 C 20 %
3125 23-03-2020 16:50:17 11.4 C 20 %
Sensor: Nr:Datum:Temp:Feuchte:
Aussen-T/F 3126 23-03-2020 17:00:18 10.1 C 20 %
3127 23-03-2020 17:10:18 9.7 C 20 %
3128 23-03-2020 17:20:18 9.4 C 20 %
3129 23-03-2020 17:30:18 9 C 20 %
3130 23-03-2020 17:40:18 9 C 20 %
3131 23-03-2020 17:50:17 8.6 C 20 %
3132 23-03-2020 18:00:18 8.3 C 20 %
3133 23-03-2020 18:10:18 7.6 C 20 %
3134 23-03-2020 18:20:17 7.4 C 20 %
3135 23-03-2020 18:30:18 7 C 20 %
3136 23-03-2020 18:40:18 5.3 C 20 %
3137 23-03-2020 18:50:18 4.4 C 20 %
3138 23-03-2020 19:00:18 4.2 C 20 %
3139 23-03-2020 19:10:18 4.1 C 20 %
3140 23-03-2020 19:20:17 3.7 C 20 %
3141 23-03-2020 19:30:18 3.6 C 20 %
3142 23-03-2020 19:40:18 3.4 C 20 %
3143 23-03-2020 19:50:18 2.7 C 20 %
3144 23-03-2020 20:00:17 2.9 C 20 %
3145 23-03-2020 20:10:17 2.6 C 20 %
3146 23-03-2020 20:20:17 2.5 C 20 %
3147 23-03-2020 20:30:18 2.3 C 20 %
3148 23-03-2020 20:40:18 2.4 C 20 %
3149 23-03-2020 20:50:18 2.3 C 20 %
3150 23-03-2020 21:00:18 2.1 C 20 %
Sensor: Nr:Datum:Temp:Feuchte:
Aussen-T/F 3151 23-03-2020 21:10:18 0.9 C 27 %
3152 23-03-2020 21:20:17 1 C 26 %
3153 23-03-2020 21:30:18 1.1 C 28 %
3154 23-03-2020 21:40:18 0.7 C 29 %
3155 23-03-2020 21:50:18 0.2 C 30 %
3156 23-03-2020 22:00:17 -0.4 C 31 %
3157 23-03-2020 22:10:18 -0.9 C 35 %
3158 23-03-2020 22:20:18 -0.2 C 34 %
3159 23-03-2020 22:30:18 -0.9 C 35 %
3160 23-03-2020 22:40:18 -0.9 C 35 %
3161 23-03-2020 22:50:18 -1.3 C 35 %
3162 23-03-2020 23:00:18 -1.4 C 36 %
3163 23-03-2020 23:10:18 -1.6 C 36 %
3164 23-03-2020 23:20:17 -1.7 C 36 %
3165 23-03-2020 23:30:17 -1.7 C 37 %
3166 23-03-2020 23:40:17 -1.9 C 37 %
3167 23-03-2020 23:50:18 -1.8 C 37 %
3168 24-03-2020 00:00:18 -1.9 C 36 %
3169 24-03-2020 00:10:18 -2 C 36 %
3170 24-03-2020 00:20:17 -2.2 C 36 %
3171 24-03-2020 00:30:18 -2.4 C 37 %
3172 24-03-2020 00:40:18 -2.4 C 38 %
3173 24-03-2020 00:50:18 -2.5 C 38 %
3174 24-03-2020 01:00:18 -2.3 C 37 %
3175 24-03-2020 01:10:18 -2.6 C 37 %
Sensor: Nr:Datum:Temp:Feuchte:
Aussen-T/F 3176 24-03-2020 01:20:18 -2.7 C 38 %
3177 24-03-2020 01:30:18 -2.7 C 38 %
3178 24-03-2020 01:40:18 -3 C 38 %
3179 24-03-2020 01:50:18 -2.5 C 37 %
3180 24-03-2020 02:00:18 -2.6 C 38 %
3181 24-03-2020 02:10:18 -2.8 C 38 %
3182 24-03-2020 02:20:17 -3.1 C 38 %
3183 24-03-2020 02:30:17 -3.2 C 38 %
3184 24-03-2020 02:40:17 -3.3 C 38 %
3185 24-03-2020 02:50:17 -3.2 C 38 %
3186 24-03-2020 03:00:17 -3.4 C 38 %
3187 24-03-2020 03:10:17 -3.5 C 38 %
3188 24-03-2020 03:20:17 -3.6 C 39 %
3189 24-03-2020 03:30:17 -3.6 C 38 %
3190 24-03-2020 03:40:17 -3.7 C 38 %
3191 24-03-2020 03:50:17 -3.9 C 39 %
3192 24-03-2020 04:00:18 -3.7 C 39 %
3193 24-03-2020 04:10:18 -3.9 C 38 %
3194 24-03-2020 04:20:18 -4 C 38 %
3195 24-03-2020 04:30:18 -4 C 38 %
3196 24-03-2020 04:40:18 -4 C 38 %
3197 24-03-2020 04:50:17 -3.9 C 38 %
3198 24-03-2020 05:00:17 -4.2 C 38 %
3199 24-03-2020 05:10:17 -4.3 C 39 %
3200 24-03-2020 05:20:17 -4.2 C 38 %
Sensor: Nr:Datum:Temp:Feuchte:
Aussen-T/F 3201 24-03-2020 05:30:18 -4.3 C 38 %
3202 24-03-2020 05:40:18 -4.4 C 38 %
3203 24-03-2020 05:50:18 -4.6 C 39 %
3204 24-03-2020 06:00:17 -4.7 C 39 %
3205 24-03-2020 06:10:18 -4.7 C 38 %
3206 24-03-2020 06:20:17 -4.7 C 39 %
3207 24-03-2020 06:30:18 -4.7 C 38 %
3208 24-03-2020 06:40:18 -4.6 C 39 %
3209 24-03-2020 06:50:18 -4.4 C 38 %
3210 24-03-2020 07:00:18 -4.5 C 39 %
3211 24-03-2020 07:10:18 -4.4 C 39 %
3212 24-03-2020 07:20:18 -4.3 C 39 %
3213 24-03-2020 07:30:18 -4.2 C 39 %
3214 24-03-2020 07:40:18 -4 C 39 %
3215 24-03-2020 07:50:17 -3.8 C 39 %
3216 24-03-2020 08:00:17 -3.7 C 39 %
3217 24-03-2020 08:10:17 -3.5 C 38 %
3218 24-03-2020 08:20:17 -3.3 C 38 %
3219 24-03-2020 08:30:17 -2.5 C 38 %
3220 24-03-2020 08:40:17 -2.4 C 37 %
3221 24-03-2020 08:50:17 -2 C 37 %
3222 24-03-2020 09:00:17 -1.6 C 36 %
3223 24-03-2020 09:10:17 -0.7 C 35 %
3224 24-03-2020 09:20:17 -0.2 C 34 %
3225 24-03-2020 09:30:17 0.4 C 30 %
Sensor: Nr:Datum:Temp:Feuchte:
Aussen-T/F 3226 24-03-2020 09:40:17 1 C 27 %
3227 24-03-2020 09:50:18 1.7 C 23 %
3228 24-03-2020 10:00:18 3 C 20 %
3229 24-03-2020 10:10:18 3.3 C 20 %
3230 24-03-2020 10:20:17 3.9 C 20 %
3231 24-03-2020 10:30:17 4.3 C 20 %
3232 24-03-2020 10:40:17 4.7 C 20 %
3233 24-03-2020 10:50:17 5.7 C 20 %
3234 24-03-2020 11:00:18 5.7 C 20 %
3235 24-03-2020 11:10:18 6.4 C 20 %
3236 24-03-2020 11:20:17 6.9 C 20 %
3237 24-03-2020 11:30:17 7.9 C 20 %
3238 24-03-2020 11:40:17 7.2 C 20 %
3239 24-03-2020 11:50:18 6.8 C 20 %
3240 24-03-2020 12:00:18 7.8 C 20 %
3241 24-03-2020 12:10:18 8.6 C 20 %
3242 24-03-2020 12:20:17 8.2 C 20 %
3243 24-03-2020 12:30:17 8.2 C 20 %
3244 24-03-2020 12:40:17 9 C 20 %
3245 24-03-2020 12:50:17 9.2 C 20 %
3246 24-03-2020 13:00:18 10.4 C 20 %
3247 24-03-2020 13:10:18 11.7 C 20 %
3248 24-03-2020 13:20:17 12.5 C 20 %
3249 24-03-2020 13:30:17 13 C 20 %
3250 24-03-2020 13:40:17 11.9 C 20 %
Sensor: Nr:Datum:Temp:Feuchte:
Aussen-T/F 3251 24-03-2020 13:50:18 11 C 20 %
3252 24-03-2020 14:00:17 10.8 C 20 %
3253 24-03-2020 14:10:17 11.3 C 20 %
3254 24-03-2020 14:20:17 13.7 C 20 %
3255 24-03-2020 14:30:17 12.2 C 20 %
3256 24-03-2020 14:40:17 14.4 C 20 %
3257 24-03-2020 14:50:18 13.4 C 20 %
3258 24-03-2020 15:00:18 13.5 C 20 %
3259 24-03-2020 15:10:18 14.1 C 20 %
3260 24-03-2020 15:20:18 15.3 C 20 %
3261 24-03-2020 15:30:18 14.1 C 20 %
3262 24-03-2020 15:40:18 15.4 C 20 %
3263 24-03-2020 15:50:18 14.9 C 20 %
3264 24-03-2020 16:00:18 14.8 C 20 %
3265 24-03-2020 16:10:18 14.8 C 20 %
3266 24-03-2020 16:20:18 14.1 C 20 %
3267 24-03-2020 16:30:18 13.6 C 20 %
3268 24-03-2020 16:40:18 14.3 C 20 %
3269 24-03-2020 16:50:18 11.4 C 20 %
3270 24-03-2020 17:00:18 10.8 C 20 %
3271 24-03-2020 17:10:18 10.4 C 20 %
3272 24-03-2020 17:20:18 10.1 C 20 %
3273 24-03-2020 17:30:18 9.9 C 20 %
3274 24-03-2020 17:40:18 9.6 C 20 %
3275 24-03-2020 17:50:17 9.3 C 20 %
Sensor: Nr:Datum:Temp:Feuchte:
Aussen-T/F 3276 24-03-2020 18:00:17 9 C 20 %
3277 24-03-2020 18:10:17 8.6 C 20 %
3278 24-03-2020 18:20:17 8.4 C 20 %
3279 24-03-2020 18:30:17 7.6 C 20 %
3280 24-03-2020 18:40:18 6.4 C 20 %
3281 24-03-2020 18:50:17 5.4 C 20 %
3282 24-03-2020 19:00:18 4.9 C 20 %
3283 24-03-2020 19:10:18 4.6 C 20 %
3284 24-03-2020 19:20:18 4.5 C 20 %
3285 24-03-2020 19:30:18 4.1 C 20 %
3286 24-03-2020 19:40:18 3.9 C 20 %
3287 24-03-2020 19:50:17 3.6 C 20 %
3288 24-03-2020 20:00:18 3.6 C 20 %
3289 24-03-2020 20:10:18 3.5 C 20 %
3290 24-03-2020 20:20:17 3.4 C 20 %
3291 24-03-2020 20:30:18 3.4 C 20 %
3292 24-03-2020 20:40:18 2.9 C 20 %
3293 24-03-2020 20:50:18 2.7 C 20 %
3294 24-03-2020 21:00:18 2.7 C 20 %
3295 24-03-2020 21:10:18 2.6 C 20 %
3296 24-03-2020 21:20:17 2.3 C 20 %
3297 24-03-2020 21:30:17 2.3 C 20 %
3298 24-03-2020 21:40:17 2.2 C 20 %
3299 24-03-2020 21:50:17 2.2 C 20 %
3300 24-03-2020 22:00:18 1.7 C 20 %
Sensor: Nr:Datum:Temp:Feuchte:
Aussen-T/F 3301 24-03-2020 22:10:18 1.6 C 20 %
3302 24-03-2020 22:20:17 1.6 C 20 %
3303 24-03-2020 22:30:18 0.3 C 25 %
3304 24-03-2020 22:40:18 -0.2 C 30 %
3305 24-03-2020 22:50:17 -0.7 C 30 %
3306 24-03-2020 23:00:18 -1.2 C 32 %
3307 24-03-2020 23:10:18 -1.1 C 31 %
3308 24-03-2020 23:20:17 -1.4 C 31 %
3309 24-03-2020 23:30:18 -1.7 C 30 %
3310 24-03-2020 23:40:18 -0.9 C 30 %
3311 24-03-2020 23:50:18 -1.2 C 30 %
3312 25-03-2020 00:00:17 -1.6 C 30 %
3313 25-03-2020 00:10:17 -1.6 C 31 %
3314 25-03-2020 00:20:17 -1.8 C 32 %
3315 25-03-2020 00:30:17 -1.8 C 30 %
3316 25-03-2020 00:40:18 -1.9 C 31 %
3317 25-03-2020 00:50:17 -1.8 C 32 %
3318 25-03-2020 01:00:17 -1.6 C 32 %
3319 25-03-2020 01:10:18 -1.3 C 31 %
3320 25-03-2020 01:20:17 -1.1 C 30 %
3321 25-03-2020 01:30:18 -1.1 C 29 %
3322 25-03-2020 01:40:18 -0.9 C 28 %
3323 25-03-2020 01:50:17 -1.1 C 28 %
3324 25-03-2020 02:00:17 -1.1 C 28 %
3325 25-03-2020 02:10:18 -1.3 C 27 %
Sensor: Nr:Datum:Temp:Feuchte:
Aussen-T/F 3326 25-03-2020 02:20:18 -1.4 C 29 %
3327 25-03-2020 02:30:18 -1.6 C 27 %
3328 25-03-2020 02:40:18 -1.5 C 27 %
3329 25-03-2020 02:50:18 -1.4 C 27 %
3330 25-03-2020 03:00:18 -1.4 C 26 %
3331 25-03-2020 03:10:18 -1.4 C 26 %
3332 25-03-2020 03:20:17 -1.5 C 27 %
3333 25-03-2020 03:30:17 -2.3 C 30 %
3334 25-03-2020 03:40:17 -2.6 C 31 %
3335 25-03-2020 03:50:17 -2.8 C 32 %
3336 25-03-2020 04:00:17 -3.1 C 33 %
3337 25-03-2020 04:10:17 -3.2 C 34 %
3338 25-03-2020 04:20:17 -3.3 C 34 %
3339 25-03-2020 04:30:18 -3.3 C 34 %
3340 25-03-2020 04:40:18 -3 C 33 %
3341 25-03-2020 04:50:17 -3.2 C 33 %
3342 25-03-2020 05:00:18 -3 C 32 %
3343 25-03-2020 05:10:18 -2.6 C 32 %
3344 25-03-2020 05:20:17 -2.3 C 30 %
3345 25-03-2020 05:30:17 -2.5 C 30 %
3346 25-03-2020 05:40:17 -3.4 C 33 %
3347 25-03-2020 05:50:17 -4 C 35 %
3348 25-03-2020 06:00:17 -4.4 C 36 %
3349 25-03-2020 06:10:17 -4.2 C 36 %
3350 25-03-2020 06:20:17 -4.2 C 36 %
Sensor: Nr:Datum:Temp:Feuchte:
Aussen-T/F 3351 25-03-2020 06:30:17 -4.4 C 36 %
3352 25-03-2020 06:40:17 -4.3 C 36 %
3353 25-03-2020 06:50:17 -4.3 C 36 %
3354 25-03-2020 07:00:17 -4.3 C 37 %
3355 25-03-2020 07:10:17 -4.3 C 37 %
3356 25-03-2020 07:20:17 -4.1 C 37 %
3357 25-03-2020 07:30:17 -4 C 37 %
3358 25-03-2020 07:40:17 -3.8 C 37 %
3359 25-03-2020 07:50:17 -3.2 C 36 %
3360 25-03-2020 08:00:17 -2.6 C 35 %
3361 25-03-2020 08:10:17 -2 C 32 %
3362 25-03-2020 08:20:17 -2.7 C 35 %
3363 25-03-2020 08:30:17 -2 C 34 %
3364 25-03-2020 08:40:17 -1.9 C 34 %
3365 25-03-2020 08:50:17 -1.6 C 34 %
3366 25-03-2020 09:00:17 -1.5 C 34 %
3367 25-03-2020 09:10:17 -1.3 C 35 %
3368 25-03-2020 09:20:17 -1 C 35 %
3369 25-03-2020 09:30:17 -0.2 C 32 %
3370 25-03-2020 09:40:18 0.7 C 29 %
3371 25-03-2020 09:50:17 2.1 C 20 %
3372 25-03-2020 10:00:18 2.8 C 20 %
3373 25-03-2020 10:10:18 3.2 C 20 %
3374 25-03-2020 10:20:17 3.6 C 20 %
3375 25-03-2020 10:30:17 4.1 C 20 %
Sensor: Nr:Datum:Temp:Feuchte:
Aussen-T/F 3376 25-03-2020 10:40:17 4.7 C 20 %
3377 25-03-2020 10:50:17 5.1 C 20 %
3378 25-03-2020 11:00:17 5.3 C 20 %
3379 25-03-2020 11:10:17 5.7 C 20 %
3380 25-03-2020 11:20:17 7.2 C 20 %
3381 25-03-2020 11:30:18 7.7 C 20 %
3382 25-03-2020 11:40:18 7.3 C 20 %
3383 25-03-2020 11:50:17 6.8 C 20 %
3384 25-03-2020 12:00:17 7.8 C 20 %
3385 25-03-2020 12:10:17 8.3 C 20 %
3386 25-03-2020 12:20:17 8.4 C 20 %
3387 25-03-2020 12:30:17 8.4 C 20 %
3388 25-03-2020 12:40:17 8.6 C 20 %
3389 25-03-2020 12:50:17 10.3 C 20 %
3390 25-03-2020 13:00:17 11.2 C 20 %
3391 25-03-2020 13:10:17 12.2 C 20 %
3392 25-03-2020 13:20:18 13.8 C 20 %
3393 25-03-2020 13:30:18 14.5 C 20 %
3394 25-03-2020 13:40:18 12.4 C 20 %
3395 25-03-2020 13:50:18 12 C 20 %
3396 25-03-2020 14:00:18 11.3 C 20 %
3397 25-03-2020 14:10:18 11.1 C 20 %
3398 25-03-2020 14:20:17 13.2 C 20 %
3399 25-03-2020 14:30:17 13.5 C 20 %
3400 25-03-2020 14:40:17 12.7 C 20 %
Sensor: Nr:Datum:Temp:Feuchte:
Aussen-T/F 3401 25-03-2020 14:50:17 13.5 C 20 %
3402 25-03-2020 15:00:17 13.8 C 20 %
3403 25-03-2020 15:10:17 14.1 C 20 %
3404 25-03-2020 15:20:18 14.9 C 20 %
3405 25-03-2020 15:30:18 14.4 C 20 %
3406 25-03-2020 15:40:18 14.4 C 20 %
3407 25-03-2020 15:50:17 15 C 20 %
3408 25-03-2020 16:00:18 15.3 C 20 %
3409 25-03-2020 16:10:18 14.5 C 20 %
3410 25-03-2020 16:20:17 15.7 C 20 %
3411 25-03-2020 16:30:17 13.8 C 20 %
3412 25-03-2020 16:40:17 12.9 C 20 %
3413 25-03-2020 16:50:18 12.2 C 20 %
3414 25-03-2020 17:00:18 11.9 C 20 %
3415 25-03-2020 17:10:18 11.5 C 20 %
3416 25-03-2020 17:20:17 11.1 C 20 %
3417 25-03-2020 17:30:17 11 C 20 %
3418 25-03-2020 17:40:17 10.7 C 20 %
3419 25-03-2020 17:50:17 10.5 C 20 %
3420 25-03-2020 18:00:18 10.5 C 20 %
3421 25-03-2020 18:10:18 10.1 C 20 %
3422 25-03-2020 18:20:17 9.6 C 20 %
3423 25-03-2020 18:30:18 8.8 C 20 %
3424 25-03-2020 18:40:18 7.7 C 20 %
3425 25-03-2020 18:50:18 7 C 20 %
Sensor: Nr:Datum:Temp:Feuchte:
Aussen-T/F 3426 25-03-2020 19:00:18 6.3 C 20 %
3427 25-03-2020 19:10:18 6.1 C 20 %
3428 25-03-2020 19:20:17 5.4 C 20 %
3429 25-03-2020 19:30:18 5.8 C 20 %
3430 25-03-2020 19:40:18 5.1 C 20 %
3431 25-03-2020 19:50:17 4.6 C 20 %
3432 25-03-2020 20:00:17 4.5 C 20 %
3433 25-03-2020 20:10:17 4.1 C 20 %
3434 25-03-2020 20:20:17 4 C 20 %
3435 25-03-2020 20:30:18 4.7 C 20 %
3436 25-03-2020 20:40:18 4.3 C 20 %
3437 25-03-2020 20:50:17 3.8 C 20 %
3438 25-03-2020 21:00:18 4.6 C 20 %
3439 25-03-2020 21:10:18 4.6 C 20 %
3440 25-03-2020 21:20:17 4.3 C 20 %
3441 25-03-2020 21:30:17 4.3 C 20 %
3442 25-03-2020 21:40:17 4 C 20 %
3443 25-03-2020 21:50:17 3.6 C 20 %
3444 25-03-2020 22:00:17 2.8 C 20 %
3445 25-03-2020 22:10:17 2.6 C 20 %
3446 25-03-2020 22:20:17 2.6 C 20 %
3447 25-03-2020 22:30:18 2.1 C 20 %
3448 25-03-2020 22:40:18 2.3 C 20 %
3449 25-03-2020 22:50:18 2.1 C 20 %
3450 25-03-2020 23:00:18 1.7 C 20 %
Sensor: Nr:Datum:Temp:Feuchte:
Aussen-T/F 3451 25-03-2020 23:10:18 1.7 C 23 %
3452 25-03-2020 23:20:17 1.6 C 23 %
3453 25-03-2020 23:30:18 1.5 C 21 %
3454 25-03-2020 23:40:18 1.8 C 20 %
3455 25-03-2020 23:50:18 1.8 C 20 %
3456 26-03-2020 00:00:18 1.4 C 21 %
3457 26-03-2020 00:10:18 1.2 C 21 %
3458 26-03-2020 00:20:18 1.3 C 21 %
3459 26-03-2020 00:30:18 0.9 C 23 %
3460 26-03-2020 00:40:18 0.9 C 25 %
3461 26-03-2020 00:50:18 1 C 23 %
3462 26-03-2020 01:00:18 0.7 C 25 %
3463 26-03-2020 01:10:18 0.4 C 25 %
3464 26-03-2020 01:20:17 0.5 C 25 %
3465 26-03-2020 01:30:17 0.7 C 25 %
3466 26-03-2020 01:40:17 0.7 C 23 %
3467 26-03-2020 01:50:17 0.7 C 21 %
3468 26-03-2020 02:00:17 0.6 C 23 %
3469 26-03-2020 02:10:17 0.7 C 21 %
3470 26-03-2020 02:20:17 0.7 C 21 %
3471 26-03-2020 02:30:17 0.6 C 21 %
3472 26-03-2020 02:40:18 0.4 C 21 %
3473 26-03-2020 02:50:17 0.3 C 23 %
3474 26-03-2020 03:00:17 0 C 23 %
3475 26-03-2020 03:10:18 0.1 C 23 %
Sensor: Nr:Datum:Temp:Feuchte:
Aussen-T/F 3476 26-03-2020 03:20:18 0 C 23 %
3477 26-03-2020 03:30:18 -0.3 C 25 %
3478 26-03-2020 03:40:18 -0.3 C 27 %
3479 26-03-2020 03:50:17 -0.4 C 27 %
3480 26-03-2020 04:00:17 -0.1 C 26 %
3481 26-03-2020 04:10:17 -0.3 C 25 %
3482 26-03-2020 04:20:17 -0.3 C 26 %
3483 26-03-2020 04:30:18 -0.4 C 26 %
3484 26-03-2020 04:40:18 -0.4 C 26 %
3485 26-03-2020 04:50:17 -0.5 C 26 %
3486 26-03-2020 05:00:18 -0.5 C 27 %
3487 26-03-2020 05:10:18 -0.6 C 27 %
3488 26-03-2020 05:20:17 -0.6 C 28 %
3489 26-03-2020 05:30:17 -0.7 C 28 %
3490 26-03-2020 05:40:18 -0.5 C 28 %
3491 26-03-2020 05:50:17 -0.6 C 28 %
3492 26-03-2020 06:00:18 -0.7 C 29 %
3493 26-03-2020 06:10:18 -0.8 C 28 %
3494 26-03-2020 06:20:18 -0.9 C 28 %
3495 26-03-2020 06:30:18 -1 C 28 %
3496 26-03-2020 06:40:18 -0.9 C 30 %
3497 26-03-2020 06:50:18 -1.1 C 30 %
3498 26-03-2020 07:00:18 -0.8 C 30 %
3499 26-03-2020 07:10:18 -1.1 C 30 %
3500 26-03-2020 07:20:18 -0.6 C 30 %
Sensor: Nr:Datum:Temp:Feuchte:
Aussen-T/F 3501 26-03-2020 07:30:18 -0.4 C 30 %
3502 26-03-2020 07:40:18 0.2 C 27 %
3503 26-03-2020 07:50:17 0.5 C 25 %
3504 26-03-2020 08:00:18 0.3 C 28 %
3505 26-03-2020 08:10:18 0.4 C 28 %
3506 26-03-2020 08:20:18 0.7 C 26 %
3507 26-03-2020 08:30:18 1.4 C 21 %
3508 26-03-2020 08:40:18 1.7 C 21 %
3509 26-03-2020 08:50:17 2.2 C 20 %
3510 26-03-2020 09:00:18 2.3 C 20 %
3511 26-03-2020 09:10:18 2.3 C 20 %
3512 26-03-2020 09:20:18 2.7 C 20 %
3513 26-03-2020 09:30:18 3.2 C 20 %
3514 26-03-2020 09:40:18 3.5 C 20 %
3515 26-03-2020 09:50:18 4.1 C 20 %
3516 26-03-2020 10:00:18 4.4 C 20 %
3517 26-03-2020 10:10:18 4.9 C 20 %
3518 26-03-2020 10:20:18 5 C 20 %
3519 26-03-2020 10:30:18 5.4 C 20 %
3520 26-03-2020 10:40:18 5.9 C 20 %
3521 26-03-2020 10:50:17 6 C 20 %
3522 26-03-2020 11:00:18 6.6 C 20 %
3523 26-03-2020 11:10:18 6.9 C 20 %
3524 26-03-2020 11:20:18 7.3 C 20 %
3525 26-03-2020 11:30:18 8.5 C 20 %
Sensor: Nr:Datum:Temp:Feuchte:
Aussen-T/F 3526 26-03-2020 11:40:18 8.3 C 20 %
3527 26-03-2020 11:50:18 7.3 C 20 %
3528 26-03-2020 12:00:18 8 C 20 %
3529 26-03-2020 12:10:18 9.1 C 20 %
3530 26-03-2020 12:20:17 9.6 C 20 %
3531 26-03-2020 12:30:17 9.6 C 20 %
3532 26-03-2020 12:40:17 9.6 C 20 %
3533 26-03-2020 12:50:17 9.7 C 20 %
3534 26-03-2020 13:00:17 10.4 C 20 %
3535 26-03-2020 13:10:17 10.8 C 20 %
3536 26-03-2020 13:20:18 11.5 C 20 %
3537 26-03-2020 13:30:18 11.5 C 20 %
3538 26-03-2020 13:40:18 12.1 C 20 %
3539 26-03-2020 13:50:18 13 C 20 %
3540 26-03-2020 14:00:18 12 C 20 %
3541 26-03-2020 14:10:18 12.2 C 20 %
3542 26-03-2020 14:20:18 11.9 C 20 %
3543 26-03-2020 14:30:18 14.3 C 20 %
3544 26-03-2020 14:40:18 14.2 C 20 %
3545 26-03-2020 14:50:17 14 C 20 %
3546 26-03-2020 15:00:17 15.3 C 20 %
3547 26-03-2020 15:10:18 14.2 C 20 %
3548 26-03-2020 15:20:18 14 C 20 %
3549 26-03-2020 15:30:18 15.6 C 20 %
3550 26-03-2020 15:40:18 15.6 C 20 %
Sensor: Nr:Datum:Temp:Feuchte:
Aussen-T/F 3551 26-03-2020 15:50:18 16.5 C 20 %
3552 26-03-2020 16:00:18 15.6 C 20 %
3553 26-03-2020 16:10:18 15.3 C 20 %
3554 26-03-2020 16:20:18 12.5 C 20 %
3555 26-03-2020 16:30:18 12.3 C 20 %
3556 26-03-2020 16:40:18 13.9 C 20 %
3557 26-03-2020 16:50:18 12.8 C 20 %
3558 26-03-2020 17:00:18 11.4 C 20 %
3559 26-03-2020 17:10:18 11 C 20 %
3560 26-03-2020 17:20:17 10.9 C 20 %
3561 26-03-2020 17:30:17 11 C 20 %
3562 26-03-2020 17:40:17 11.1 C 20 %
3563 26-03-2020 17:50:17 10.7 C 20 %
3564 26-03-2020 18:00:17 10.5 C 20 %
3565 26-03-2020 18:10:17 10.3 C 20 %
3566 26-03-2020 18:20:18 10.1 C 20 %
3567 26-03-2020 18:30:18 9.8 C 20 %
3568 26-03-2020 18:40:18 9.4 C 20 %
3569 26-03-2020 18:50:17 8.6 C 20 %
3570 26-03-2020 19:00:17 8 C 20 %
3571 26-03-2020 19:10:17 7.4 C 20 %
3572 26-03-2020 19:20:17 6.9 C 21 %
3573 26-03-2020 19:30:17 6.7 C 21 %
3574 26-03-2020 19:40:17 6.4 C 21 %
3575 26-03-2020 19:50:17 6.5 C 21 %
Sensor: Nr:Datum:Temp:Feuchte:
Aussen-T/F 3576 26-03-2020 20:00:17 6.2 C 23 %
3577 26-03-2020 20:10:18 6 C 23 %
3578 26-03-2020 20:20:18 5.7 C 25 %
3579 26-03-2020 20:30:17 5.4 C 26 %
3580 26-03-2020 20:40:17 4.9 C 28 %
3581 26-03-2020 20:50:17 4.9 C 28 %
3582 26-03-2020 21:00:17 4.7 C 29 %
3583 26-03-2020 21:10:17 4.5 C 29 %
3584 26-03-2020 21:20:17 4.5 C 30 %
3585 26-03-2020 21:30:18 4.1 C 30 %
3586 26-03-2020 21:40:18 4.6 C 30 %
3587 26-03-2020 21:50:18 4.6 C 30 %
3588 26-03-2020 22:00:18 4.6 C 30 %
3589 26-03-2020 22:10:18 4.6 C 30 %
3590 26-03-2020 22:20:17 4.5 C 30 %
3591 26-03-2020 22:30:17 4.5 C 30 %
3592 26-03-2020 22:40:17 4.5 C 30 %
3593 26-03-2020 22:50:17 4.4 C 30 %
3594 26-03-2020 23:00:18 4.5 C 30 %
3595 26-03-2020 23:10:18 4.2 C 30 %
3596 26-03-2020 23:20:17 4.2 C 30 %
3597 26-03-2020 23:30:18 3.9 C 31 %
3598 26-03-2020 23:40:18 4 C 30 %
3599 26-03-2020 23:50:18 3.9 C 31 %
3600 27-03-2020 00:00:18 4 C 30 %
Sensor: Nr:Datum:Temp:Feuchte:
Aussen-T/F 3601 27-03-2020 00:10:18 3.9 C 31 %
3602 27-03-2020 00:20:17 4 C 30 %
3603 27-03-2020 00:30:17 4 C 30 %
3604 27-03-2020 00:40:17 3.7 C 32 %
3605 27-03-2020 00:50:18 3.6 C 32 %
3606 27-03-2020 01:00:18 2.7 C 35 %
3607 27-03-2020 01:10:18 2.5 C 36 %
3608 27-03-2020 01:20:17 3 C 35 %
3609 27-03-2020 01:30:18 3.1 C 35 %
3610 27-03-2020 01:40:18 2.7 C 36 %
3611 27-03-2020 01:50:18 3 C 35 %
3612 27-03-2020 02:00:18 2.9 C 35 %
3613 27-03-2020 02:10:18 2.8 C 35 %
3614 27-03-2020 02:20:17 2.7 C 35 %
3615 27-03-2020 02:30:17 2.5 C 36 %
3616 27-03-2020 02:40:17 2.5 C 36 %
3617 27-03-2020 02:50:17 2.6 C 35 %
3618 27-03-2020 03:00:17 2.6 C 35 %
3619 27-03-2020 03:10:17 2.2 C 36 %
3620 27-03-2020 03:20:17 2.5 C 35 %
3621 27-03-2020 03:30:17 2.4 C 35 %
3622 27-03-2020 03:40:17 2.6 C 35 %
3623 27-03-2020 03:50:17 2.4 C 36 %
3624 27-03-2020 04:00:18 2.4 C 35 %
3625 27-03-2020 04:10:18 2.4 C 35 %
Sensor: Nr:Datum:Temp:Feuchte:
Aussen-T/F 3626 27-03-2020 04:20:18 1.4 C 38 %
3627 27-03-2020 04:30:18 1.3 C 38 %
3628 27-03-2020 04:40:18 1.6 C 38 %
3629 27-03-2020 04:50:17 1.8 C 37 %
3630 27-03-2020 05:00:18 1.5 C 38 %
3631 27-03-2020 05:10:18 0.7 C 40 %
3632 27-03-2020 05:20:18 0.4 C 40 %
3633 27-03-2020 05:30:18 0 C 41 %
3634 27-03-2020 05:40:18 0 C 42 %
3635 27-03-2020 05:50:18 -0.1 C 42 %
3636 27-03-2020 06:00:18 -0.5 C 42 %
3637 27-03-2020 06:10:18 -0.6 C 43 %
3638 27-03-2020 06:20:18 -0.4 C 43 %
3639 27-03-2020 06:30:18 -0.4 C 43 %
3640 27-03-2020 06:40:18 -0.3 C 43 %
3641 27-03-2020 06:50:17 -0.3 C 43 %
3642 27-03-2020 07:00:18 -0.2 C 43 %
3643 27-03-2020 07:10:18 -0.1 C 43 %
3644 27-03-2020 07:20:18 0.1 C 43 %
3645 27-03-2020 07:30:18 0.3 C 43 %
3646 27-03-2020 07:40:18 0.8 C 43 %
3647 27-03-2020 07:50:17 1.2 C 41 %
3648 27-03-2020 08:00:17 1.1 C 41 %
3649 27-03-2020 08:10:18 1.9 C 40 %
3650 27-03-2020 08:20:18 1.7 C 40 %
Sensor: Nr:Datum:Temp:Feuchte:
Aussen-T/F 3651 27-03-2020 08:30:18 1.6 C 41 %
3652 27-03-2020 08:40:18 1.9 C 41 %
3653 27-03-2020 08:50:17 2.6 C 39 %
3654 27-03-2020 09:00:18 3 C 38 %
3655 27-03-2020 09:10:18 3.3 C 37 %
3656 27-03-2020 09:20:17 3.6 C 37 %
3657 27-03-2020 09:30:18 4.1 C 36 %
3658 27-03-2020 09:40:18 4.5 C 35 %
3659 27-03-2020 09:50:18 5.3 C 35 %
3660 27-03-2020 10:00:18 5.8 C 34 %
3661 27-03-2020 10:10:18 6.5 C 32 %
3662 27-03-2020 10:20:17 7.6 C 30 %
3663 27-03-2020 10:30:17 8.1 C 28 %
3664 27-03-2020 10:40:17 9.1 C 25 %
3665 27-03-2020 10:50:17 9.3 C 25 %
3666 27-03-2020 11:00:17 10.2 C 20 %
3667 27-03-2020 11:10:17 11 C 20 %
3668 27-03-2020 11:20:17 12.4 C 20 %
3669 27-03-2020 11:30:17 14.5 C 20 %
3670 27-03-2020 11:40:17 14.2 C 20 %
3671 27-03-2020 11:50:17 12.5 C 20 %
3672 27-03-2020 12:00:17 13.4 C 20 %
3673 27-03-2020 12:10:17 13.7 C 20 %
3674 27-03-2020 12:20:17 14.4 C 20 %
3675 27-03-2020 12:30:17 14.1 C 20 %
Sensor: Nr:Datum:Temp:Feuchte:
Aussen-T/F 3676 27-03-2020 12:40:18 14.2 C 20 %
3677 27-03-2020 12:50:18 14.6 C 20 %
3678 27-03-2020 13:00:18 16.6 C 20 %
3679 27-03-2020 13:10:18 15.8 C 20 %
3680 27-03-2020 13:20:17 17.6 C 20 %
3681 27-03-2020 13:30:18 18.8 C 20 %
3682 27-03-2020 13:40:18 16.8 C 20 %
3683 27-03-2020 13:50:18 17.3 C 20 %
3684 27-03-2020 14:00:18 16.9 C 20 %
3685 27-03-2020 14:10:18 17.6 C 20 %
3686 27-03-2020 14:20:18 17.7 C 20 %
3687 27-03-2020 14:30:17 20.4 C 20 %
3688 27-03-2020 14:40:17 18.1 C 20 %
3689 27-03-2020 14:50:17 18.4 C 20 %
3690 27-03-2020 15:00:17 18.5 C 20 %
3691 27-03-2020 15:10:17 18.7 C 20 %
3692 27-03-2020 15:20:17 18.9 C 20 %
3693 27-03-2020 15:30:18 19.4 C 20 %
3694 27-03-2020 15:40:18 18.3 C 20 %
3695 27-03-2020 15:50:17 19.5 C 20 %
3696 27-03-2020 16:00:17 18.5 C 20 %
3697 27-03-2020 16:10:17 18.2 C 20 %
3698 27-03-2020 16:20:17 19.2 C 20 %
3699 27-03-2020 16:30:17 18.3 C 20 %
3700 27-03-2020 16:40:17 18 C 20 %
Sensor: Nr:Datum:Temp:Feuchte:
Aussen-T/F 3701 27-03-2020 16:50:17 17 C 20 %
3702 27-03-2020 17:00:18 16.4 C 20 %
3703 27-03-2020 17:10:18 16.3 C 20 %
3704 27-03-2020 17:20:18 16.1 C 20 %
3705 27-03-2020 17:30:18 16 C 20 %
3706 27-03-2020 17:40:18 15.8 C 20 %
3707 27-03-2020 17:50:18 15.7 C 20 %
3708 27-03-2020 18:00:17 15.4 C 20 %
3709 27-03-2020 18:10:17 15 C 20 %
3710 27-03-2020 18:20:17 14.1 C 20 %
3711 27-03-2020 18:30:18 13.5 C 20 %
3712 27-03-2020 18:40:18 12.9 C 20 %
3713 27-03-2020 18:50:18 12.3 C 20 %
3714 27-03-2020 19:00:18 11.8 C 20 %
3715 27-03-2020 19:10:18 11.5 C 20 %
3716 27-03-2020 19:20:17 11.4 C 20 %
3717 27-03-2020 19:30:17 10.7 C 20 %
3718 27-03-2020 19:40:17 10.7 C 21 %
3719 27-03-2020 19:50:17 10.4 C 23 %
3720 27-03-2020 20:00:18 10.4 C 22 %
3721 27-03-2020 20:10:18 9.2 C 26 %
3722 27-03-2020 20:20:17 8.9 C 28 %
3723 27-03-2020 20:30:17 8.4 C 30 %
3724 27-03-2020 20:40:17 8.1 C 30 %
3725 27-03-2020 20:50:18 7.8 C 31 %
Sensor: Nr:Datum:Temp:Feuchte:
Aussen-T/F 3726 27-03-2020 21:00:17 7.4 C 31 %
3727 27-03-2020 21:10:17 7.3 C 32 %
3728 27-03-2020 21:20:17 7.1 C 32 %
3729 27-03-2020 21:30:17 7 C 32 %
3730 27-03-2020 21:40:17 6.6 C 33 %
3731 27-03-2020 21:50:17 6.6 C 34 %
3732 27-03-2020 22:00:17 6.4 C 34 %
3733 27-03-2020 22:10:17 6.3 C 34 %
3734 27-03-2020 22:20:17 6 C 35 %
3735 27-03-2020 22:30:18 5.8 C 35 %
3736 27-03-2020 22:40:18 5.6 C 35 %
3737 27-03-2020 22:50:18 5.5 C 36 %
3738 27-03-2020 23:00:18 5.6 C 36 %
3739 27-03-2020 23:10:18 5.6 C 36 %
3740 27-03-2020 23:20:17 5.3 C 36 %
3741 27-03-2020 23:30:17 5.2 C 36 %
3742 27-03-2020 23:40:17 5.1 C 36 %
3743 27-03-2020 23:50:17 4.8 C 37 %
3744 28-03-2020 00:00:17 4.8 C 38 %
3745 28-03-2020 00:10:17 4.8 C 39 %
3746 28-03-2020 00:20:17 5 C 37 %
3747 28-03-2020 00:30:18 4.9 C 38 %
3748 28-03-2020 00:40:18 4.7 C 38 %
3749 28-03-2020 00:50:17 4.7 C 38 %
3750 28-03-2020 01:00:17 4.6 C 38 %
Sensor: Nr:Datum:Temp:Feuchte:
Aussen-T/F 3751 28-03-2020 01:10:17 4.4 C 39 %
3752 28-03-2020 01:20:17 4.3 C 39 %
3753 28-03-2020 01:30:17 4.1 C 39 %
3754 28-03-2020 01:40:18 3.9 C 40 %
3755 28-03-2020 01:50:17 3.7 C 41 %
3756 28-03-2020 02:00:18 3.6 C 41 %
3757 28-03-2020 02:10:18 3.3 C 41 %
3758 28-03-2020 02:20:18 3.1 C 41 %
3759 28-03-2020 02:30:17 3.7 C 42 %
3760 28-03-2020 02:40:17 3.7 C 41 %
3761 28-03-2020 02:50:18 3.4 C 41 %
3762 28-03-2020 03:00:18 3.1 C 41 %
3763 28-03-2020 03:10:18 2.9 C 42 %
3764 28-03-2020 03:20:17 2.8 C 43 %
3765 28-03-2020 03:30:18 2.6 C 43 %
3766 28-03-2020 03:40:18 2.1 C 43 %
3767 28-03-2020 03:50:17 2.1 C 44 %
3768 28-03-2020 04:00:18 2.2 C 44 %
3769 28-03-2020 04:10:18 2.1 C 44 %
3770 28-03-2020 04:20:18 1.9 C 45 %
3771 28-03-2020 04:30:18 1.7 C 45 %
3772 28-03-2020 04:40:18 1.8 C 46 %
3773 28-03-2020 04:50:17 1.8 C 46 %
3774 28-03-2020 05:00:18 1.7 C 45 %
3775 28-03-2020 05:10:18 1.6 C 45 %
Sensor: Nr:Datum:Temp:Feuchte:
Aussen-T/F 3776 28-03-2020 05:20:17 1.5 C 45 %
3777 28-03-2020 05:30:18 1.3 C 46 %
3778 28-03-2020 05:40:18 1.2 C 46 %
3779 28-03-2020 05:50:18 1.2 C 46 %
3780 28-03-2020 06:00:18 1.2 C 46 %
3781 28-03-2020 06:10:18 1.3 C 46 %
3782 28-03-2020 06:20:17 1.1 C 46 %
3783 28-03-2020 06:30:17 1.1 C 46 %
3784 28-03-2020 06:40:17 1 C 46 %
3785 28-03-2020 06:50:17 1.2 C 47 %
3786 28-03-2020 07:00:17 1.5 C 47 %
3787 28-03-2020 07:10:17 1.7 C 47 %
3788 28-03-2020 07:20:17 1.9 C 47 %
3789 28-03-2020 07:30:18 1.9 C 46 %
3790 28-03-2020 07:40:18 1.9 C 46 %
3791 28-03-2020 07:50:17 2 C 45 %
3792 28-03-2020 08:00:17 2.2 C 45 %
3793 28-03-2020 08:10:18 2.5 C 45 %
3794 28-03-2020 08:20:18 2.8 C 46 %
3795 28-03-2020 08:30:17 3.2 C 45 %
3796 28-03-2020 08:40:17 3.7 C 44 %
3797 28-03-2020 08:50:18 4 C 43 %
3798 28-03-2020 09:00:18 4.6 C 43 %
3799 28-03-2020 09:10:18 5.1 C 41 %
3800 28-03-2020 09:20:17 5.7 C 41 %
Sensor: Nr:Datum:Temp:Feuchte:
Aussen-T/F 3801 28-03-2020 09:30:18 6.3 C 40 %
3802 28-03-2020 09:40:18 6.9 C 40 %
3803 28-03-2020 09:50:18 7.8 C 38 %
3804 28-03-2020 10:00:18 8.4 C 37 %
3805 28-03-2020 10:10:18 9.5 C 35 %
3806 28-03-2020 10:20:17 10.2 C 32 %
3807 28-03-2020 10:30:17 10.9 C 31 %
3808 28-03-2020 10:40:17 11.6 C 30 %
3809 28-03-2020 10:50:18 12.2 C 29 %
3810 28-03-2020 11:00:18 13.4 C 26 %
3811 28-03-2020 11:10:18 13.6 C 25 %
3812 28-03-2020 11:20:17 15.8 C 20 %
3813 28-03-2020 11:30:17 16.7 C 20 %
3814 28-03-2020 11:40:17 16.4 C 20 %
3815 28-03-2020 11:50:18 15.9 C 20 %
3816 28-03-2020 12:00:17 16.6 C 20 %
3817 28-03-2020 12:10:17 17 C 20 %
3818 28-03-2020 12:20:17 17.7 C 20 %
3819 28-03-2020 12:30:17 17.8 C 20 %
3820 28-03-2020 12:40:17 18.1 C 20 %
3821 28-03-2020 12:50:18 18 C 20 %
3822 28-03-2020 13:00:18 18.6 C 20 %
3823 28-03-2020 13:10:18 19.6 C 20 %
3824 28-03-2020 13:20:18 21.7 C 20 %
3825 28-03-2020 13:30:17 21.1 C 20 %
Sensor: Nr:Datum:Temp:Feuchte:
Aussen-T/F 3826 28-03-2020 13:40:17 20.7 C 20 %
3827 28-03-2020 13:50:18 20.6 C 20 %
3828 28-03-2020 14:00:17 21.1 C 20 %
3829 28-03-2020 14:10:17 21.3 C 20 %
3830 28-03-2020 14:20:17 21.9 C 20 %
3831 28-03-2020 14:30:17 23.7 C 20 %
3832 28-03-2020 14:40:17 24.3 C 20 %
3833 28-03-2020 14:50:17 23.2 C 20 %
3834 28-03-2020 15:00:18 22.4 C 20 %
3835 28-03-2020 15:10:18 19.9 C 20 %
3836 28-03-2020 15:20:18 18.6 C 20 %
3837 28-03-2020 15:30:18 19.6 C 20 %
3838 28-03-2020 15:40:18 22.1 C 20 %
3839 28-03-2020 15:50:18 20.5 C 20 %
3840 28-03-2020 16:00:18 21.1 C 20 %
3841 28-03-2020 16:10:18 21.1 C 20 %
3842 28-03-2020 16:20:18 19.9 C 20 %
3843 28-03-2020 16:30:18 19.6 C 20 %
3844 28-03-2020 16:40:18 19.6 C 20 %
3845 28-03-2020 16:50:18 18.5 C 20 %
3846 28-03-2020 17:00:18 17.9 C 20 %
3847 28-03-2020 17:10:18 17 C 20 %
3848 28-03-2020 17:20:18 16.6 C 20 %
3849 28-03-2020 17:30:18 16.2 C 20 %
3850 28-03-2020 17:40:18 16.2 C 20 %
Sensor: Nr:Datum:Temp:Feuchte:
Aussen-T/F 3851 28-03-2020 17:50:17 15.4 C 20 %
3852 28-03-2020 18:00:18 14.9 C 20 %
3853 28-03-2020 18:10:18 14.6 C 20 %
3854 28-03-2020 18:20:17 14 C 20 %
3855 28-03-2020 18:30:17 13.5 C 20 %
3856 28-03-2020 18:40:17 13.1 C 20 %
3857 28-03-2020 18:50:18 12.6 C 20 %
3858 28-03-2020 19:00:18 12.3 C 20 %
3859 28-03-2020 19:10:18 11.7 C 20 %
3860 28-03-2020 19:20:18 11.7 C 20 %
3861 28-03-2020 19:30:18 11.4 C 20 %
3862 28-03-2020 19:40:18 11.2 C 20 %
3863 28-03-2020 19:50:17 10.8 C 20 %
3864 28-03-2020 20:00:18 10.3 C 20 %
3865 28-03-2020 20:10:18 10.7 C 20 %
3866 28-03-2020 20:20:17 10.5 C 20 %
3867 28-03-2020 20:30:18 10 C 20 %
3868 28-03-2020 20:40:18 9.2 C 20 %
3869 28-03-2020 20:50:17 8.7 C 20 %
3870 28-03-2020 21:00:17 8.8 C 20 %
3871 28-03-2020 21:10:17 9.2 C 20 %
3872 28-03-2020 21:20:17 8.7 C 23 %
3873 28-03-2020 21:30:17 8.1 C 25 %
3874 28-03-2020 21:40:17 8.4 C 23 %
3875 28-03-2020 21:50:17 7.6 C 25 %
Sensor: Nr:Datum:Temp:Feuchte:
Aussen-T/F 3876 28-03-2020 22:00:17 8.3 C 25 %
3877 28-03-2020 22:10:17 8.5 C 21 %
3878 28-03-2020 22:20:17 8.4 C 25 %
3879 28-03-2020 22:30:17 8.3 C 26 %
3880 28-03-2020 22:40:17 7.9 C 26 %
3881 28-03-2020 22:50:17 7.4 C 28 %
3882 28-03-2020 23:00:17 7.3 C 30 %
3883 28-03-2020 23:10:17 7.2 C 30 %
3884 28-03-2020 23:20:18 7.1 C 30 %
3885 28-03-2020 23:30:18 7.1 C 31 %
3886 28-03-2020 23:40:18 6.8 C 32 %
3887 28-03-2020 23:50:17 6.7 C 33 %
3888 29-03-2020 00:00:18 6.5 C 33 %
3889 29-03-2020 00:10:18 6.4 C 33 %
3890 29-03-2020 00:20:17 6.2 C 33 %
3891 29-03-2020 00:30:17 6.5 C 33 %
3892 29-03-2020 00:40:17 6.6 C 33 %
3893 29-03-2020 00:50:18 6.5 C 32 %
3894 29-03-2020 01:00:18 6.3 C 32 %
3895 29-03-2020 01:10:18 6.3 C 32 %
3896 29-03-2020 01:20:17 6.2 C 32 %
3897 29-03-2020 01:30:17 6.1 C 32 %
3898 29-03-2020 01:40:17 6 C 31 %
3899 29-03-2020 01:50:17 6 C 31 %
3900 29-03-2020 02:00:17 5.8 C 31 %
Sensor: Nr:Datum:Temp:Feuchte:
Aussen-T/F 3901 29-03-2020 02:10:17 5.7 C 31 %
3902 29-03-2020 02:20:18 5.4 C 31 %
3903 29-03-2020 02:30:18 5 C 31 %
3904 29-03-2020 02:40:18 4.7 C 32 %
3905 29-03-2020 02:50:18 4.7 C 32 %
3906 29-03-2020 04:00:18 4.6 C 31 %
3907 29-03-2020 04:10:18 4.2 C 32 %
3908 29-03-2020 04:20:17 4.1 C 31 %
3909 29-03-2020 04:30:17 4.3 C 31 %
3910 29-03-2020 04:40:17 4.4 C 31 %
3911 29-03-2020 04:50:18 4.3 C 31 %
3912 29-03-2020 05:00:17 4.4 C 32 %
3913 29-03-2020 05:10:17 4.3 C 32 %
3914 29-03-2020 05:20:17 4.2 C 31 %
3915 29-03-2020 05:30:17 4 C 31 %
3916 29-03-2020 05:40:17 3.8 C 32 %
3917 29-03-2020 05:50:18 3.5 C 32 %
3918 29-03-2020 06:00:18 3.1 C 32 %
3919 29-03-2020 06:10:18 2.8 C 33 %
3920 29-03-2020 06:20:17 2.5 C 33 %
3921 29-03-2020 06:30:18 2.9 C 33 %
3922 29-03-2020 06:40:18 3.2 C 32 %
3923 29-03-2020 06:50:17 3.3 C 33 %
3924 29-03-2020 07:00:18 3.4 C 33 %
3925 29-03-2020 07:10:18 3.5 C 34 %
Sensor: Nr:Datum:Temp:Feuchte:
Aussen-T/F 3926 29-03-2020 07:20:17 3.5 C 35 %
3927 29-03-2020 07:30:17 3.6 C 35 %
3928 29-03-2020 07:40:17 3.7 C 35 %
3929 29-03-2020 07:50:17 3.7 C 35 %
3930 29-03-2020 08:00:18 3.8 C 35 %
3931 29-03-2020 08:10:18 3.8 C 35 %
3932 29-03-2020 08:20:17 4.1 C 33 %
3933 29-03-2020 08:30:17 4.1 C 33 %
3934 29-03-2020 08:40:17 4.3 C 33 %
3935 29-03-2020 08:50:17 4 C 33 %
3936 29-03-2020 09:00:17 4.3 C 33 %
3937 29-03-2020 09:10:17 4.2 C 32 %
3938 29-03-2020 09:20:17 4.1 C 33 %
3939 29-03-2020 09:30:17 4.2 C 33 %
3940 29-03-2020 09:40:17 4.5 C 32 %
3941 29-03-2020 09:50:17 4.8 C 32 %
3942 29-03-2020 10:00:17 5 C 31 %
3943 29-03-2020 10:10:17 5.3 C 31 %
3944 29-03-2020 10:20:17 5.8 C 30 %
3945 29-03-2020 10:30:18 5.6 C 30 %
3946 29-03-2020 10:40:18 6.2 C 30 %
3947 29-03-2020 10:50:17 6.2 C 28 %
3948 29-03-2020 11:00:18 6.5 C 25 %
3949 29-03-2020 11:10:18 6.5 C 25 %
3950 29-03-2020 11:20:18 6 C 25 %
Sensor: Nr:Datum:Temp:Feuchte:
Aussen-T/F 3951 29-03-2020 11:30:18 6.1 C 25 %
3952 29-03-2020 11:40:18 6.2 C 25 %
3953 29-03-2020 11:50:17 6.3 C 25 %
3954 29-03-2020 12:00:17 6.2 C 25 %
3955 29-03-2020 12:10:17 5.6 C 27 %
3956 29-03-2020 12:20:17 5.5 C 27 %
3957 29-03-2020 12:30:17 5.7 C 27 %
3958 29-03-2020 12:40:17 5.8 C 26 %
3959 29-03-2020 12:50:18 6.4 C 26 %
3960 29-03-2020 13:00:18 6.3 C 25 %
3961 29-03-2020 13:10:18 6.1 C 25 %
3962 29-03-2020 13:20:17 6.6 C 23 %
3963 29-03-2020 13:30:17 6.8 C 20 %
3964 29-03-2020 13:40:18 8.1 C 20 %
3965 29-03-2020 13:50:17 8.4 C 20 %
3966 29-03-2020 14:00:18 7.6 C 20 %
3967 29-03-2020 14:10:18 7.5 C 20 %
3968 29-03-2020 14:20:17 7 C 20 %
3969 29-03-2020 14:30:17 6.7 C 20 %
3970 29-03-2020 14:40:17 6.5 C 20 %
3971 29-03-2020 14:50:17 6.7 C 20 %
3972 29-03-2020 15:00:17 7.2 C 20 %
3973 29-03-2020 15:10:17 7.4 C 20 %
3974 29-03-2020 15:20:17 7.4 C 20 %
3975 29-03-2020 15:30:18 7.6 C 20 %
Sensor: Nr:Datum:Temp:Feuchte:
Aussen-T/F 3976 29-03-2020 15:40:18 7.6 C 20 %
3977 29-03-2020 15:50:17 8 C 20 %
3978 29-03-2020 16:00:18 7.4 C 20 %
3979 29-03-2020 16:10:18 7 C 20 %
3980 29-03-2020 16:20:17 6.7 C 20 %
3981 29-03-2020 16:30:18 6.5 C 20 %
3982 29-03-2020 16:40:18 6.6 C 20 %
3983 29-03-2020 16:50:18 6.8 C 20 %
3984 29-03-2020 17:00:18 7 C 20 %
3985 29-03-2020 17:10:18 6.8 C 20 %
3986 29-03-2020 17:20:17 7.4 C 20 %
3987 29-03-2020 17:30:17 7 C 20 %
3988 29-03-2020 17:40:17 7 C 20 %
3989 29-03-2020 17:50:18 6.8 C 25 %
3990 29-03-2020 18:00:18 7.1 C 23 %
3991 29-03-2020 18:10:18 6.5 C 25 %
3992 29-03-2020 18:20:18 6.2 C 25 %
3993 29-03-2020 18:30:18 5.3 C 29 %
3994 29-03-2020 18:40:18 4.4 C 35 %
3995 29-03-2020 18:50:18 4.1 C 36 %
3996 29-03-2020 19:00:18 4 C 36 %
3997 29-03-2020 19:10:18 3.6 C 39 %
3998 29-03-2020 19:20:17 3.6 C 40 %
3999 29-03-2020 19:30:17 3.4 C 40 %
4000 29-03-2020 19:40:17 3.2 C 41 %
Sensor: Nr:Datum:Temp:Feuchte:
Aussen-T/F 4001 29-03-2020 19:50:17 3.1 C 41 %
4002 29-03-2020 20:00:17 3 C 41 %
4003 29-03-2020 20:10:17 3 C 41 %
4004 29-03-2020 20:20:18 2.9 C 42 %
4005 29-03-2020 20:30:18 3 C 41 %
4006 29-03-2020 20:40:18 3.3 C 40 %
4007 29-03-2020 20:50:18 3.5 C 40 %
4008 29-03-2020 21:00:18 3.6 C 39 %
4009 29-03-2020 21:10:18 3.7 C 39 %
4010 29-03-2020 21:20:18 3.7 C 38 %
4011 29-03-2020 21:30:17 3.7 C 37 %
4012 29-03-2020 21:40:17 3.8 C 37 %
4013 29-03-2020 21:50:17 3.8 C 37 %
4014 29-03-2020 22:00:17 3.7 C 37 %
4015 29-03-2020 22:10:17 3.7 C 36 %
4016 29-03-2020 22:20:18 3.7 C 36 %
4017 29-03-2020 22:30:18 3.6 C 36 %
4018 29-03-2020 22:40:18 3.6 C 36 %
4019 29-03-2020 22:50:18 3.6 C 35 %
4020 29-03-2020 23:00:18 3.6 C 35 %
4021 29-03-2020 23:10:18 3.5 C 35 %
4022 29-03-2020 23:20:17 3.4 C 34 %
4023 29-03-2020 23:30:17 3.3 C 33 %
4024 29-03-2020 23:40:17 3.1 C 33 %
4025 29-03-2020 23:50:17 2.9 C 33 %
Sensor: Nr:Datum:Temp:Feuchte:
Aussen-T/F 4026 30-03-2020 00:00:18 2.5 C 34 %
4027 30-03-2020 00:10:18 2.4 C 33 %
4028 30-03-2020 00:20:17 2.4 C 33 %
4029 30-03-2020 00:30:17 1.7 C 35 %
4030 30-03-2020 00:40:17 1 C 36 %
4031 30-03-2020 00:50:17 0.3 C 38 %
4032 30-03-2020 01:00:18 0.2 C 38 %
4033 30-03-2020 01:10:18 0.3 C 38 %
4034 30-03-2020 01:20:17 0.3 C 37 %
4035 30-03-2020 01:30:18 0.5 C 36 %
4036 30-03-2020 01:40:18 -0.1 C 37 %
4037 30-03-2020 01:50:17 -0.3 C 37 %
4038 30-03-2020 02:00:17 -0.8 C 38 %
4039 30-03-2020 02:10:17 -0.9 C 38 %
4040 30-03-2020 02:20:17 -1.5 C 39 %
4041 30-03-2020 02:30:18 -1.7 C 39 %
4042 30-03-2020 02:40:18 -1.6 C 40 %
4043 30-03-2020 02:50:17 -1.6 C 39 %
4044 30-03-2020 03:00:18 -1.7 C 39 %
4045 30-03-2020 03:10:18 -1.3 C 38 %
4046 30-03-2020 03:20:18 -1.7 C 39 %
4047 30-03-2020 03:30:18 -2.2 C 40 %
4048 30-03-2020 03:40:18 -2.1 C 40 %
4049 30-03-2020 03:50:17 -2.1 C 40 %
4050 30-03-2020 04:00:18 -1.9 C 39 %
Sensor: Nr:Datum:Temp:Feuchte:
Aussen-T/F 4051 30-03-2020 04:10:18 -2.2 C 39 %
4052 30-03-2020 04:20:17 -2 C 39 %
4053 30-03-2020 04:30:17 -2.4 C 39 %
4054 30-03-2020 04:40:17 -2.6 C 39 %
4055 30-03-2020 04:50:17 -2.4 C 39 %
4056 30-03-2020 05:00:17 -2.4 C 38 %
4057 30-03-2020 05:10:17 -2.5 C 38 %
4058 30-03-2020 05:20:17 -2.7 C 38 %
4059 30-03-2020 05:30:18 -3 C 39 %
4060 30-03-2020 05:40:18 -3 C 38 %
4061 30-03-2020 05:50:17 -3 C 38 %
4062 30-03-2020 06:00:18 -3 C 38 %
4063 30-03-2020 06:10:18 -3.4 C 38 %
4064 30-03-2020 06:20:17 -3.7 C 39 %
4065 30-03-2020 06:30:17 -3.9 C 40 %
4066 30-03-2020 06:40:17 -4.1 C 40 %
4067 30-03-2020 06:50:17 -3.3 C 39 %
4068 30-03-2020 07:00:17 -3.7 C 40 %
4069 30-03-2020 07:10:17 -3.2 C 39 %
4070 30-03-2020 07:20:17 -3.8 C 39 %
4071 30-03-2020 07:30:18 -4.3 C 40 %
4072 30-03-2020 07:40:18 -4.5 C 40 %
4073 30-03-2020 07:50:17 -4.5 C 40 %
4074 30-03-2020 08:00:18 -3.8 C 40 %
4075 30-03-2020 08:10:18 -3.9 C 40 %
Sensor: Nr:Datum:Temp:Feuchte:
Aussen-T/F 4076 30-03-2020 08:20:18 -4.1 C 40 %
4077 30-03-2020 08:30:18 -3.7 C 39 %
4078 30-03-2020 08:40:18 -3.3 C 39 %
4079 30-03-2020 08:50:17 -3.2 C 38 %
4080 30-03-2020 09:00:18 -3.1 C 38 %
4081 30-03-2020 09:10:18 -2.7 C 37 %
4082 30-03-2020 09:20:18 -2.6 C 37 %
4083 30-03-2020 09:30:18 -2.5 C 37 %
4084 30-03-2020 09:40:18 -2.1 C 37 %
4085 30-03-2020 09:50:18 -2.1 C 37 %
4086 30-03-2020 10:00:18 -1.6 C 36 %
4087 30-03-2020 10:10:18 -1.7 C 37 %
4088 30-03-2020 10:20:17 -1.5 C 37 %
4089 30-03-2020 10:30:17 -1.3 C 36 %
4090 30-03-2020 10:40:17 0.1 C 31 %
4091 30-03-2020 10:50:17 1 C 21 %
4092 30-03-2020 11:00:17 1.1 C 23 %
4093 30-03-2020 11:10:18 2 C 20 %
4094 30-03-2020 11:20:18 2.4 C 20 %
4095 30-03-2020 11:30:18 2.8 C 20 %
4096 30-03-2020 11:40:18 2.9 C 20 %
4097 30-03-2020 11:50:18 3.2 C 20 %
4098 30-03-2020 12:00:18 3.7 C 20 %
4099 30-03-2020 12:10:18 4 C 20 %
4100 30-03-2020 12:20:18 6.4 C 20 %
Sensor: Nr:Datum:Temp:Feuchte:
Aussen-T/F 4101 30-03-2020 12:30:18 7.6 C 20 %
4102 30-03-2020 12:40:18 6.3 C 20 %
4103 30-03-2020 12:50:18 5.1 C 20 %
4104 30-03-2020 13:00:18 6.6 C 20 %
4105 30-03-2020 13:10:18 6.5 C 20 %
4106 30-03-2020 13:20:18 5.6 C 20 %
4107 30-03-2020 13:30:17 5.9 C 20 %
4108 30-03-2020 13:40:17 7 C 20 %
4109 30-03-2020 13:50:17 6.4 C 20 %
4110 30-03-2020 14:00:17 7.1 C 20 %
4111 30-03-2020 14:10:17 8.4 C 20 %
4112 30-03-2020 14:20:18 8.9 C 20 %
4113 30-03-2020 14:30:18 9.5 C 20 %
4114 30-03-2020 14:40:18 9.7 C 20 %
4115 30-03-2020 14:50:18 10.8 C 20 %
4116 30-03-2020 15:00:18 11.3 C 20 %
4117 30-03-2020 15:10:18 11.7 C 20 %
4118 30-03-2020 15:20:17 11.6 C 20 %
4119 30-03-2020 15:30:18 13.5 C 20 %
4120 30-03-2020 15:40:18 13.6 C 20 %
4121 30-03-2020 15:50:18 11.9 C 20 %
4122 30-03-2020 16:00:18 12.9 C 20 %
4123 30-03-2020 16:10:18 13.6 C 20 %
4124 30-03-2020 16:20:17 15.2 C 20 %
4125 30-03-2020 16:30:18 9.9 C 20 %
Sensor: Nr:Datum:Temp:Feuchte:
Aussen-T/F 4126 30-03-2020 16:40:18 13.9 C 20 %
4127 30-03-2020 16:50:18 13.6 C 20 %
4128 30-03-2020 17:00:17 10.1 C 20 %
4129 30-03-2020 17:10:17 13.4 C 20 %
4130 30-03-2020 17:20:18 12.5 C 20 %
4131 30-03-2020 17:30:18 12.6 C 20 %
4132 30-03-2020 17:40:18 11.6 C 20 %
4133 30-03-2020 17:50:18 10.2 C 20 %
4134 30-03-2020 18:00:18 8.7 C 20 %
4135 30-03-2020 18:10:18 7.6 C 20 %
4136 30-03-2020 18:20:18 7.9 C 20 %
4137 30-03-2020 18:30:18 8.2 C 20 %
4138 30-03-2020 18:40:18 7.7 C 20 %
4139 30-03-2020 18:50:18 7.8 C 20 %
4140 30-03-2020 19:00:18 7.3 C 20 %
4141 30-03-2020 19:10:18 7.1 C 20 %
4142 30-03-2020 19:20:17 6.5 C 20 %
4143 30-03-2020 19:30:18 6.3 C 20 %
4144 30-03-2020 19:40:18 5.8 C 20 %
4145 30-03-2020 19:50:17 5 C 20 %
4146 30-03-2020 20:00:18 3.8 C 27 %
4147 30-03-2020 20:10:18 3 C 30 %
4148 30-03-2020 20:20:17 2.8 C 30 %
4149 30-03-2020 20:30:18 3.3 C 31 %
4150 30-03-2020 20:40:18 3.2 C 30 %
Sensor: Nr:Datum:Temp:Feuchte:
Aussen-T/F 4151 30-03-2020 20:50:18 3.3 C 31 %
4152 30-03-2020 21:00:18 4 C 29 %
4153 30-03-2020 21:10:18 4.1 C 29 %
4154 30-03-2020 21:20:18 4.2 C 30 %
4155 30-03-2020 21:30:18 4.3 C 30 %
4156 30-03-2020 21:40:18 4.2 C 30 %
4157 30-03-2020 21:50:18 4.1 C 30 %
4158 30-03-2020 22:00:18 3.7 C 32 %
4159 30-03-2020 22:10:18 3.7 C 33 %
4160 30-03-2020 22:20:17 3.9 C 32 %
4161 30-03-2020 22:30:18 4 C 31 %
4162 30-03-2020 22:40:18 4.1 C 31 %
4163 30-03-2020 22:50:18 4.2 C 31 %
4164 30-03-2020 23:00:18 4.1 C 31 %
4165 30-03-2020 23:10:18 4.2 C 30 %
4166 30-03-2020 23:20:18 4.2 C 31 %
4167 30-03-2020 23:30:18 4.1 C 31 %
4168 30-03-2020 23:40:18 4.2 C 31 %
4169 30-03-2020 23:50:17 4.2 C 31 %
Sensor: Nr:Datum:Temp:Feuchte:
G-T/H 1 02-03-2020 00:08:18 10 C 74 %
2 02-03-2020 00:18:17 10 C 74 %
3 02-03-2020 00:28:17 10 C 73 %
4 02-03-2020 00:38:17 10 C 73 %
5 02-03-2020 00:48:17 10 C 73 %
6 02-03-2020 00:58:18 10 C 73 %
7 02-03-2020 01:08:18 9.9 C 74 %
8 02-03-2020 01:18:17 9.9 C 74 %
9 02-03-2020 01:28:17 9.9 C 73 %
10 02-03-2020 01:38:17 9.9 C 73 %
11 02-03-2020 01:48:18 9.9 C 73 %
12 02-03-2020 01:58:18 9.9 C 73 %
13 02-03-2020 02:08:18 9.9 C 73 %
14 02-03-2020 02:18:17 9.8 C 73 %
15 02-03-2020 02:28:17 9.8 C 73 %
16 02-03-2020 02:38:17 9.8 C 73 %
17 02-03-2020 02:48:17 9.8 C 72 %
18 02-03-2020 02:58:18 9.8 C 72 %
19 02-03-2020 03:08:18 9.8 C 72 %
20 02-03-2020 03:18:18 9.7 C 72 %
21 02-03-2020 03:28:18 9.7 C 72 %
22 02-03-2020 03:38:18 9.8 C 72 %
23 02-03-2020 03:48:18 9.7 C 72 %
24 02-03-2020 03:58:18 9.7 C 72 %
25 02-03-2020 04:08:18 9.7 C 72 %
Sensor: Nr:Datum:Temp:Feuchte:
G-T/H 26 02-03-2020 04:18:17 9.7 C 72 %
27 02-03-2020 04:28:17 9.7 C 72 %
28 02-03-2020 04:38:18 9.7 C 72 %
29 02-03-2020 04:48:18 9.7 C 72 %
30 02-03-2020 04:58:18 9.7 C 72 %
31 02-03-2020 05:08:18 9.7 C 72 %
32 02-03-2020 05:18:17 9.7 C 72 %
33 02-03-2020 05:28:17 9.7 C 72 %
34 02-03-2020 05:38:18 9.6 C 72 %
35 02-03-2020 05:48:18 9.6 C 72 %
36 02-03-2020 05:58:18 9.6 C 72 %
37 02-03-2020 06:08:18 9.6 C 72 %
38 02-03-2020 06:18:18 9.6 C 72 %
39 02-03-2020 06:28:18 9.6 C 72 %
40 02-03-2020 06:38:18 9.6 C 72 %
41 02-03-2020 06:48:17 9.6 C 72 %
42 02-03-2020 06:58:17 9.5 C 72 %
43 02-03-2020 07:08:18 9.5 C 72 %
44 02-03-2020 07:18:18 9.5 C 72 %
45 02-03-2020 07:28:18 9.5 C 72 %
46 02-03-2020 07:38:18 9.5 C 72 %
47 02-03-2020 07:48:18 9.5 C 72 %
48 02-03-2020 07:58:18 9.5 C 72 %
49 02-03-2020 08:08:18 9.4 C 72 %
50 02-03-2020 08:18:17 9.5 C 72 %
Sensor: Nr:Datum:Temp:Feuchte:
G-T/H 51 02-03-2020 08:28:17 9.5 C 73 %
52 02-03-2020 08:38:18 9.5 C 73 %
53 02-03-2020 08:48:18 9.4 C 73 %
54 02-03-2020 08:58:18 9.4 C 73 %
55 02-03-2020 09:08:17 9.4 C 73 %
56 02-03-2020 09:18:17 9.4 C 73 %
57 02-03-2020 09:28:17 9.4 C 73 %
58 02-03-2020 09:38:17 9.4 C 73 %
59 02-03-2020 09:48:17 9.3 C 73 %
60 02-03-2020 09:58:17 9.3 C 73 %
61 02-03-2020 10:08:17 9.3 C 73 %
62 02-03-2020 10:18:17 9.3 C 73 %
63 02-03-2020 10:28:17 9.4 C 73 %
64 02-03-2020 10:38:18 9.3 C 73 %
65 02-03-2020 10:48:17 9.3 C 73 %
66 02-03-2020 10:58:17 9.3 C 73 %
67 02-03-2020 11:08:17 9.4 C 73 %
68 02-03-2020 11:18:17 9.3 C 73 %
69 02-03-2020 11:28:17 9.4 C 73 %
70 02-03-2020 11:38:17 9.4 C 73 %
71 02-03-2020 11:48:17 9.4 C 73 %
72 02-03-2020 11:58:17 9.4 C 73 %
73 02-03-2020 12:08:17 9.4 C 73 %
74 02-03-2020 12:18:17 9.4 C 73 %
75 02-03-2020 12:28:17 9.4 C 74 %
Sensor: Nr:Datum:Temp:Feuchte:
G-T/H 76 02-03-2020 12:38:18 9.4 C 74 %
77 02-03-2020 12:48:18 9.4 C 74 %
78 02-03-2020 12:58:18 9.5 C 74 %
79 02-03-2020 13:08:18 9.5 C 74 %
80 02-03-2020 13:18:18 9.5 C 74 %
81 02-03-2020 13:28:18 9.5 C 74 %
82 02-03-2020 13:38:17 9.5 C 74 %
83 02-03-2020 13:48:17 9.5 C 74 %
84 02-03-2020 13:58:17 9.5 C 74 %
85 02-03-2020 14:08:17 9.5 C 74 %
86 02-03-2020 14:18:17 9.5 C 74 %
87 02-03-2020 14:28:17 9.6 C 74 %
88 02-03-2020 14:38:17 9.6 C 74 %
89 02-03-2020 14:48:17 9.6 C 74 %
90 02-03-2020 14:58:17 9.6 C 74 %
91 02-03-2020 15:08:18 9.6 C 74 %
92 02-03-2020 15:18:18 9.6 C 74 %
93 02-03-2020 15:28:18 9.6 C 74 %
94 02-03-2020 15:38:18 9.7 C 74 %
95 02-03-2020 15:48:17 9.7 C 74 %
96 02-03-2020 15:58:18 9.7 C 74 %
97 02-03-2020 16:08:18 9.7 C 74 %
98 02-03-2020 16:18:18 9.7 C 74 %
99 02-03-2020 16:28:18 9.7 C 74 %
100 02-03-2020 16:38:18 9.7 C 74 %
Sensor: Nr:Datum:Temp:Feuchte:
G-T/H 101 02-03-2020 16:48:17 9.7 C 75 %
102 02-03-2020 16:58:17 9.7 C 75 %
103 02-03-2020 17:08:17 9.7 C 75 %
104 02-03-2020 17:18:17 9.8 C 75 %
105 02-03-2020 17:28:17 9.8 C 75 %
106 02-03-2020 17:38:18 9.8 C 75 %
107 02-03-2020 17:48:17 9.8 C 75 %
108 02-03-2020 17:58:18 9.8 C 75 %
109 02-03-2020 18:08:18 9.8 C 75 %
110 02-03-2020 18:18:18 9.8 C 75 %
111 02-03-2020 18:28:18 9.8 C 75 %
112 02-03-2020 18:38:18 9.8 C 75 %
113 02-03-2020 18:48:17 9.8 C 75 %
114 02-03-2020 18:58:18 9.8 C 75 %
115 02-03-2020 19:08:18 9.9 C 75 %
116 02-03-2020 19:18:18 9.8 C 75 %
117 02-03-2020 19:28:18 9.9 C 75 %
118 02-03-2020 19:38:18 9.9 C 75 %
119 02-03-2020 19:48:17 9.9 C 75 %
120 02-03-2020 19:58:18 9.8 C 75 %
121 02-03-2020 20:08:18 9.9 C 75 %
122 02-03-2020 20:18:17 9.9 C 75 %
123 02-03-2020 20:28:18 9.9 C 75 %
124 02-03-2020 20:38:18 9.9 C 75 %
125 02-03-2020 20:48:17 9.9 C 75 %
Sensor: Nr:Datum:Temp:Feuchte:
G-T/H 126 02-03-2020 20:58:17 9.9 C 75 %
127 02-03-2020 21:08:18 9.9 C 75 %
128 02-03-2020 21:18:18 9.9 C 75 %
129 02-03-2020 21:28:18 9.9 C 75 %
130 02-03-2020 21:38:18 9.9 C 75 %
131 02-03-2020 21:48:18 9.9 C 75 %
132 02-03-2020 21:58:18 9.9 C 75 %
133 02-03-2020 22:08:18 9.9 C 75 %
134 02-03-2020 22:18:17 9.9 C 75 %
135 02-03-2020 22:28:17 9.9 C 75 %
136 02-03-2020 22:38:17 9.9 C 75 %
137 02-03-2020 22:48:17 9.9 C 75 %
138 02-03-2020 22:58:17 9.9 C 75 %
139 02-03-2020 23:08:17 9.9 C 75 %
140 02-03-2020 23:18:17 9.9 C 75 %
141 02-03-2020 23:28:17 9.9 C 75 %
142 02-03-2020 23:38:17 9.9 C 75 %
143 02-03-2020 23:48:17 9.9 C 75 %
144 02-03-2020 23:58:17 9.9 C 75 %
145 03-03-2020 00:08:18 9.9 C 75 %
146 03-03-2020 00:18:18 9.9 C 75 %
147 03-03-2020 00:28:18 9.9 C 75 %
148 03-03-2020 00:38:18 9.9 C 75 %
149 03-03-2020 00:48:17 9.9 C 75 %
150 03-03-2020 00:58:17 9.9 C 75 %
Sensor: Nr:Datum:Temp:Feuchte:
G-T/H 151 03-03-2020 01:08:17 9.9 C 75 %
152 03-03-2020 01:18:17 9.9 C 75 %
153 03-03-2020 01:28:17 9.9 C 75 %
154 03-03-2020 01:38:18 9.9 C 75 %
155 03-03-2020 01:48:17 9.9 C 75 %
156 03-03-2020 01:58:17 9.9 C 75 %
157 03-03-2020 02:08:17 9.9 C 75 %
158 03-03-2020 02:18:17 9.9 C 75 %
159 03-03-2020 02:28:17 9.9 C 75 %
160 03-03-2020 02:38:18 9.9 C 75 %
161 03-03-2020 02:48:18 9.9 C 75 %
162 03-03-2020 02:58:18 9.9 C 75 %
163 03-03-2020 03:08:17 9.9 C 75 %
164 03-03-2020 03:18:17 9.9 C 75 %
165 03-03-2020 03:28:17 9.9 C 74 %
166 03-03-2020 03:38:18 9.9 C 74 %
167 03-03-2020 03:48:18 9.8 C 74 %
168 03-03-2020 03:58:18 9.9 C 74 %
169 03-03-2020 04:08:17 9.8 C 74 %
170 03-03-2020 04:18:17 9.8 C 74 %
171 03-03-2020 04:28:17 9.8 C 74 %
172 03-03-2020 04:38:18 9.8 C 74 %
173 03-03-2020 04:48:17 9.8 C 74 %
174 03-03-2020 04:58:18 9.8 C 74 %
175 03-03-2020 05:08:18 9.8 C 74 %
Sensor: Nr:Datum:Temp:Feuchte:
G-T/H 176 03-03-2020 05:18:18 9.8 C 74 %
177 03-03-2020 05:28:18 9.8 C 74 %
178 03-03-2020 05:38:17 9.7 C 74 %
179 03-03-2020 05:48:18 9.8 C 74 %
180 03-03-2020 05:58:18 9.7 C 74 %
181 03-03-2020 06:08:17 9.7 C 74 %
182 03-03-2020 06:18:18 9.7 C 74 %
183 03-03-2020 06:28:18 9.7 C 74 %
184 03-03-2020 06:38:17 9.7 C 74 %
185 03-03-2020 06:48:18 9.7 C 74 %
186 03-03-2020 06:58:18 9.6 C 74 %
187 03-03-2020 07:08:18 9.7 C 73 %
188 03-03-2020 07:18:18 9.7 C 73 %
189 03-03-2020 07:28:18 9.6 C 73 %
190 03-03-2020 07:38:18 9.6 C 73 %
191 03-03-2020 07:48:17 9.6 C 73 %
192 03-03-2020 07:58:17 9.6 C 73 %
193 03-03-2020 08:08:18 9.6 C 73 %
194 03-03-2020 08:18:18 9.6 C 73 %
195 03-03-2020 08:28:18 9.6 C 73 %
196 03-03-2020 08:38:17 9.6 C 73 %
197 03-03-2020 08:48:17 9.6 C 73 %
198 03-03-2020 08:58:18 9.5 C 73 %
199 03-03-2020 09:08:18 9.5 C 73 %
200 03-03-2020 09:18:17 9.5 C 73 %
Sensor: Nr:Datum:Temp:Feuchte:
G-T/H 201 03-03-2020 09:28:17 9.5 C 73 %
202 03-03-2020 09:38:17 9.5 C 73 %
203 03-03-2020 09:48:18 9.5 C 73 %
204 03-03-2020 09:58:18 9.5 C 73 %
205 03-03-2020 10:08:18 9.5 C 73 %
206 03-03-2020 10:18:18 9.5 C 73 %
207 03-03-2020 10:28:18 9.5 C 73 %
208 03-03-2020 10:38:18 9.5 C 73 %
209 03-03-2020 10:48:17 9.5 C 73 %
210 03-03-2020 10:58:18 9.5 C 73 %
211 03-03-2020 11:08:17 9.5 C 73 %
212 03-03-2020 11:18:17 9.4 C 73 %
213 03-03-2020 11:28:17 9.5 C 73 %
214 03-03-2020 11:38:17 9.5 C 73 %
215 03-03-2020 11:48:17 9.4 C 73 %
216 03-03-2020 11:58:17 9.5 C 73 %
217 03-03-2020 12:08:17 9.4 C 73 %
218 03-03-2020 12:18:17 9.4 C 73 %
219 03-03-2020 12:28:17 9.4 C 73 %
220 03-03-2020 12:38:17 9.4 C 73 %
221 03-03-2020 12:48:17 9.4 C 73 %
222 03-03-2020 12:58:17 9.4 C 73 %
223 03-03-2020 13:08:17 9.4 C 73 %
224 03-03-2020 13:18:17 9.4 C 73 %
225 03-03-2020 13:28:18 9.4 C 74 %
Sensor: Nr:Datum:Temp:Feuchte:
G-T/H 226 03-03-2020 13:38:18 9.5 C 74 %
227 03-03-2020 13:48:17 9.4 C 74 %
228 03-03-2020 13:58:17 9.4 C 74 %
229 03-03-2020 14:08:18 9.4 C 74 %
230 03-03-2020 14:18:18 9.5 C 74 %
231 03-03-2020 14:28:18 9.5 C 74 %
232 03-03-2020 14:38:18 9.5 C 74 %
233 03-03-2020 14:48:18 9.5 C 74 %
234 03-03-2020 14:58:18 9.5 C 74 %
235 03-03-2020 15:08:18 9.5 C 74 %
236 03-03-2020 15:18:18 9.5 C 74 %
237 03-03-2020 15:28:18 9.4 C 74 %
238 03-03-2020 15:38:18 9.4 C 74 %
239 03-03-2020 15:48:17 9.4 C 74 %
240 03-03-2020 15:58:17 9.4 C 74 %
241 03-03-2020 16:08:18 9.5 C 74 %
242 03-03-2020 16:18:18 9.5 C 74 %
243 03-03-2020 16:28:18 9.5 C 74 %
244 03-03-2020 16:38:18 9.5 C 74 %
245 03-03-2020 16:48:17 9.5 C 74 %
246 03-03-2020 16:58:17 9.3 C 73 %
247 03-03-2020 17:08:17 9.2 C 71 %
248 03-03-2020 17:18:17 9.3 C 71 %
249 03-03-2020 17:28:18 9.3 C 71 %
250 03-03-2020 17:38:18 9.3 C 71 %
Sensor: Nr:Datum:Temp:Feuchte:
G-T/H 251 03-03-2020 17:48:17 9.4 C 71 %
252 03-03-2020 17:58:18 9.4 C 72 %
253 03-03-2020 18:08:18 9.4 C 72 %
254 03-03-2020 18:18:18 9.4 C 72 %
255 03-03-2020 18:28:18 9.4 C 72 %
256 03-03-2020 18:38:18 9.4 C 72 %
257 03-03-2020 18:48:17 9.4 C 72 %
258 03-03-2020 18:58:17 9.4 C 72 %
259 03-03-2020 19:08:17 9.4 C 72 %
260 03-03-2020 19:18:17 9.4 C 72 %
261 03-03-2020 19:28:17 9.4 C 73 %
262 03-03-2020 19:38:17 9.4 C 73 %
263 03-03-2020 19:48:17 9.4 C 73 %
264 03-03-2020 19:58:17 9.3 C 73 %
265 03-03-2020 20:08:17 9.4 C 73 %
266 03-03-2020 20:18:17 9.3 C 73 %
267 03-03-2020 20:28:17 9.3 C 73 %
268 03-03-2020 20:38:17 9.3 C 73 %
269 03-03-2020 20:48:17 9.3 C 73 %
270 03-03-2020 20:58:17 9.3 C 73 %
271 03-03-2020 21:08:17 9.3 C 72 %
272 03-03-2020 21:18:17 9.3 C 72 %
273 03-03-2020 21:28:17 9.3 C 72 %
274 03-03-2020 21:38:17 9.3 C 72 %
275 03-03-2020 21:48:17 9.3 C 72 %
Sensor: Nr:Datum:Temp:Feuchte:
G-T/H 276 03-03-2020 21:58:17 9.3 C 72 %
277 03-03-2020 22:08:17 9.3 C 72 %
278 03-03-2020 22:18:17 9.3 C 72 %
279 03-03-2020 22:28:17 9.3 C 72 %
280 03-03-2020 22:38:17 9.2 C 72 %
281 03-03-2020 22:48:17 9.2 C 72 %
282 03-03-2020 22:58:17 9.2 C 72 %
283 03-03-2020 23:08:17 9.2 C 72 %
284 03-03-2020 23:18:18 9.2 C 72 %
285 03-03-2020 23:28:18 9.2 C 72 %
286 03-03-2020 23:38:17 9.2 C 72 %
287 03-03-2020 23:48:17 9.2 C 72 %
288 03-03-2020 23:58:17 9.2 C 72 %
289 04-03-2020 00:08:17 9.1 C 72 %
290 04-03-2020 00:18:18 9.1 C 72 %
291 04-03-2020 00:28:18 9.1 C 72 %
292 04-03-2020 00:38:18 9.1 C 72 %
293 04-03-2020 00:48:17 9.1 C 72 %
294 04-03-2020 00:58:17 9.1 C 72 %
295 04-03-2020 01:08:17 9.1 C 72 %
296 04-03-2020 01:18:17 9.1 C 72 %
297 04-03-2020 01:28:17 9.1 C 72 %
298 04-03-2020 01:38:17 9 C 72 %
299 04-03-2020 01:48:17 9 C 72 %
300 04-03-2020 01:58:17 9 C 72 %
Sensor: Nr:Datum:Temp:Feuchte:
G-T/H 301 04-03-2020 02:08:17 9 C 72 %
302 04-03-2020 02:18:17 9 C 72 %
303 04-03-2020 02:28:18 9 C 72 %
304 04-03-2020 02:38:18 9 C 72 %
305 04-03-2020 02:48:17 9 C 72 %
306 04-03-2020 02:58:18 9 C 72 %
307 04-03-2020 03:08:17 9 C 72 %
308 04-03-2020 03:18:17 9 C 72 %
309 04-03-2020 03:28:17 8.9 C 73 %
310 04-03-2020 03:38:17 8.9 C 73 %
311 04-03-2020 03:48:17 8.9 C 73 %
312 04-03-2020 03:58:18 8.9 C 73 %
313 04-03-2020 04:08:18 8.9 C 73 %
314 04-03-2020 04:18:18 8.9 C 73 %
315 04-03-2020 04:28:18 8.9 C 73 %
316 04-03-2020 04:38:18 8.9 C 73 %
317 04-03-2020 04:48:17 8.9 C 73 %
318 04-03-2020 04:58:18 8.9 C 73 %
319 04-03-2020 05:08:18 8.8 C 73 %
320 04-03-2020 05:18:18 8.8 C 73 %
321 04-03-2020 05:28:18 8.8 C 73 %
322 04-03-2020 05:38:18 8.8 C 73 %
323 04-03-2020 05:48:17 8.8 C 73 %
324 04-03-2020 05:58:18 8.8 C 73 %
325 04-03-2020 06:08:18 8.7 C 73 %
Sensor: Nr:Datum:Temp:Feuchte:
G-T/H 326 04-03-2020 06:18:18 8.8 C 73 %
327 04-03-2020 06:28:18 8.8 C 73 %
328 04-03-2020 06:38:18 8.8 C 73 %
329 04-03-2020 06:48:17 8.8 C 74 %
330 04-03-2020 06:58:17 8.8 C 74 %
331 04-03-2020 07:08:17 8.7 C 74 %
332 04-03-2020 07:18:17 8.8 C 74 %
333 04-03-2020 07:28:17 8.7 C 74 %
334 04-03-2020 07:38:18 8.7 C 74 %
335 04-03-2020 07:48:17 8.7 C 74 %
336 04-03-2020 07:58:17 8.7 C 74 %
337 04-03-2020 08:08:18 8.7 C 74 %
338 04-03-2020 08:18:17 8.7 C 74 %
339 04-03-2020 08:28:17 8.7 C 74 %
340 04-03-2020 08:38:18 8.7 C 74 %
341 04-03-2020 08:48:18 8.7 C 74 %
342 04-03-2020 08:58:18 8.7 C 74 %
343 04-03-2020 09:08:18 8.7 C 74 %
344 04-03-2020 09:18:18 8.7 C 74 %
345 04-03-2020 09:28:18 8.7 C 74 %
346 04-03-2020 09:38:18 8.7 C 74 %
347 04-03-2020 09:48:17 8.7 C 74 %
348 04-03-2020 09:58:18 8.7 C 74 %
349 04-03-2020 10:08:18 8.6 C 74 %
350 04-03-2020 10:18:18 8.7 C 74 %
Sensor: Nr:Datum:Temp:Feuchte:
G-T/H 351 04-03-2020 10:28:18 8.7 C 74 %
352 04-03-2020 10:38:17 8.7 C 74 %
353 04-03-2020 10:48:18 8.7 C 74 %
354 04-03-2020 10:58:18 8.7 C 74 %
355 04-03-2020 11:08:18 8.7 C 74 %
356 04-03-2020 11:18:18 8.7 C 74 %
357 04-03-2020 11:28:18 8.7 C 74 %
358 04-03-2020 11:38:18 8.7 C 74 %
359 04-03-2020 11:48:18 8.7 C 74 %
360 04-03-2020 11:58:18 8.7 C 74 %
361 04-03-2020 12:08:18 8.7 C 74 %
362 04-03-2020 12:18:18 8.7 C 74 %
363 04-03-2020 12:28:18 8.7 C 74 %
364 04-03-2020 12:38:18 8.7 C 74 %
365 04-03-2020 12:48:17 8.8 C 74 %
366 04-03-2020 12:58:17 8.8 C 74 %
367 04-03-2020 13:08:17 8.8 C 74 %
368 04-03-2020 13:18:17 8.8 C 74 %
369 04-03-2020 13:28:17 8.8 C 74 %
370 04-03-2020 13:38:18 8.8 C 74 %
371 04-03-2020 13:48:17 8.8 C 74 %
372 04-03-2020 13:58:17 8.9 C 74 %
373 04-03-2020 14:08:18 8.9 C 74 %
374 04-03-2020 14:18:18 8.9 C 74 %
375 04-03-2020 14:28:18 8.9 C 74 %
Sensor: Nr:Datum:Temp:Feuchte:
G-T/H 376 04-03-2020 14:38:18 8.9 C 75 %
377 04-03-2020 14:48:18 8.9 C 75 %
378 04-03-2020 14:58:18 9 C 74 %
379 04-03-2020 15:08:18 9 C 74 %
380 04-03-2020 15:18:18 9 C 74 %
381 04-03-2020 15:28:18 9 C 74 %
382 04-03-2020 15:38:18 9 C 74 %
383 04-03-2020 15:48:17 9 C 74 %
384 04-03-2020 15:58:18 9 C 74 %
385 04-03-2020 16:08:17 9.1 C 74 %
386 04-03-2020 16:18:17 9.1 C 74 %
387 04-03-2020 16:28:17 9.1 C 74 %
388 04-03-2020 16:38:17 9.1 C 74 %
389 04-03-2020 16:48:17 9.1 C 74 %
390 04-03-2020 16:58:17 9.1 C 74 %
391 04-03-2020 17:08:17 9.1 C 74 %
392 04-03-2020 17:18:17 9.1 C 74 %
393 04-03-2020 17:28:18 9.2 C 74 %
394 04-03-2020 17:38:18 9.2 C 74 %
395 04-03-2020 17:48:17 9.2 C 74 %
396 04-03-2020 17:58:17 9.2 C 74 %
397 04-03-2020 18:08:17 9.2 C 74 %
398 04-03-2020 18:18:17 9.2 C 74 %
399 04-03-2020 18:28:17 9.2 C 74 %
400 04-03-2020 18:38:17 9.2 C 74 %
Sensor: Nr:Datum:Temp:Feuchte:
G-T/H 401 04-03-2020 18:48:17 9.2 C 74 %
402 04-03-2020 18:58:17 9.2 C 74 %
403 04-03-2020 19:08:17 9.2 C 74 %
404 04-03-2020 19:18:17 9.2 C 74 %
405 04-03-2020 19:28:17 9.2 C 74 %
406 04-03-2020 19:38:17 9.2 C 74 %
407 04-03-2020 19:48:18 9.2 C 74 %
408 04-03-2020 19:58:18 9.2 C 74 %
409 04-03-2020 20:08:17 9.2 C 74 %
410 04-03-2020 20:18:17 9.2 C 74 %
411 04-03-2020 20:28:17 9.2 C 74 %
412 04-03-2020 20:38:17 9.2 C 74 %
413 04-03-2020 20:48:18 9.2 C 74 %
414 04-03-2020 20:58:18 9.2 C 74 %
415 04-03-2020 21:08:18 9.2 C 74 %
416 04-03-2020 21:18:18 9.2 C 74 %
417 04-03-2020 21:28:18 9.2 C 74 %
418 04-03-2020 21:38:18 9.2 C 74 %
419 04-03-2020 21:48:18 9.2 C 74 %
420 04-03-2020 21:58:18 9.2 C 74 %
421 04-03-2020 22:08:18 9.2 C 73 %
422 04-03-2020 22:18:17 9.2 C 73 %
423 04-03-2020 22:28:17 9.2 C 73 %
424 04-03-2020 22:38:17 9.2 C 73 %
425 04-03-2020 22:48:17 9.2 C 73 %
Sensor: Nr:Datum:Temp:Feuchte:
G-T/H 426 04-03-2020 22:58:17 9.2 C 73 %
427 04-03-2020 23:08:17 9.2 C 73 %
428 04-03-2020 23:18:17 9.2 C 73 %
429 04-03-2020 23:28:18 9.2 C 73 %
430 04-03-2020 23:38:18 9.2 C 73 %
431 04-03-2020 23:48:18 9.2 C 73 %
432 04-03-2020 23:58:18 9.2 C 73 %
433 05-03-2020 00:08:18 9.2 C 73 %
434 05-03-2020 00:18:18 9.2 C 73 %
435 05-03-2020 00:28:18 9.2 C 73 %
436 05-03-2020 00:38:17 9.1 C 73 %
437 05-03-2020 00:48:17 9.1 C 73 %
438 05-03-2020 00:58:17 9.1 C 73 %
439 05-03-2020 01:08:17 9.1 C 73 %
440 05-03-2020 01:18:17 9.1 C 73 %
441 05-03-2020 01:28:17 9.1 C 73 %
442 05-03-2020 01:38:17 9.1 C 73 %
443 05-03-2020 01:48:18 9.1 C 73 %
444 05-03-2020 01:58:18 9.1 C 73 %
445 05-03-2020 02:08:18 9.1 C 73 %
446 05-03-2020 02:18:18 9.1 C 73 %
447 05-03-2020 02:28:18 9.1 C 73 %
448 05-03-2020 02:38:18 9.1 C 73 %
449 05-03-2020 02:48:18 9.1 C 73 %
450 05-03-2020 02:58:18 9.1 C 73 %
Sensor: Nr:Datum:Temp:Feuchte:
G-T/H 451 05-03-2020 03:08:18 9.1 C 73 %
452 05-03-2020 03:18:17 9.1 C 73 %
453 05-03-2020 03:28:17 9 C 73 %
454 05-03-2020 03:38:17 9 C 73 %
455 05-03-2020 03:48:17 9 C 73 %
456 05-03-2020 03:58:17 9.1 C 73 %
457 05-03-2020 04:08:17 9 C 73 %
458 05-03-2020 04:18:17 9.1 C 73 %
459 05-03-2020 04:28:18 9 C 73 %
460 05-03-2020 04:38:18 9 C 73 %
461 05-03-2020 04:48:17 9 C 73 %
462 05-03-2020 04:58:18 9 C 73 %
463 05-03-2020 05:08:18 9 C 73 %
464 05-03-2020 05:18:18 9 C 73 %
465 05-03-2020 05:28:18 9 C 73 %
466 05-03-2020 05:38:18 9 C 73 %
467 05-03-2020 05:48:17 9 C 73 %
468 05-03-2020 05:58:18 9 C 73 %
469 05-03-2020 06:08:18 9 C 73 %
470 05-03-2020 06:18:18 9 C 73 %
471 05-03-2020 06:28:18 9 C 73 %
472 05-03-2020 06:38:18 9 C 73 %
473 05-03-2020 06:48:17 9 C 73 %
474 05-03-2020 06:58:17 9 C 73 %
475 05-03-2020 07:08:18 9 C 73 %
Sensor: Nr:Datum:Temp:Feuchte:
G-T/H 476 05-03-2020 07:18:17 9 C 73 %
477 05-03-2020 07:28:18 9 C 73 %
478 05-03-2020 07:38:18 9 C 73 %
479 05-03-2020 07:48:17 9 C 73 %
480 05-03-2020 07:58:17 9 C 73 %
481 05-03-2020 08:08:18 9 C 74 %
482 05-03-2020 08:18:18 9 C 73 %
483 05-03-2020 08:28:18 9 C 74 %
484 05-03-2020 08:38:17 9 C 74 %
485 05-03-2020 08:48:17 9 C 74 %
486 05-03-2020 08:58:17 9 C 74 %
487 05-03-2020 09:08:17 9 C 74 %
488 05-03-2020 09:18:17 9 C 74 %
489 05-03-2020 09:28:17 9 C 74 %
490 05-03-2020 09:38:17 9 C 74 %
491 05-03-2020 09:48:17 9 C 74 %
492 05-03-2020 09:58:17 9 C 74 %
493 05-03-2020 10:08:18 9 C 74 %
494 05-03-2020 10:18:17 9 C 74 %
495 05-03-2020 10:28:17 9 C 74 %
496 05-03-2020 10:38:18 9 C 74 %
497 05-03-2020 10:48:18 9 C 74 %
498 05-03-2020 10:58:18 9 C 74 %
499 05-03-2020 11:08:17 9 C 74 %
500 05-03-2020 11:18:17 9 C 74 %
Sensor: Nr:Datum:Temp:Feuchte:
G-T/H 501 05-03-2020 11:28:17 9 C 74 %
502 05-03-2020 11:38:18 9 C 74 %
503 05-03-2020 11:48:18 9 C 74 %
504 05-03-2020 11:58:18 9 C 74 %